<?xml version="1.0" encoding="UTF-8" standalone="no" ?>
<gpx xmlns="http://www.topografix.com/GPX/1/1" xmlns:xsi="http://www.w3.org/2001/XMLSchema-instance" xsi:schemaLocation="http://www.topografix.com/GPX/1/1 http://www.topografix.com/GPX/1/1/gpx.xsd" version="1.1" creator="VisuGPX - https://www.visugpx.com">
  <metadata>
    <name>TET_E-12-NA-C_20241226</name>
    <desc><![CDATA[

]]></desc>
  </metadata>
  <wpt lat="42.52678" lon="-1.51654">
    <ele>754.1</ele>
    <name><![CDATA[INFO_EasyGoBackPoint:GNR04:1A]]></name>
    <desc><![CDATA[EasyGoBackPoint GNR04:1A]]></desc>
  </wpt>
  <wpt lat="42.52637" lon="-1.549">
    <ele>577.1</ele>
    <name><![CDATA[INFO_EasyGoBackPoint:GNR04:1B]]></name>
    <desc><![CDATA[EasyGoBackPoint GNR04:1B]]></desc>
  </wpt>
  <wpt lat="42.66875" lon="-2.04388">
    <ele>564.5</ele>
    <name><![CDATA[INFO_EasyGoBackPoint:GNR04:2A]]></name>
    <desc><![CDATA[EasyGoBackPoint:GNR04:2A]]></desc>
  </wpt>
  <wpt lat="42.65546" lon="-2.05484">
    <ele>515.9</ele>
    <name><![CDATA[INFO_EasyGoBackPoint:GNR04:2B]]></name>
    <desc><![CDATA[EasyGoBackPoint:GNR04:2B]]></desc>
  </wpt>
  <wpt lat="42.52585" lon="-1.62954">
    <ele>563</ele>
    <name><![CDATA[INFO_shortcut:GNR04:1A]]></name>
    <desc><![CDATA[shortcut:GNR04:1A]]></desc>
  </wpt>
  <wpt lat="42.53949" lon="-1.60501">
    <ele>771.6</ele>
    <name><![CDATA[INFO_shortcut:GNR04:1B]]></name>
    <desc><![CDATA[shortcut:GNR04:1B]]></desc>
  </wpt>
  <wpt lat="42.6254" lon="-1.75162">
    <ele>523.6</ele>
    <name><![CDATA[INFO_shortcut:GNR04:2A]]></name>
    <desc><![CDATA[shortcut:GNR04:2A]]></desc>
  </wpt>
  <wpt lat="42.62281" lon="-1.76827">
    <ele>483.7</ele>
    <name><![CDATA[INFO_shortcut:GNR04:2B]]></name>
    <desc><![CDATA[shortcut:GNR04:2B]]></desc>
  </wpt>
  <trk>
    <name><![CDATA[TET_E-12-NA-C_20241226]]></name>
    <extensions>
      <line xmlns="http://www.topografix.com/GPX/gpx_style/0/2">
        <color>008888</color>
        <width>4</width>
      </line>
    </extensions>
    <trkseg>
      <trkpt lat="42.34323" lon="-1.34157">
        <ele>406.3</ele>
        <time>2023-08-07T15:40:35.000+02:00</time>
      </trkpt>
      <trkpt lat="42.3441" lon="-1.34172">
        <ele>398.4</ele>
        <time>2023-08-07T15:40:48.000+02:00</time>
      </trkpt>
      <trkpt lat="42.34401" lon="-1.34395">
        <ele>398.4</ele>
        <time>2023-08-07T15:41:14.000+02:00</time>
      </trkpt>
      <trkpt lat="42.34354" lon="-1.34542">
        <ele>397.8</ele>
        <time>2023-08-07T15:41:32.000+02:00</time>
      </trkpt>
      <trkpt lat="42.34412" lon="-1.34702">
        <ele>396.8</ele>
        <time>2023-08-07T15:41:52.000+02:00</time>
      </trkpt>
      <trkpt lat="42.34304" lon="-1.35006">
        <ele>398.2</ele>
        <time>2023-08-07T15:42:30.000+02:00</time>
      </trkpt>
      <trkpt lat="42.34336" lon="-1.35261">
        <ele>395.2</ele>
        <time>2023-08-07T15:42:59.000+02:00</time>
      </trkpt>
      <trkpt lat="42.34362" lon="-1.35341">
        <ele>394.5</ele>
        <time>2023-08-07T15:43:09.000+02:00</time>
      </trkpt>
      <trkpt lat="42.34423" lon="-1.35409">
        <ele>390.5</ele>
        <time>2023-08-07T15:43:21.000+02:00</time>
      </trkpt>
      <trkpt lat="42.34612" lon="-1.35506">
        <ele>387</ele>
        <time>2023-08-07T15:43:52.000+02:00</time>
      </trkpt>
      <trkpt lat="42.34637" lon="-1.35599">
        <ele>386</ele>
        <time>2023-08-07T15:44:03.000+02:00</time>
      </trkpt>
      <trkpt lat="42.34546" lon="-1.35974">
        <ele>383.7</ele>
        <time>2023-08-07T15:44:48.000+02:00</time>
      </trkpt>
      <trkpt lat="42.34524" lon="-1.36367">
        <ele>379.2</ele>
        <time>2023-08-07T15:45:32.000+02:00</time>
      </trkpt>
      <trkpt lat="42.34812" lon="-1.36779">
        <ele>381</ele>
        <time>2023-08-07T15:46:36.000+02:00</time>
      </trkpt>
      <trkpt lat="42.34905" lon="-1.36962">
        <ele>379.7</ele>
        <time>2023-08-07T15:47:01.000+02:00</time>
      </trkpt>
      <trkpt lat="42.34923" lon="-1.37237">
        <ele>379</ele>
        <time>2023-08-07T15:47:32.000+02:00</time>
      </trkpt>
      <trkpt lat="42.35014" lon="-1.37212">
        <ele>380</ele>
        <time>2023-08-07T15:47:47.000+02:00</time>
      </trkpt>
      <trkpt lat="42.35421" lon="-1.37211">
        <ele>378.9</ele>
        <time>2023-08-07T15:48:49.000+02:00</time>
      </trkpt>
      <trkpt lat="42.35285" lon="-1.37401">
        <ele>379.3</ele>
        <time>2023-08-07T15:49:19.000+02:00</time>
      </trkpt>
      <trkpt lat="42.35169" lon="-1.37677">
        <ele>375.6</ele>
        <time>2023-08-07T15:49:55.000+02:00</time>
      </trkpt>
      <trkpt lat="42.35165" lon="-1.37719">
        <ele>375</ele>
        <time>2023-08-07T15:49:59.000+02:00</time>
      </trkpt>
      <trkpt lat="42.35267" lon="-1.38024">
        <ele>373.4</ele>
        <time>2023-08-07T15:50:37.000+02:00</time>
      </trkpt>
      <trkpt lat="42.35372" lon="-1.37929">
        <ele>374.6</ele>
        <time>2023-08-07T15:50:57.000+02:00</time>
      </trkpt>
      <trkpt lat="42.35442" lon="-1.38032">
        <ele>377</ele>
        <time>2023-08-07T15:51:12.000+02:00</time>
      </trkpt>
      <trkpt lat="42.35568" lon="-1.38377">
        <ele>378.9</ele>
        <time>2023-08-07T15:51:56.000+02:00</time>
      </trkpt>
      <trkpt lat="42.35676" lon="-1.38588">
        <ele>379.4</ele>
        <time>2023-08-07T15:52:25.000+02:00</time>
      </trkpt>
      <trkpt lat="42.35776" lon="-1.38974">
        <ele>379</ele>
        <time>2023-08-07T15:53:11.000+02:00</time>
      </trkpt>
      <trkpt lat="42.35922" lon="-1.39327">
        <ele>370.5</ele>
        <time>2023-08-07T15:53:57.000+02:00</time>
      </trkpt>
      <trkpt lat="42.35962" lon="-1.39352">
        <ele>368.4</ele>
        <time>2023-08-07T15:54:04.000+02:00</time>
      </trkpt>
      <trkpt lat="42.36152" lon="-1.39278">
        <ele>367.6</ele>
        <time>2023-08-07T15:54:34.000+02:00</time>
      </trkpt>
      <trkpt lat="42.36188" lon="-1.39309">
        <ele>368</ele>
        <time>2023-08-07T15:54:40.000+02:00</time>
      </trkpt>
      <trkpt lat="42.36023" lon="-1.39435">
        <ele>367.8</ele>
        <time>2023-08-07T15:55:09.000+02:00</time>
      </trkpt>
      <trkpt lat="42.35985" lon="-1.3959">
        <ele>367</ele>
        <time>2023-08-07T15:55:28.000+02:00</time>
      </trkpt>
      <trkpt lat="42.36052" lon="-1.39802">
        <ele>371.7</ele>
        <time>2023-08-07T15:55:54.000+02:00</time>
      </trkpt>
      <trkpt lat="42.36147" lon="-1.39936">
        <ele>379</ele>
        <time>2023-08-07T15:56:15.000+02:00</time>
      </trkpt>
      <trkpt lat="42.36241" lon="-1.40296">
        <ele>393.6</ele>
        <time>2023-08-07T15:56:58.000+02:00</time>
      </trkpt>
      <trkpt lat="42.36498" lon="-1.40863">
        <ele>401</ele>
        <time>2023-08-07T15:58:13.000+02:00</time>
      </trkpt>
      <trkpt lat="42.36525" lon="-1.40965">
        <ele>402.9</ele>
        <time>2023-08-07T15:58:25.000+02:00</time>
      </trkpt>
      <trkpt lat="42.36663" lon="-1.41174">
        <ele>413.7</ele>
        <time>2023-08-07T15:58:57.000+02:00</time>
      </trkpt>
      <trkpt lat="42.3678" lon="-1.41277">
        <ele>421.3</ele>
        <time>2023-08-07T15:59:18.000+02:00</time>
      </trkpt>
      <trkpt lat="42.36797" lon="-1.41348">
        <ele>425.2</ele>
        <time>2023-08-07T15:59:26.000+02:00</time>
      </trkpt>
      <trkpt lat="42.36832" lon="-1.41383">
        <ele>426.3</ele>
        <time>2023-08-07T15:59:33.000+02:00</time>
      </trkpt>
      <trkpt lat="42.36857" lon="-1.41554">
        <ele>429</ele>
        <time>2023-08-07T15:59:53.000+02:00</time>
      </trkpt>
      <trkpt lat="42.36919" lon="-1.41693">
        <ele>435</ele>
        <time>2023-08-07T16:00:11.000+02:00</time>
      </trkpt>
      <trkpt lat="42.36905" lon="-1.41808">
        <ele>445.9</ele>
        <time>2023-08-07T16:00:24.000+02:00</time>
      </trkpt>
      <trkpt lat="42.36926" lon="-1.41946">
        <ele>455.7</ele>
        <time>2023-08-07T16:00:40.000+02:00</time>
      </trkpt>
      <trkpt lat="42.36989" lon="-1.42027">
        <ele>461.9</ele>
        <time>2023-08-07T16:00:53.000+02:00</time>
      </trkpt>
      <trkpt lat="42.37047" lon="-1.42033">
        <ele>464.7</ele>
        <time>2023-08-07T16:01:02.000+02:00</time>
      </trkpt>
      <trkpt lat="42.37136" lon="-1.42265">
        <ele>467</ele>
        <time>2023-08-07T16:01:32.000+02:00</time>
      </trkpt>
      <trkpt lat="42.37157" lon="-1.4238">
        <ele>467</ele>
        <time>2023-08-07T16:01:45.000+02:00</time>
      </trkpt>
      <trkpt lat="42.37245" lon="-1.42546">
        <ele>467</ele>
        <time>2023-08-07T16:02:08.000+02:00</time>
      </trkpt>
      <trkpt lat="42.37288" lon="-1.42529">
        <ele>467.9</ele>
        <time>2023-08-07T16:02:15.000+02:00</time>
      </trkpt>
      <trkpt lat="42.37321" lon="-1.42738">
        <ele>455.1</ele>
        <time>2023-08-07T16:02:39.000+02:00</time>
      </trkpt>
      <trkpt lat="42.37457" lon="-1.4301">
        <ele>416.3</ele>
        <time>2023-08-07T16:03:16.000+02:00</time>
      </trkpt>
      <trkpt lat="42.37519" lon="-1.43078">
        <ele>408</ele>
        <time>2023-08-07T16:03:28.000+02:00</time>
      </trkpt>
      <trkpt lat="42.37334" lon="-1.43578">
        <ele>391.3</ele>
        <time>2023-08-07T16:04:32.000+02:00</time>
      </trkpt>
      <trkpt lat="42.37327" lon="-1.43715">
        <ele>377.7</ele>
        <time>2023-08-07T16:04:47.000+02:00</time>
      </trkpt>
      <trkpt lat="42.37394" lon="-1.43841">
        <ele>372</ele>
        <time>2023-08-07T16:05:05.000+02:00</time>
      </trkpt>
      <trkpt lat="42.3728" lon="-1.44226">
        <ele>364.6</ele>
        <time>2023-08-07T16:05:51.000+02:00</time>
      </trkpt>
      <trkpt lat="42.37338" lon="-1.44289">
        <ele>360.8</ele>
        <time>2023-08-07T16:06:03.000+02:00</time>
      </trkpt>
      <trkpt lat="42.37844" lon="-1.44437">
        <ele>352.3</ele>
        <time>2023-08-07T16:07:22.000+02:00</time>
      </trkpt>
      <trkpt lat="42.37889" lon="-1.4461">
        <ele>351</ele>
        <time>2023-08-07T16:07:43.000+02:00</time>
      </trkpt>
      <trkpt lat="42.38017" lon="-1.44621">
        <ele>351.1</ele>
        <time>2023-08-07T16:08:02.000+02:00</time>
      </trkpt>
      <trkpt lat="42.38079" lon="-1.44655">
        <ele>348.2</ele>
        <time>2023-08-07T16:08:12.000+02:00</time>
      </trkpt>
      <trkpt lat="42.38079" lon="-1.44948">
        <ele>339</ele>
        <time>2023-08-07T16:08:46.000+02:00</time>
      </trkpt>
      <trkpt lat="42.38173" lon="-1.45208">
        <ele>338.4</ele>
        <time>2023-08-07T16:09:18.000+02:00</time>
      </trkpt>
      <trkpt lat="42.38217" lon="-1.45464">
        <ele>338.6</ele>
        <time>2023-08-07T16:09:48.000+02:00</time>
      </trkpt>
      <trkpt lat="42.38258" lon="-1.45533">
        <ele>340.1</ele>
        <time>2023-08-07T16:09:58.000+02:00</time>
      </trkpt>
      <trkpt lat="42.38626" lon="-1.45549">
        <ele>338.9</ele>
        <time>2023-08-07T16:10:54.000+02:00</time>
      </trkpt>
      <trkpt lat="42.39109" lon="-1.45748">
        <ele>346.9</ele>
        <time>2023-08-07T16:12:11.000+02:00</time>
      </trkpt>
      <trkpt lat="42.39312" lon="-1.45961">
        <ele>359.2</ele>
        <time>2023-08-07T16:12:50.000+02:00</time>
      </trkpt>
      <trkpt lat="42.39329" lon="-1.46006">
        <ele>360.2</ele>
        <time>2023-08-07T16:12:56.000+02:00</time>
      </trkpt>
      <trkpt lat="42.39443" lon="-1.4592">
        <ele>356.4</ele>
        <time>2023-08-07T16:13:16.000+02:00</time>
      </trkpt>
      <trkpt lat="42.3962" lon="-1.45953">
        <ele>361.1</ele>
        <time>2023-08-07T16:13:43.000+02:00</time>
      </trkpt>
      <trkpt lat="42.39673" lon="-1.45918">
        <ele>364.7</ele>
        <time>2023-08-07T16:13:52.000+02:00</time>
      </trkpt>
      <trkpt lat="42.39962" lon="-1.45471">
        <ele>393</ele>
        <time>2023-08-07T16:14:59.000+02:00</time>
      </trkpt>
      <trkpt lat="42.40094" lon="-1.45359">
        <ele>395.7</ele>
        <time>2023-08-07T16:15:23.000+02:00</time>
      </trkpt>
      <trkpt lat="42.40124" lon="-1.45407">
        <ele>395.5</ele>
        <time>2023-08-07T16:15:30.000+02:00</time>
      </trkpt>
      <trkpt lat="42.40295" lon="-1.45502">
        <ele>395.1</ele>
        <time>2023-08-07T16:15:59.000+02:00</time>
      </trkpt>
      <trkpt lat="42.40698" lon="-1.45273">
        <ele>402.2</ele>
        <time>2023-08-07T16:17:05.000+02:00</time>
      </trkpt>
      <trkpt lat="42.40911" lon="-1.45027">
        <ele>411.6</ele>
        <time>2023-08-07T16:17:48.000+02:00</time>
      </trkpt>
      <trkpt lat="42.4103" lon="-1.45083">
        <ele>419</ele>
        <time>2023-08-07T16:18:07.000+02:00</time>
      </trkpt>
      <trkpt lat="42.41236" lon="-1.45069">
        <ele>416.2</ele>
        <time>2023-08-07T16:18:39.000+02:00</time>
      </trkpt>
      <trkpt lat="42.41535" lon="-1.44958">
        <ele>416.8</ele>
        <time>2023-08-07T16:19:26.000+02:00</time>
      </trkpt>
      <trkpt lat="42.41668" lon="-1.44837">
        <ele>420.9</ele>
        <time>2023-08-07T16:19:51.000+02:00</time>
      </trkpt>
      <trkpt lat="42.41718" lon="-1.44747">
        <ele>424.7</ele>
        <time>2023-08-07T16:20:03.000+02:00</time>
      </trkpt>
      <trkpt lat="42.41776" lon="-1.44739">
        <ele>429.5</ele>
        <time>2023-08-07T16:20:12.000+02:00</time>
      </trkpt>
      <trkpt lat="42.4189" lon="-1.44825">
        <ele>423.5</ele>
        <time>2023-08-07T16:20:32.000+02:00</time>
      </trkpt>
      <trkpt lat="42.42065" lon="-1.44715">
        <ele>415.2</ele>
        <time>2023-08-07T16:21:02.000+02:00</time>
      </trkpt>
      <trkpt lat="42.42151" lon="-1.44621">
        <ele>414.2</ele>
        <time>2023-08-07T16:21:19.000+02:00</time>
      </trkpt>
      <trkpt lat="42.4235" lon="-1.44609">
        <ele>408.1</ele>
        <time>2023-08-07T16:21:49.000+02:00</time>
      </trkpt>
      <trkpt lat="42.42399" lon="-1.44582">
        <ele>407.7</ele>
        <time>2023-08-07T16:21:57.000+02:00</time>
      </trkpt>
      <trkpt lat="42.42464" lon="-1.44605">
        <ele>412.3</ele>
        <time>2023-08-07T16:22:07.000+02:00</time>
      </trkpt>
      <trkpt lat="42.42488" lon="-1.4458">
        <ele>414.2</ele>
        <time>2023-08-07T16:22:12.000+02:00</time>
      </trkpt>
      <trkpt lat="42.4252" lon="-1.44598">
        <ele>416.3</ele>
        <time>2023-08-07T16:22:17.000+02:00</time>
      </trkpt>
      <trkpt lat="42.42553" lon="-1.44733">
        <ele>420.9</ele>
        <time>2023-08-07T16:22:33.000+02:00</time>
      </trkpt>
      <trkpt lat="42.42621" lon="-1.44729">
        <ele>425.5</ele>
        <time>2023-08-07T16:22:44.000+02:00</time>
      </trkpt>
      <trkpt lat="42.42705" lon="-1.44648">
        <ele>428.2</ele>
        <time>2023-08-07T16:22:59.000+02:00</time>
      </trkpt>
      <trkpt lat="42.42763" lon="-1.44519">
        <ele>427</ele>
        <time>2023-08-07T16:23:17.000+02:00</time>
      </trkpt>
      <trkpt lat="42.42936" lon="-1.44539">
        <ele>431.7</ele>
        <time>2023-08-07T16:23:43.000+02:00</time>
      </trkpt>
      <trkpt lat="42.43035" lon="-1.4444">
        <ele>442.3</ele>
        <time>2023-08-07T16:24:02.000+02:00</time>
      </trkpt>
      <trkpt lat="42.43092" lon="-1.4427">
        <ele>440.6</ele>
        <time>2023-08-07T16:24:23.000+02:00</time>
      </trkpt>
      <trkpt lat="42.43162" lon="-1.44191">
        <ele>438.3</ele>
        <time>2023-08-07T16:24:37.000+02:00</time>
      </trkpt>
      <trkpt lat="42.43138" lon="-1.44139">
        <ele>434</ele>
        <time>2023-08-07T16:24:44.000+02:00</time>
      </trkpt>
      <trkpt lat="42.43151" lon="-1.44086">
        <ele>432</ele>
        <time>2023-08-07T16:24:50.000+02:00</time>
      </trkpt>
      <trkpt lat="42.43215" lon="-1.44046">
        <ele>438.7</ele>
        <time>2023-08-07T16:25:01.000+02:00</time>
      </trkpt>
      <trkpt lat="42.43298" lon="-1.44217">
        <ele>446.9</ele>
        <time>2023-08-07T16:25:24.000+02:00</time>
      </trkpt>
      <trkpt lat="42.43247" lon="-1.44383">
        <ele>453.7</ele>
        <time>2023-08-07T16:25:44.000+02:00</time>
      </trkpt>
      <trkpt lat="42.43582" lon="-1.44375">
        <ele>456.5</ele>
        <time>2023-08-07T16:26:35.000+02:00</time>
      </trkpt>
      <trkpt lat="42.43694" lon="-1.44468">
        <ele>453.2</ele>
        <time>2023-08-07T16:26:55.000+02:00</time>
      </trkpt>
      <trkpt lat="42.43806" lon="-1.445">
        <ele>440.8</ele>
        <time>2023-08-07T16:27:13.000+02:00</time>
      </trkpt>
      <trkpt lat="42.43907" lon="-1.44611">
        <ele>435</ele>
        <time>2023-08-07T16:27:33.000+02:00</time>
      </trkpt>
      <trkpt lat="42.44069" lon="-1.44645">
        <ele>436.2</ele>
        <time>2023-08-07T16:27:58.000+02:00</time>
      </trkpt>
      <trkpt lat="42.44053" lon="-1.44508">
        <ele>447.1</ele>
        <time>2023-08-07T16:28:13.000+02:00</time>
      </trkpt>
      <trkpt lat="42.44105" lon="-1.4451">
        <ele>452.3</ele>
        <time>2023-08-07T16:28:21.000+02:00</time>
      </trkpt>
      <trkpt lat="42.4415" lon="-1.44414">
        <ele>460</ele>
        <time>2023-08-07T16:28:34.000+02:00</time>
      </trkpt>
      <trkpt lat="42.44276" lon="-1.4433">
        <ele>462.6</ele>
        <time>2023-08-07T16:28:55.000+02:00</time>
      </trkpt>
      <trkpt lat="42.444" lon="-1.44161">
        <ele>454.5</ele>
        <time>2023-08-07T16:29:22.000+02:00</time>
      </trkpt>
      <trkpt lat="42.44646" lon="-1.44305">
        <ele>437.5</ele>
        <time>2023-08-07T16:30:03.000+02:00</time>
      </trkpt>
      <trkpt lat="42.44902" lon="-1.44741">
        <ele>430.9</ele>
        <time>2023-08-07T16:31:06.000+02:00</time>
      </trkpt>
      <trkpt lat="42.44985" lon="-1.44726">
        <ele>435.6</ele>
        <time>2023-08-07T16:31:19.000+02:00</time>
      </trkpt>
      <trkpt lat="42.45131" lon="-1.44828">
        <ele>449.7</ele>
        <time>2023-08-07T16:31:44.000+02:00</time>
      </trkpt>
      <trkpt lat="42.4533" lon="-1.44804">
        <ele>463.7</ele>
        <time>2023-08-07T16:32:15.000+02:00</time>
      </trkpt>
      <trkpt lat="42.45639" lon="-1.45087">
        <ele>472.5</ele>
        <time>2023-08-07T16:33:12.000+02:00</time>
      </trkpt>
      <trkpt lat="42.45662" lon="-1.45146">
        <ele>476.4</ele>
        <time>2023-08-07T16:33:19.000+02:00</time>
      </trkpt>
      <trkpt lat="42.45877" lon="-1.45207">
        <ele>466.3</ele>
        <time>2023-08-07T16:33:53.000+02:00</time>
      </trkpt>
      <trkpt lat="42.45988" lon="-1.45338">
        <ele>463.8</ele>
        <time>2023-08-07T16:34:15.000+02:00</time>
      </trkpt>
      <trkpt lat="42.46152" lon="-1.4528">
        <ele>463.3</ele>
        <time>2023-08-07T16:34:41.000+02:00</time>
      </trkpt>
      <trkpt lat="42.46253" lon="-1.4536">
        <ele>459.9</ele>
        <time>2023-08-07T16:34:59.000+02:00</time>
      </trkpt>
      <trkpt lat="42.46362" lon="-1.45345">
        <ele>458.7</ele>
        <time>2023-08-07T16:35:16.000+02:00</time>
      </trkpt>
      <trkpt lat="42.46503" lon="-1.45447">
        <ele>454.7</ele>
        <time>2023-08-07T16:35:40.000+02:00</time>
      </trkpt>
      <trkpt lat="42.46561" lon="-1.45539">
        <ele>452.6</ele>
        <time>2023-08-07T16:35:54.000+02:00</time>
      </trkpt>
      <trkpt lat="42.46596" lon="-1.45495">
        <ele>449.4</ele>
        <time>2023-08-07T16:36:01.000+02:00</time>
      </trkpt>
      <trkpt lat="42.46634" lon="-1.455">
        <ele>452.5</ele>
        <time>2023-08-07T16:36:07.000+02:00</time>
      </trkpt>
      <trkpt lat="42.46727" lon="-1.45432">
        <ele>463.5</ele>
        <time>2023-08-07T16:36:23.000+02:00</time>
      </trkpt>
      <trkpt lat="42.46775" lon="-1.45471">
        <ele>465</ele>
        <time>2023-08-07T16:36:32.000+02:00</time>
      </trkpt>
      <trkpt lat="42.46855" lon="-1.45728">
        <ele>469.5</ele>
        <time>2023-08-07T16:37:03.000+02:00</time>
      </trkpt>
      <trkpt lat="42.46873" lon="-1.4591">
        <ele>471.3</ele>
        <time>2023-08-07T16:37:24.000+02:00</time>
      </trkpt>
      <trkpt lat="42.46924" lon="-1.46094">
        <ele>474.7</ele>
        <time>2023-08-07T16:37:46.000+02:00</time>
      </trkpt>
      <trkpt lat="42.46989" lon="-1.46148">
        <ele>477.4</ele>
        <time>2023-08-07T16:37:58.000+02:00</time>
      </trkpt>
      <trkpt lat="42.47087" lon="-1.46305">
        <ele>484.1</ele>
        <time>2023-08-07T16:38:21.000+02:00</time>
      </trkpt>
      <trkpt lat="42.47239" lon="-1.46801">
        <ele>491.4</ele>
        <time>2023-08-07T16:39:21.000+02:00</time>
      </trkpt>
      <trkpt lat="42.47281" lon="-1.46872">
        <ele>494</ele>
        <time>2023-08-07T16:39:31.000+02:00</time>
      </trkpt>
      <trkpt lat="42.47358" lon="-1.46931">
        <ele>501</ele>
        <time>2023-08-07T16:39:45.000+02:00</time>
      </trkpt>
      <trkpt lat="42.4747" lon="-1.46938">
        <ele>502.9</ele>
        <time>2023-08-07T16:40:02.000+02:00</time>
      </trkpt>
      <trkpt lat="42.47603" lon="-1.47014">
        <ele>508.3</ele>
        <time>2023-08-07T16:40:24.000+02:00</time>
      </trkpt>
      <trkpt lat="42.47911" lon="-1.47258">
        <ele>520.1</ele>
        <time>2023-08-07T16:41:19.000+02:00</time>
      </trkpt>
      <trkpt lat="42.47983" lon="-1.47282">
        <ele>524.7</ele>
        <time>2023-08-07T16:41:30.000+02:00</time>
      </trkpt>
      <trkpt lat="42.48251" lon="-1.47585">
        <ele>539.8</ele>
        <time>2023-08-07T16:42:23.000+02:00</time>
      </trkpt>
      <trkpt lat="42.485" lon="-1.47742">
        <ele>548.3</ele>
        <time>2023-08-07T16:43:05.000+02:00</time>
      </trkpt>
      <trkpt lat="42.48719" lon="-1.47928">
        <ele>570.2</ele>
        <time>2023-08-07T16:43:45.000+02:00</time>
      </trkpt>
      <trkpt lat="42.48821" lon="-1.47933">
        <ele>584.4</ele>
        <time>2023-08-07T16:44:00.000+02:00</time>
      </trkpt>
      <trkpt lat="42.48928" lon="-1.47999">
        <ele>593.8</ele>
        <time>2023-08-07T16:44:18.000+02:00</time>
      </trkpt>
      <trkpt lat="42.49191" lon="-1.48044">
        <ele>627.5</ele>
        <time>2023-08-07T16:44:59.000+02:00</time>
      </trkpt>
      <trkpt lat="42.49286" lon="-1.48137">
        <ele>632.6</ele>
        <time>2023-08-07T16:45:17.000+02:00</time>
      </trkpt>
      <trkpt lat="42.49418" lon="-1.48128">
        <ele>650</ele>
        <time>2023-08-07T16:45:37.000+02:00</time>
      </trkpt>
      <trkpt lat="42.49484" lon="-1.48205">
        <ele>657.9</ele>
        <time>2023-08-07T16:45:50.000+02:00</time>
      </trkpt>
      <trkpt lat="42.49535" lon="-1.48356">
        <ele>665.5</ele>
        <time>2023-08-07T16:46:09.000+02:00</time>
      </trkpt>
      <trkpt lat="42.49647" lon="-1.48446">
        <ele>676.8</ele>
        <time>2023-08-07T16:46:29.000+02:00</time>
      </trkpt>
      <trkpt lat="42.49736" lon="-1.4846">
        <ele>687.8</ele>
        <time>2023-08-07T16:46:43.000+02:00</time>
      </trkpt>
      <trkpt lat="42.50069" lon="-1.48861">
        <ele>736</ele>
        <time>2023-08-07T16:47:51.000+02:00</time>
      </trkpt>
      <trkpt lat="42.5017" lon="-1.49091">
        <ele>746.8</ele>
        <time>2023-08-07T16:48:21.000+02:00</time>
      </trkpt>
      <trkpt lat="42.50181" lon="-1.49247">
        <ele>752.8</ele>
        <time>2023-08-07T16:48:38.000+02:00</time>
      </trkpt>
      <trkpt lat="42.50361" lon="-1.49441">
        <ele>750.3</ele>
        <time>2023-08-07T16:49:14.000+02:00</time>
      </trkpt>
      <trkpt lat="42.50376" lon="-1.49533">
        <ele>750</ele>
        <time>2023-08-07T16:49:24.000+02:00</time>
      </trkpt>
      <trkpt lat="42.50439" lon="-1.49677">
        <ele>751.7</ele>
        <time>2023-08-07T16:49:43.000+02:00</time>
      </trkpt>
      <trkpt lat="42.50562" lon="-1.4981">
        <ele>764.9</ele>
        <time>2023-08-07T16:50:07.000+02:00</time>
      </trkpt>
      <trkpt lat="42.50704" lon="-1.49822">
        <ele>771.1</ele>
        <time>2023-08-07T16:50:29.000+02:00</time>
      </trkpt>
      <trkpt lat="42.50912" lon="-1.50193">
        <ele>777.5</ele>
        <time>2023-08-07T16:51:21.000+02:00</time>
      </trkpt>
      <trkpt lat="42.51008" lon="-1.50303">
        <ele>775.1</ele>
        <time>2023-08-07T16:51:40.000+02:00</time>
      </trkpt>
      <trkpt lat="42.51121" lon="-1.50382">
        <ele>770.4</ele>
        <time>2023-08-07T16:52:00.000+02:00</time>
      </trkpt>
      <trkpt lat="42.51198" lon="-1.50499">
        <ele>773.7</ele>
        <time>2023-08-07T16:52:18.000+02:00</time>
      </trkpt>
      <trkpt lat="42.51347" lon="-1.50649">
        <ele>777.7</ele>
        <time>2023-08-07T16:52:46.000+02:00</time>
      </trkpt>
      <trkpt lat="42.5139" lon="-1.50817">
        <ele>776.9</ele>
        <time>2023-08-07T16:53:06.000+02:00</time>
      </trkpt>
      <trkpt lat="42.51475" lon="-1.5094">
        <ele>780.3</ele>
        <time>2023-08-07T16:53:25.000+02:00</time>
      </trkpt>
      <trkpt lat="42.51468" lon="-1.50999">
        <ele>781.2</ele>
        <time>2023-08-07T16:53:32.000+02:00</time>
      </trkpt>
      <trkpt lat="42.51414" lon="-1.51048">
        <ele>785.1</ele>
        <time>2023-08-07T16:53:42.000+02:00</time>
      </trkpt>
      <trkpt lat="42.51421" lon="-1.51088">
        <ele>785.6</ele>
        <time>2023-08-07T16:53:46.000+02:00</time>
      </trkpt>
      <trkpt lat="42.51574" lon="-1.51224">
        <ele>785.8</ele>
        <time>2023-08-07T16:54:14.000+02:00</time>
      </trkpt>
      <trkpt lat="42.5177" lon="-1.51124">
        <ele>787.5</ele>
        <time>2023-08-07T16:54:46.000+02:00</time>
      </trkpt>
      <trkpt lat="42.51827" lon="-1.51132">
        <ele>787.9</ele>
        <time>2023-08-07T16:54:55.000+02:00</time>
      </trkpt>
      <trkpt lat="42.51966" lon="-1.51196">
        <ele>787.3</ele>
        <time>2023-08-07T16:55:17.000+02:00</time>
      </trkpt>
      <trkpt lat="42.52031" lon="-1.51303">
        <ele>786.9</ele>
        <time>2023-08-07T16:55:33.000+02:00</time>
      </trkpt>
      <trkpt lat="42.52188" lon="-1.51458">
        <ele>780.5</ele>
        <time>2023-08-07T16:56:03.000+02:00</time>
      </trkpt>
      <trkpt lat="42.52336" lon="-1.51462">
        <ele>780.2</ele>
        <time>2023-08-07T16:56:25.000+02:00</time>
      </trkpt>
      <trkpt lat="42.52465" lon="-1.51524">
        <ele>774.9</ele>
        <time>2023-08-07T16:56:46.000+02:00</time>
      </trkpt>
      <trkpt lat="42.52577" lon="-1.51527">
        <ele>765.6</ele>
        <time>2023-08-07T16:57:03.000+02:00</time>
      </trkpt>
      <trkpt lat="42.52613" lon="-1.51546">
        <ele>764.3</ele>
        <time>2023-08-07T16:57:09.000+02:00</time>
      </trkpt>
      <trkpt lat="42.52678" lon="-1.51654">
        <ele>753.2</ele>
        <time>2023-08-07T16:57:25.000+02:00</time>
      </trkpt>
      <trkpt lat="42.52685" lon="-1.51795">
        <ele>745.1</ele>
        <time>2023-08-07T16:57:41.000+02:00</time>
      </trkpt>
      <trkpt lat="42.52733" lon="-1.51978">
        <ele>742.4</ele>
        <time>2023-08-07T16:58:03.000+02:00</time>
      </trkpt>
      <trkpt lat="42.52671" lon="-1.52129">
        <ele>738.8</ele>
        <time>2023-08-07T16:58:22.000+02:00</time>
      </trkpt>
      <trkpt lat="42.52665" lon="-1.52276">
        <ele>728.9</ele>
        <time>2023-08-07T16:58:39.000+02:00</time>
      </trkpt>
      <trkpt lat="42.52619" lon="-1.52321">
        <ele>720.1</ele>
        <time>2023-08-07T16:58:47.000+02:00</time>
      </trkpt>
      <trkpt lat="42.52595" lon="-1.52437">
        <ele>716.9</ele>
        <time>2023-08-07T16:59:01.000+02:00</time>
      </trkpt>
      <trkpt lat="42.5255" lon="-1.52493">
        <ele>717.1</ele>
        <time>2023-08-07T16:59:10.000+02:00</time>
      </trkpt>
      <trkpt lat="42.52492" lon="-1.52649">
        <ele>714.2</ele>
        <time>2023-08-07T16:59:30.000+02:00</time>
      </trkpt>
      <trkpt lat="42.52497" lon="-1.52733">
        <ele>711.9</ele>
        <time>2023-08-07T16:59:40.000+02:00</time>
      </trkpt>
      <trkpt lat="42.52397" lon="-1.52738">
        <ele>710.1</ele>
        <time>2023-08-07T16:59:55.000+02:00</time>
      </trkpt>
      <trkpt lat="42.52276" lon="-1.53107">
        <ele>704.9</ele>
        <time>2023-08-07T17:00:40.000+02:00</time>
      </trkpt>
      <trkpt lat="42.52303" lon="-1.53172">
        <ele>705.7</ele>
        <time>2023-08-07T17:00:49.000+02:00</time>
      </trkpt>
      <trkpt lat="42.52436" lon="-1.53299">
        <ele>701.8</ele>
        <time>2023-08-07T17:01:14.000+02:00</time>
      </trkpt>
      <trkpt lat="42.52434" lon="-1.53433">
        <ele>692</ele>
        <time>2023-08-07T17:01:29.000+02:00</time>
      </trkpt>
      <trkpt lat="42.52277" lon="-1.53371">
        <ele>688.7</ele>
        <time>2023-08-07T17:01:54.000+02:00</time>
      </trkpt>
      <trkpt lat="42.52198" lon="-1.53453">
        <ele>684</ele>
        <time>2023-08-07T17:02:09.000+02:00</time>
      </trkpt>
      <trkpt lat="42.52208" lon="-1.53577">
        <ele>669.4</ele>
        <time>2023-08-07T17:02:23.000+02:00</time>
      </trkpt>
      <trkpt lat="42.52142" lon="-1.53884">
        <ele>644.8</ele>
        <time>2023-08-07T17:02:59.000+02:00</time>
      </trkpt>
      <trkpt lat="42.52143" lon="-1.54012">
        <ele>634.8</ele>
        <time>2023-08-07T17:03:13.000+02:00</time>
      </trkpt>
      <trkpt lat="42.52222" lon="-1.5408">
        <ele>617.8</ele>
        <time>2023-08-07T17:03:28.000+02:00</time>
      </trkpt>
      <trkpt lat="42.52214" lon="-1.54132">
        <ele>614.2</ele>
        <time>2023-08-07T17:03:34.000+02:00</time>
      </trkpt>
      <trkpt lat="42.52246" lon="-1.54181">
        <ele>609.9</ele>
        <time>2023-08-07T17:03:41.000+02:00</time>
      </trkpt>
      <trkpt lat="42.52401" lon="-1.54304">
        <ele>593.9</ele>
        <time>2023-08-07T17:04:09.000+02:00</time>
      </trkpt>
      <trkpt lat="42.52453" lon="-1.54388">
        <ele>588.1</ele>
        <time>2023-08-07T17:04:21.000+02:00</time>
      </trkpt>
      <trkpt lat="42.52478" lon="-1.54514">
        <ele>581.5</ele>
        <time>2023-08-07T17:04:36.000+02:00</time>
      </trkpt>
      <trkpt lat="42.52593" lon="-1.54706">
        <ele>577.5</ele>
        <time>2023-08-07T17:05:03.000+02:00</time>
      </trkpt>
      <trkpt lat="42.52578" lon="-1.54923">
        <ele>570</ele>
        <time>2023-08-07T17:05:28.000+02:00</time>
      </trkpt>
      <trkpt lat="42.52631" lon="-1.54892">
        <ele>577.5</ele>
        <time>2023-08-07T17:05:37.000+02:00</time>
      </trkpt>
      <trkpt lat="42.52651" lon="-1.55">
        <ele>582.4</ele>
        <time>2023-08-07T17:05:49.000+02:00</time>
      </trkpt>
      <trkpt lat="42.52589" lon="-1.55292">
        <ele>576.3</ele>
        <time>2023-08-07T17:06:24.000+02:00</time>
      </trkpt>
      <trkpt lat="42.52607" lon="-1.55381">
        <ele>572.3</ele>
        <time>2023-08-07T17:06:34.000+02:00</time>
      </trkpt>
      <trkpt lat="42.52665" lon="-1.55433">
        <ele>569.4</ele>
        <time>2023-08-07T17:06:45.000+02:00</time>
      </trkpt>
      <trkpt lat="42.52811" lon="-1.55412">
        <ele>565.6</ele>
        <time>2023-08-07T17:07:07.000+02:00</time>
      </trkpt>
      <trkpt lat="42.52876" lon="-1.55454">
        <ele>567.3</ele>
        <time>2023-08-07T17:07:18.000+02:00</time>
      </trkpt>
      <trkpt lat="42.5277" lon="-1.55579">
        <ele>566.4</ele>
        <time>2023-08-07T17:07:39.000+02:00</time>
      </trkpt>
      <trkpt lat="42.52591" lon="-1.55648">
        <ele>575.8</ele>
        <time>2023-08-07T17:08:08.000+02:00</time>
      </trkpt>
      <trkpt lat="42.52546" lon="-1.55692">
        <ele>578</ele>
        <time>2023-08-07T17:08:17.000+02:00</time>
      </trkpt>
      <trkpt lat="42.52531" lon="-1.55756">
        <ele>579.8</ele>
        <time>2023-08-07T17:08:24.000+02:00</time>
      </trkpt>
      <trkpt lat="42.52558" lon="-1.55878">
        <ele>585</ele>
        <time>2023-08-07T17:08:38.000+02:00</time>
      </trkpt>
      <trkpt lat="42.52404" lon="-1.56065">
        <ele>591.9</ele>
        <time>2023-08-07T17:09:10.000+02:00</time>
      </trkpt>
      <trkpt lat="42.52313" lon="-1.56334">
        <ele>588</ele>
        <time>2023-08-07T17:09:43.000+02:00</time>
      </trkpt>
      <trkpt lat="42.52229" lon="-1.56428">
        <ele>581.6</ele>
        <time>2023-08-07T17:10:00.000+02:00</time>
      </trkpt>
      <trkpt lat="42.52386" lon="-1.56401">
        <ele>568.1</ele>
        <time>2023-08-07T17:10:24.000+02:00</time>
      </trkpt>
      <trkpt lat="42.52412" lon="-1.56446">
        <ele>563.8</ele>
        <time>2023-08-07T17:10:31.000+02:00</time>
      </trkpt>
      <trkpt lat="42.52322" lon="-1.56583">
        <ele>553.9</ele>
        <time>2023-08-07T17:10:51.000+02:00</time>
      </trkpt>
      <trkpt lat="42.52291" lon="-1.56741">
        <ele>548.8</ele>
        <time>2023-08-07T17:11:10.000+02:00</time>
      </trkpt>
      <trkpt lat="42.5221" lon="-1.56849">
        <ele>551</ele>
        <time>2023-08-07T17:11:27.000+02:00</time>
      </trkpt>
      <trkpt lat="42.52063" lon="-1.57242">
        <ele>542.8</ele>
        <time>2023-08-07T17:12:17.000+02:00</time>
      </trkpt>
      <trkpt lat="42.51964" lon="-1.57966">
        <ele>523.6</ele>
        <time>2023-08-07T17:13:40.000+02:00</time>
      </trkpt>
      <trkpt lat="42.51804" lon="-1.58243">
        <ele>524</ele>
        <time>2023-08-07T17:14:19.000+02:00</time>
      </trkpt>
      <trkpt lat="42.51672" lon="-1.58566">
        <ele>528.3</ele>
        <time>2023-08-07T17:15:01.000+02:00</time>
      </trkpt>
      <trkpt lat="42.51498" lon="-1.58803">
        <ele>532</ele>
        <time>2023-08-07T17:15:39.000+02:00</time>
      </trkpt>
      <trkpt lat="42.5146" lon="-1.58894">
        <ele>531.8</ele>
        <time>2023-08-07T17:15:50.000+02:00</time>
      </trkpt>
      <trkpt lat="42.51429" lon="-1.59421">
        <ele>506.5</ele>
        <time>2023-08-07T17:16:50.000+02:00</time>
      </trkpt>
      <trkpt lat="42.51445" lon="-1.60296">
        <ele>462.4</ele>
        <time>2023-08-07T17:18:28.000+02:00</time>
      </trkpt>
      <trkpt lat="42.51489" lon="-1.60845">
        <ele>450.3</ele>
        <time>2023-08-07T17:19:31.000+02:00</time>
      </trkpt>
      <trkpt lat="42.51659" lon="-1.61445">
        <ele>441.2</ele>
        <time>2023-08-07T17:20:43.000+02:00</time>
      </trkpt>
      <trkpt lat="42.51669" lon="-1.61804">
        <ele>440.1</ele>
        <time>2023-08-07T17:21:24.000+02:00</time>
      </trkpt>
      <trkpt lat="42.5174" lon="-1.62346">
        <ele>440.2</ele>
        <time>2023-08-07T17:22:26.000+02:00</time>
      </trkpt>
      <trkpt lat="42.51733" lon="-1.62676">
        <ele>435.1</ele>
        <time>2023-08-07T17:23:03.000+02:00</time>
      </trkpt>
      <trkpt lat="42.51804" lon="-1.63271">
        <ele>441.9</ele>
        <time>2023-08-07T17:24:11.000+02:00</time>
      </trkpt>
      <trkpt lat="42.51881" lon="-1.63558">
        <ele>433.9</ele>
        <time>2023-08-07T17:24:45.000+02:00</time>
      </trkpt>
      <trkpt lat="42.51926" lon="-1.64">
        <ele>437</ele>
        <time>2023-08-07T17:25:35.000+02:00</time>
      </trkpt>
      <trkpt lat="42.52002" lon="-1.6431">
        <ele>438.1</ele>
        <time>2023-08-07T17:26:12.000+02:00</time>
      </trkpt>
      <trkpt lat="42.52034" lon="-1.64593">
        <ele>435.8</ele>
        <time>2023-08-07T17:26:44.000+02:00</time>
      </trkpt>
      <trkpt lat="42.52135" lon="-1.64988">
        <ele>434.9</ele>
        <time>2023-08-07T17:27:31.000+02:00</time>
      </trkpt>
      <trkpt lat="42.52187" lon="-1.64975">
        <ele>440</ele>
        <time>2023-08-07T17:27:39.000+02:00</time>
      </trkpt>
      <trkpt lat="42.52235" lon="-1.65066">
        <ele>443.1</ele>
        <time>2023-08-07T17:27:52.000+02:00</time>
      </trkpt>
      <trkpt lat="42.52293" lon="-1.65016">
        <ele>451.4</ele>
        <time>2023-08-07T17:28:03.000+02:00</time>
      </trkpt>
      <trkpt lat="42.52311" lon="-1.64953">
        <ele>452.9</ele>
        <time>2023-08-07T17:28:10.000+02:00</time>
      </trkpt>
      <trkpt lat="42.52386" lon="-1.64959">
        <ele>457.3</ele>
        <time>2023-08-07T17:28:22.000+02:00</time>
      </trkpt>
      <trkpt lat="42.52444" lon="-1.64899">
        <ele>461.9</ele>
        <time>2023-08-07T17:28:33.000+02:00</time>
      </trkpt>
      <trkpt lat="42.52474" lon="-1.64955">
        <ele>464.7</ele>
        <time>2023-08-07T17:28:41.000+02:00</time>
      </trkpt>
      <trkpt lat="42.52525" lon="-1.6495">
        <ele>471.3</ele>
        <time>2023-08-07T17:28:48.000+02:00</time>
      </trkpt>
      <trkpt lat="42.52594" lon="-1.64895">
        <ele>478.9</ele>
        <time>2023-08-07T17:29:01.000+02:00</time>
      </trkpt>
      <trkpt lat="42.5267" lon="-1.6474">
        <ele>484.7</ele>
        <time>2023-08-07T17:29:22.000+02:00</time>
      </trkpt>
      <trkpt lat="42.52808" lon="-1.6476">
        <ele>498.1</ele>
        <time>2023-08-07T17:29:43.000+02:00</time>
      </trkpt>
      <trkpt lat="42.52849" lon="-1.64676">
        <ele>499.2</ele>
        <time>2023-08-07T17:29:54.000+02:00</time>
      </trkpt>
      <trkpt lat="42.5288" lon="-1.64487">
        <ele>501.9</ele>
        <time>2023-08-07T17:30:16.000+02:00</time>
      </trkpt>
      <trkpt lat="42.5282" lon="-1.64205">
        <ele>512.8</ele>
        <time>2023-08-07T17:30:49.000+02:00</time>
      </trkpt>
      <trkpt lat="42.52845" lon="-1.64101">
        <ele>517.6</ele>
        <time>2023-08-07T17:31:01.000+02:00</time>
      </trkpt>
      <trkpt lat="42.52783" lon="-1.64014">
        <ele>527.9</ele>
        <time>2023-08-07T17:31:15.000+02:00</time>
      </trkpt>
      <trkpt lat="42.52772" lon="-1.63954">
        <ele>532.6</ele>
        <time>2023-08-07T17:31:22.000+02:00</time>
      </trkpt>
      <trkpt lat="42.52706" lon="-1.63953">
        <ele>535.8</ele>
        <time>2023-08-07T17:31:32.000+02:00</time>
      </trkpt>
      <trkpt lat="42.52582" lon="-1.63837">
        <ele>551.4</ele>
        <time>2023-08-07T17:31:55.000+02:00</time>
      </trkpt>
      <trkpt lat="42.52506" lon="-1.63931">
        <ele>555.6</ele>
        <time>2023-08-07T17:32:11.000+02:00</time>
      </trkpt>
      <trkpt lat="42.52472" lon="-1.63881">
        <ele>561.6</ele>
        <time>2023-08-07T17:32:18.000+02:00</time>
      </trkpt>
      <trkpt lat="42.52479" lon="-1.63787">
        <ele>566.3</ele>
        <time>2023-08-07T17:32:29.000+02:00</time>
      </trkpt>
      <trkpt lat="42.52524" lon="-1.63687">
        <ele>573.5</ele>
        <time>2023-08-07T17:32:42.000+02:00</time>
      </trkpt>
      <trkpt lat="42.52534" lon="-1.63534">
        <ele>580.6</ele>
        <time>2023-08-07T17:32:59.000+02:00</time>
      </trkpt>
      <trkpt lat="42.52593" lon="-1.63459">
        <ele>588.8</ele>
        <time>2023-08-07T17:33:12.000+02:00</time>
      </trkpt>
      <trkpt lat="42.52581" lon="-1.6339">
        <ele>593.8</ele>
        <time>2023-08-07T17:33:20.000+02:00</time>
      </trkpt>
      <trkpt lat="42.52546" lon="-1.63386">
        <ele>591.7</ele>
        <time>2023-08-07T17:33:25.000+02:00</time>
      </trkpt>
      <trkpt lat="42.52534" lon="-1.63349">
        <ele>589.7</ele>
        <time>2023-08-07T17:33:30.000+02:00</time>
      </trkpt>
      <trkpt lat="42.52585" lon="-1.62954">
        <ele>564.1</ele>
        <time>2023-08-07T17:34:15.000+02:00</time>
      </trkpt>
      <trkpt lat="42.52682" lon="-1.62865">
        <ele>557.7</ele>
        <time>2023-08-07T17:34:33.000+02:00</time>
      </trkpt>
      <trkpt lat="42.52948" lon="-1.62801">
        <ele>550.7</ele>
        <time>2023-08-07T17:35:14.000+02:00</time>
      </trkpt>
      <trkpt lat="42.52961" lon="-1.62625">
        <ele>552.8</ele>
        <time>2023-08-07T17:35:34.000+02:00</time>
      </trkpt>
      <trkpt lat="42.53008" lon="-1.62556">
        <ele>553</ele>
        <time>2023-08-07T17:35:44.000+02:00</time>
      </trkpt>
      <trkpt lat="42.53055" lon="-1.6261">
        <ele>551</ele>
        <time>2023-08-07T17:35:54.000+02:00</time>
      </trkpt>
      <trkpt lat="42.53189" lon="-1.62645">
        <ele>564.6</ele>
        <time>2023-08-07T17:36:15.000+02:00</time>
      </trkpt>
      <trkpt lat="42.53309" lon="-1.62581">
        <ele>578.1</ele>
        <time>2023-08-07T17:36:34.000+02:00</time>
      </trkpt>
      <trkpt lat="42.53387" lon="-1.62645">
        <ele>588.3</ele>
        <time>2023-08-07T17:36:48.000+02:00</time>
      </trkpt>
      <trkpt lat="42.53402" lon="-1.62723">
        <ele>597</ele>
        <time>2023-08-07T17:36:57.000+02:00</time>
      </trkpt>
      <trkpt lat="42.53508" lon="-1.62709">
        <ele>609.7</ele>
        <time>2023-08-07T17:37:14.000+02:00</time>
      </trkpt>
      <trkpt lat="42.53747" lon="-1.62853">
        <ele>610.3</ele>
        <time>2023-08-07T17:37:54.000+02:00</time>
      </trkpt>
      <trkpt lat="42.53776" lon="-1.62772">
        <ele>611.2</ele>
        <time>2023-08-07T17:38:04.000+02:00</time>
      </trkpt>
      <trkpt lat="42.53861" lon="-1.62769">
        <ele>612.6</ele>
        <time>2023-08-07T17:38:17.000+02:00</time>
      </trkpt>
      <trkpt lat="42.53887" lon="-1.62723">
        <ele>615.1</ele>
        <time>2023-08-07T17:38:23.000+02:00</time>
      </trkpt>
      <trkpt lat="42.53887" lon="-1.62526">
        <ele>617.7</ele>
        <time>2023-08-07T17:38:45.000+02:00</time>
      </trkpt>
      <trkpt lat="42.53935" lon="-1.6243">
        <ele>627.6</ele>
        <time>2023-08-07T17:38:58.000+02:00</time>
      </trkpt>
      <trkpt lat="42.53999" lon="-1.62378">
        <ele>636.5</ele>
        <time>2023-08-07T17:39:10.000+02:00</time>
      </trkpt>
      <trkpt lat="42.53973" lon="-1.62311">
        <ele>643.7</ele>
        <time>2023-08-07T17:39:18.000+02:00</time>
      </trkpt>
      <trkpt lat="42.53973" lon="-1.621">
        <ele>655.1</ele>
        <time>2023-08-07T17:39:42.000+02:00</time>
      </trkpt>
      <trkpt lat="42.54147" lon="-1.61916">
        <ele>683.6</ele>
        <time>2023-08-07T17:40:16.000+02:00</time>
      </trkpt>
      <trkpt lat="42.54074" lon="-1.61805">
        <ele>699.4</ele>
        <time>2023-08-07T17:40:32.000+02:00</time>
      </trkpt>
      <trkpt lat="42.54056" lon="-1.61676">
        <ele>712.5</ele>
        <time>2023-08-07T17:40:47.000+02:00</time>
      </trkpt>
      <trkpt lat="42.53997" lon="-1.61599">
        <ele>713.2</ele>
        <time>2023-08-07T17:41:00.000+02:00</time>
      </trkpt>
      <trkpt lat="42.53943" lon="-1.61441">
        <ele>725.1</ele>
        <time>2023-08-07T17:41:19.000+02:00</time>
      </trkpt>
      <trkpt lat="42.53941" lon="-1.61011">
        <ele>743.9</ele>
        <time>2023-08-07T17:42:08.000+02:00</time>
      </trkpt>
      <trkpt lat="42.53924" lon="-1.60935">
        <ele>751.3</ele>
        <time>2023-08-07T17:42:17.000+02:00</time>
      </trkpt>
      <trkpt lat="42.53959" lon="-1.60666">
        <ele>762.3</ele>
        <time>2023-08-07T17:42:48.000+02:00</time>
      </trkpt>
      <trkpt lat="42.5394" lon="-1.60587">
        <ele>769.6</ele>
        <time>2023-08-07T17:42:57.000+02:00</time>
      </trkpt>
      <trkpt lat="42.53949" lon="-1.60501">
        <ele>775.2</ele>
        <time>2023-08-07T17:43:07.000+02:00</time>
      </trkpt>
      <trkpt lat="42.54015" lon="-1.6048">
        <ele>778.7</ele>
        <time>2023-08-07T17:43:17.000+02:00</time>
      </trkpt>
      <trkpt lat="42.54053" lon="-1.60434">
        <ele>782.7</ele>
        <time>2023-08-07T17:43:25.000+02:00</time>
      </trkpt>
      <trkpt lat="42.54123" lon="-1.60428">
        <ele>785.5</ele>
        <time>2023-08-07T17:43:35.000+02:00</time>
      </trkpt>
      <trkpt lat="42.5415" lon="-1.60296">
        <ele>794.1</ele>
        <time>2023-08-07T17:43:51.000+02:00</time>
      </trkpt>
      <trkpt lat="42.54186" lon="-1.60254">
        <ele>798.5</ele>
        <time>2023-08-07T17:43:58.000+02:00</time>
      </trkpt>
      <trkpt lat="42.54226" lon="-1.60251">
        <ele>802</ele>
        <time>2023-08-07T17:44:04.000+02:00</time>
      </trkpt>
      <trkpt lat="42.54319" lon="-1.6002">
        <ele>812</ele>
        <time>2023-08-07T17:44:34.000+02:00</time>
      </trkpt>
      <trkpt lat="42.54319" lon="-1.59908">
        <ele>819.4</ele>
        <time>2023-08-07T17:44:46.000+02:00</time>
      </trkpt>
      <trkpt lat="42.54361" lon="-1.5986">
        <ele>827.9</ele>
        <time>2023-08-07T17:44:55.000+02:00</time>
      </trkpt>
      <trkpt lat="42.54382" lon="-1.59724">
        <ele>839.9</ele>
        <time>2023-08-07T17:45:10.000+02:00</time>
      </trkpt>
      <trkpt lat="42.54369" lon="-1.59477">
        <ele>841.1</ele>
        <time>2023-08-07T17:45:38.000+02:00</time>
      </trkpt>
      <trkpt lat="42.54495" lon="-1.59391">
        <ele>831.9</ele>
        <time>2023-08-07T17:46:00.000+02:00</time>
      </trkpt>
      <trkpt lat="42.54656" lon="-1.59161">
        <ele>823.6</ele>
        <time>2023-08-07T17:46:36.000+02:00</time>
      </trkpt>
      <trkpt lat="42.54703" lon="-1.59031">
        <ele>821.4</ele>
        <time>2023-08-07T17:46:52.000+02:00</time>
      </trkpt>
      <trkpt lat="42.54644" lon="-1.58767">
        <ele>840.2</ele>
        <time>2023-08-07T17:47:23.000+02:00</time>
      </trkpt>
      <trkpt lat="42.54753" lon="-1.58697">
        <ele>851</ele>
        <time>2023-08-07T17:47:41.000+02:00</time>
      </trkpt>
      <trkpt lat="42.5485" lon="-1.58348">
        <ele>869.3</ele>
        <time>2023-08-07T17:48:23.000+02:00</time>
      </trkpt>
      <trkpt lat="42.55038" lon="-1.58391">
        <ele>859</ele>
        <time>2023-08-07T17:48:53.000+02:00</time>
      </trkpt>
      <trkpt lat="42.55094" lon="-1.58636">
        <ele>847.8</ele>
        <time>2023-08-07T17:49:22.000+02:00</time>
      </trkpt>
      <trkpt lat="42.55144" lon="-1.58701">
        <ele>837.3</ele>
        <time>2023-08-07T17:49:32.000+02:00</time>
      </trkpt>
      <trkpt lat="42.55143" lon="-1.58986">
        <ele>809.2</ele>
        <time>2023-08-07T17:50:04.000+02:00</time>
      </trkpt>
      <trkpt lat="42.55187" lon="-1.591">
        <ele>797.6</ele>
        <time>2023-08-07T17:50:19.000+02:00</time>
      </trkpt>
      <trkpt lat="42.55155" lon="-1.59222">
        <ele>785.3</ele>
        <time>2023-08-07T17:50:33.000+02:00</time>
      </trkpt>
      <trkpt lat="42.55215" lon="-1.59365">
        <ele>776</ele>
        <time>2023-08-07T17:50:52.000+02:00</time>
      </trkpt>
      <trkpt lat="42.55214" lon="-1.59543">
        <ele>764.3</ele>
        <time>2023-08-07T17:51:12.000+02:00</time>
      </trkpt>
      <trkpt lat="42.55371" lon="-1.59465">
        <ele>738.5</ele>
        <time>2023-08-07T17:51:37.000+02:00</time>
      </trkpt>
      <trkpt lat="42.55422" lon="-1.59342">
        <ele>731.3</ele>
        <time>2023-08-07T17:51:53.000+02:00</time>
      </trkpt>
      <trkpt lat="42.55539" lon="-1.59219">
        <ele>713.9</ele>
        <time>2023-08-07T17:52:16.000+02:00</time>
      </trkpt>
      <trkpt lat="42.55546" lon="-1.59132">
        <ele>708.4</ele>
        <time>2023-08-07T17:52:26.000+02:00</time>
      </trkpt>
      <trkpt lat="42.55622" lon="-1.59051">
        <ele>694.7</ele>
        <time>2023-08-07T17:52:41.000+02:00</time>
      </trkpt>
      <trkpt lat="42.55741" lon="-1.59007">
        <ele>678</ele>
        <time>2023-08-07T17:53:00.000+02:00</time>
      </trkpt>
      <trkpt lat="42.55771" lon="-1.5907">
        <ele>670.6</ele>
        <time>2023-08-07T17:53:08.000+02:00</time>
      </trkpt>
      <trkpt lat="42.55807" lon="-1.59081">
        <ele>666.9</ele>
        <time>2023-08-07T17:53:14.000+02:00</time>
      </trkpt>
      <trkpt lat="42.55919" lon="-1.58967">
        <ele>647.3</ele>
        <time>2023-08-07T17:53:35.000+02:00</time>
      </trkpt>
      <trkpt lat="42.55979" lon="-1.58952">
        <ele>639.5</ele>
        <time>2023-08-07T17:53:44.000+02:00</time>
      </trkpt>
      <trkpt lat="42.55987" lon="-1.59015">
        <ele>632.7</ele>
        <time>2023-08-07T17:53:52.000+02:00</time>
      </trkpt>
      <trkpt lat="42.56016" lon="-1.59044">
        <ele>625.9</ele>
        <time>2023-08-07T17:53:57.000+02:00</time>
      </trkpt>
      <trkpt lat="42.5609" lon="-1.58984">
        <ele>614.2</ele>
        <time>2023-08-07T17:54:10.000+02:00</time>
      </trkpt>
      <trkpt lat="42.561" lon="-1.58832">
        <ele>604.2</ele>
        <time>2023-08-07T17:54:27.000+02:00</time>
      </trkpt>
      <trkpt lat="42.5615" lon="-1.58855">
        <ele>602.6</ele>
        <time>2023-08-07T17:54:35.000+02:00</time>
      </trkpt>
      <trkpt lat="42.56219" lon="-1.58973">
        <ele>597.6</ele>
        <time>2023-08-07T17:54:52.000+02:00</time>
      </trkpt>
      <trkpt lat="42.5624" lon="-1.59048">
        <ele>597.4</ele>
        <time>2023-08-07T17:55:01.000+02:00</time>
      </trkpt>
      <trkpt lat="42.56234" lon="-1.592">
        <ele>603.4</ele>
        <time>2023-08-07T17:55:18.000+02:00</time>
      </trkpt>
      <trkpt lat="42.56259" lon="-1.59252">
        <ele>605.2</ele>
        <time>2023-08-07T17:55:26.000+02:00</time>
      </trkpt>
      <trkpt lat="42.56345" lon="-1.5931">
        <ele>610.5</ele>
        <time>2023-08-07T17:55:40.000+02:00</time>
      </trkpt>
      <trkpt lat="42.56505" lon="-1.59503">
        <ele>618.8</ele>
        <time>2023-08-07T17:56:13.000+02:00</time>
      </trkpt>
      <trkpt lat="42.56646" lon="-1.59572">
        <ele>609.7</ele>
        <time>2023-08-07T17:56:36.000+02:00</time>
      </trkpt>
      <trkpt lat="42.5669" lon="-1.59646">
        <ele>610</ele>
        <time>2023-08-07T17:56:46.000+02:00</time>
      </trkpt>
      <trkpt lat="42.56711" lon="-1.59728">
        <ele>606.8</ele>
        <time>2023-08-07T17:56:56.000+02:00</time>
      </trkpt>
      <trkpt lat="42.56674" lon="-1.5987">
        <ele>592.2</ele>
        <time>2023-08-07T17:57:13.000+02:00</time>
      </trkpt>
      <trkpt lat="42.56582" lon="-1.59893">
        <ele>587.5</ele>
        <time>2023-08-07T17:57:27.000+02:00</time>
      </trkpt>
      <trkpt lat="42.56663" lon="-1.59943">
        <ele>581.6</ele>
        <time>2023-08-07T17:57:41.000+02:00</time>
      </trkpt>
      <trkpt lat="42.56699" lon="-1.60174">
        <ele>566</ele>
        <time>2023-08-07T17:58:08.000+02:00</time>
      </trkpt>
      <trkpt lat="42.56748" lon="-1.60148">
        <ele>562.7</ele>
        <time>2023-08-07T17:58:16.000+02:00</time>
      </trkpt>
      <trkpt lat="42.56766" lon="-1.60186">
        <ele>557.2</ele>
        <time>2023-08-07T17:58:21.000+02:00</time>
      </trkpt>
      <trkpt lat="42.56747" lon="-1.60226">
        <ele>554.4</ele>
        <time>2023-08-07T17:58:26.000+02:00</time>
      </trkpt>
      <trkpt lat="42.56644" lon="-1.60287">
        <ele>544.5</ele>
        <time>2023-08-07T17:58:43.000+02:00</time>
      </trkpt>
      <trkpt lat="42.56626" lon="-1.60377">
        <ele>536.5</ele>
        <time>2023-08-07T17:58:54.000+02:00</time>
      </trkpt>
      <trkpt lat="42.56763" lon="-1.60528">
        <ele>523</ele>
        <time>2023-08-07T17:59:21.000+02:00</time>
      </trkpt>
      <trkpt lat="42.56861" lon="-1.60787">
        <ele>519.7</ele>
        <time>2023-08-07T17:59:54.000+02:00</time>
      </trkpt>
      <trkpt lat="42.56865" lon="-1.6112">
        <ele>509.1</ele>
        <time>2023-08-07T18:00:31.000+02:00</time>
      </trkpt>
      <trkpt lat="42.56807" lon="-1.61139">
        <ele>507.2</ele>
        <time>2023-08-07T18:00:40.000+02:00</time>
      </trkpt>
      <trkpt lat="42.56744" lon="-1.61245">
        <ele>505.1</ele>
        <time>2023-08-07T18:00:55.000+02:00</time>
      </trkpt>
      <trkpt lat="42.5664" lon="-1.61655">
        <ele>497.8</ele>
        <time>2023-08-07T18:01:44.000+02:00</time>
      </trkpt>
      <trkpt lat="42.56515" lon="-1.61768">
        <ele>497.6</ele>
        <time>2023-08-07T18:02:07.000+02:00</time>
      </trkpt>
      <trkpt lat="42.56484" lon="-1.61931">
        <ele>495.4</ele>
        <time>2023-08-07T18:02:26.000+02:00</time>
      </trkpt>
      <trkpt lat="42.56554" lon="-1.61789">
        <ele>505.2</ele>
        <time>2023-08-07T18:02:46.000+02:00</time>
      </trkpt>
      <trkpt lat="42.56575" lon="-1.61863">
        <ele>511.9</ele>
        <time>2023-08-07T18:02:54.000+02:00</time>
      </trkpt>
      <trkpt lat="42.56511" lon="-1.62204">
        <ele>529.3</ele>
        <time>2023-08-07T18:03:34.000+02:00</time>
      </trkpt>
      <trkpt lat="42.56558" lon="-1.62189">
        <ele>534</ele>
        <time>2023-08-07T18:03:41.000+02:00</time>
      </trkpt>
      <trkpt lat="42.56571" lon="-1.62099">
        <ele>537.4</ele>
        <time>2023-08-07T18:03:52.000+02:00</time>
      </trkpt>
      <trkpt lat="42.56627" lon="-1.61999">
        <ele>544.7</ele>
        <time>2023-08-07T18:04:06.000+02:00</time>
      </trkpt>
      <trkpt lat="42.56673" lon="-1.61975">
        <ele>548.7</ele>
        <time>2023-08-07T18:04:13.000+02:00</time>
      </trkpt>
      <trkpt lat="42.56693" lon="-1.61906">
        <ele>548.5</ele>
        <time>2023-08-07T18:04:22.000+02:00</time>
      </trkpt>
      <trkpt lat="42.56823" lon="-1.61908">
        <ele>550</ele>
        <time>2023-08-07T18:04:42.000+02:00</time>
      </trkpt>
      <trkpt lat="42.56908" lon="-1.61984">
        <ele>547.4</ele>
        <time>2023-08-07T18:04:57.000+02:00</time>
      </trkpt>
      <trkpt lat="42.57001" lon="-1.61959">
        <ele>549.1</ele>
        <time>2023-08-07T18:05:12.000+02:00</time>
      </trkpt>
      <trkpt lat="42.57031" lon="-1.62016">
        <ele>552.2</ele>
        <time>2023-08-07T18:05:19.000+02:00</time>
      </trkpt>
      <trkpt lat="42.57095" lon="-1.62047">
        <ele>557.5</ele>
        <time>2023-08-07T18:05:30.000+02:00</time>
      </trkpt>
      <trkpt lat="42.57189" lon="-1.62026">
        <ele>564.9</ele>
        <time>2023-08-07T18:05:44.000+02:00</time>
      </trkpt>
      <trkpt lat="42.57264" lon="-1.62081">
        <ele>565.6</ele>
        <time>2023-08-07T18:05:57.000+02:00</time>
      </trkpt>
      <trkpt lat="42.57299" lon="-1.62226">
        <ele>562.6</ele>
        <time>2023-08-07T18:06:15.000+02:00</time>
      </trkpt>
      <trkpt lat="42.57357" lon="-1.62222">
        <ele>555.5</ele>
        <time>2023-08-07T18:06:23.000+02:00</time>
      </trkpt>
      <trkpt lat="42.57358" lon="-1.62275">
        <ele>551.7</ele>
        <time>2023-08-07T18:06:29.000+02:00</time>
      </trkpt>
      <trkpt lat="42.57393" lon="-1.62321">
        <ele>545.9</ele>
        <time>2023-08-07T18:06:37.000+02:00</time>
      </trkpt>
      <trkpt lat="42.57401" lon="-1.62441">
        <ele>540.2</ele>
        <time>2023-08-07T18:06:50.000+02:00</time>
      </trkpt>
      <trkpt lat="42.57428" lon="-1.62478">
        <ele>536.2</ele>
        <time>2023-08-07T18:06:56.000+02:00</time>
      </trkpt>
      <trkpt lat="42.57398" lon="-1.62556">
        <ele>535</ele>
        <time>2023-08-07T18:07:06.000+02:00</time>
      </trkpt>
      <trkpt lat="42.57382" lon="-1.62702">
        <ele>530.4</ele>
        <time>2023-08-07T18:07:23.000+02:00</time>
      </trkpt>
      <trkpt lat="42.57177" lon="-1.6291">
        <ele>515.7</ele>
        <time>2023-08-07T18:08:02.000+02:00</time>
      </trkpt>
      <trkpt lat="42.57152" lon="-1.63082">
        <ele>512.2</ele>
        <time>2023-08-07T18:08:21.000+02:00</time>
      </trkpt>
      <trkpt lat="42.57011" lon="-1.63266">
        <ele>506</ele>
        <time>2023-08-07T18:08:51.000+02:00</time>
      </trkpt>
      <trkpt lat="42.56896" lon="-1.63509">
        <ele>504.8</ele>
        <time>2023-08-07T18:09:24.000+02:00</time>
      </trkpt>
      <trkpt lat="42.56981" lon="-1.63654">
        <ele>496.9</ele>
        <time>2023-08-07T18:09:45.000+02:00</time>
      </trkpt>
      <trkpt lat="42.57066" lon="-1.63934">
        <ele>493.5</ele>
        <time>2023-08-07T18:10:19.000+02:00</time>
      </trkpt>
      <trkpt lat="42.57114" lon="-1.63976">
        <ele>489.7</ele>
        <time>2023-08-07T18:10:27.000+02:00</time>
      </trkpt>
      <trkpt lat="42.5712" lon="-1.64134">
        <ele>484.3</ele>
        <time>2023-08-07T18:10:45.000+02:00</time>
      </trkpt>
      <trkpt lat="42.57096" lon="-1.64313">
        <ele>479.7</ele>
        <time>2023-08-07T18:11:06.000+02:00</time>
      </trkpt>
      <trkpt lat="42.57187" lon="-1.64315">
        <ele>474.4</ele>
        <time>2023-08-07T18:11:20.000+02:00</time>
      </trkpt>
      <trkpt lat="42.57171" lon="-1.64471">
        <ele>462.2</ele>
        <time>2023-08-07T18:11:37.000+02:00</time>
      </trkpt>
      <trkpt lat="42.57237" lon="-1.64484">
        <ele>461.8</ele>
        <time>2023-08-07T18:11:48.000+02:00</time>
      </trkpt>
      <trkpt lat="42.57111" lon="-1.64525">
        <ele>461</ele>
        <time>2023-08-07T18:12:07.000+02:00</time>
      </trkpt>
      <trkpt lat="42.5707" lon="-1.64833">
        <ele>467.8</ele>
        <time>2023-08-07T18:12:42.000+02:00</time>
      </trkpt>
      <trkpt lat="42.57267" lon="-1.65046">
        <ele>470.4</ele>
        <time>2023-08-07T18:13:21.000+02:00</time>
      </trkpt>
      <trkpt lat="42.5728" lon="-1.6528">
        <ele>472.6</ele>
        <time>2023-08-07T18:13:47.000+02:00</time>
      </trkpt>
      <trkpt lat="42.5732" lon="-1.65423">
        <ele>472.1</ele>
        <time>2023-08-07T18:14:05.000+02:00</time>
      </trkpt>
      <trkpt lat="42.57309" lon="-1.6557">
        <ele>474.3</ele>
        <time>2023-08-07T18:14:21.000+02:00</time>
      </trkpt>
      <trkpt lat="42.57515" lon="-1.65779">
        <ele>479.1</ele>
        <time>2023-08-07T18:15:01.000+02:00</time>
      </trkpt>
      <trkpt lat="42.57563" lon="-1.65891">
        <ele>481.6</ele>
        <time>2023-08-07T18:15:15.000+02:00</time>
      </trkpt>
      <trkpt lat="42.57585" lon="-1.66024">
        <ele>484.7</ele>
        <time>2023-08-07T18:15:31.000+02:00</time>
      </trkpt>
      <trkpt lat="42.57662" lon="-1.66097">
        <ele>484.7</ele>
        <time>2023-08-07T18:15:45.000+02:00</time>
      </trkpt>
      <trkpt lat="42.57716" lon="-1.66237">
        <ele>487.8</ele>
        <time>2023-08-07T18:16:03.000+02:00</time>
      </trkpt>
      <trkpt lat="42.57731" lon="-1.66412">
        <ele>489.7</ele>
        <time>2023-08-07T18:16:22.000+02:00</time>
      </trkpt>
      <trkpt lat="42.5783" lon="-1.66817">
        <ele>500.8</ele>
        <time>2023-08-07T18:17:10.000+02:00</time>
      </trkpt>
      <trkpt lat="42.5767" lon="-1.6715">
        <ele>525.9</ele>
        <time>2023-08-07T18:17:55.000+02:00</time>
      </trkpt>
      <trkpt lat="42.57641" lon="-1.67533">
        <ele>554.8</ele>
        <time>2023-08-07T18:18:38.000+02:00</time>
      </trkpt>
      <trkpt lat="42.57584" lon="-1.67828">
        <ele>550.1</ele>
        <time>2023-08-07T18:19:13.000+02:00</time>
      </trkpt>
      <trkpt lat="42.57627" lon="-1.68004">
        <ele>555.5</ele>
        <time>2023-08-07T18:19:34.000+02:00</time>
      </trkpt>
      <trkpt lat="42.57627" lon="-1.6809">
        <ele>561.1</ele>
        <time>2023-08-07T18:19:43.000+02:00</time>
      </trkpt>
      <trkpt lat="42.57695" lon="-1.68204">
        <ele>563.3</ele>
        <time>2023-08-07T18:20:00.000+02:00</time>
      </trkpt>
      <trkpt lat="42.57673" lon="-1.68274">
        <ele>566</ele>
        <time>2023-08-07T18:20:08.000+02:00</time>
      </trkpt>
      <trkpt lat="42.57686" lon="-1.68513">
        <ele>566.7</ele>
        <time>2023-08-07T18:20:35.000+02:00</time>
      </trkpt>
      <trkpt lat="42.57762" lon="-1.6867">
        <ele>562.7</ele>
        <time>2023-08-07T18:20:56.000+02:00</time>
      </trkpt>
      <trkpt lat="42.57811" lon="-1.68714">
        <ele>561.1</ele>
        <time>2023-08-07T18:21:05.000+02:00</time>
      </trkpt>
      <trkpt lat="42.57866" lon="-1.68928">
        <ele>565.8</ele>
        <time>2023-08-07T18:21:31.000+02:00</time>
      </trkpt>
      <trkpt lat="42.57827" lon="-1.69316">
        <ele>590</ele>
        <time>2023-08-07T18:22:15.000+02:00</time>
      </trkpt>
      <trkpt lat="42.57865" lon="-1.69658">
        <ele>610.3</ele>
        <time>2023-08-07T18:22:54.000+02:00</time>
      </trkpt>
      <trkpt lat="42.57834" lon="-1.69844">
        <ele>619.4</ele>
        <time>2023-08-07T18:23:15.000+02:00</time>
      </trkpt>
      <trkpt lat="42.57913" lon="-1.69993">
        <ele>629.6</ele>
        <time>2023-08-07T18:23:36.000+02:00</time>
      </trkpt>
      <trkpt lat="42.5786" lon="-1.70186">
        <ele>626.5</ele>
        <time>2023-08-07T18:23:59.000+02:00</time>
      </trkpt>
      <trkpt lat="42.57984" lon="-1.70311">
        <ele>622.7</ele>
        <time>2023-08-07T18:24:23.000+02:00</time>
      </trkpt>
      <trkpt lat="42.57992" lon="-1.7036">
        <ele>620.4</ele>
        <time>2023-08-07T18:24:28.000+02:00</time>
      </trkpt>
      <trkpt lat="42.58096" lon="-1.70296">
        <ele>609.5</ele>
        <time>2023-08-07T18:24:46.000+02:00</time>
      </trkpt>
      <trkpt lat="42.58015" lon="-1.70488">
        <ele>605.2</ele>
        <time>2023-08-07T18:25:11.000+02:00</time>
      </trkpt>
      <trkpt lat="42.5799" lon="-1.70629">
        <ele>601.8</ele>
        <time>2023-08-07T18:25:27.000+02:00</time>
      </trkpt>
      <trkpt lat="42.58046" lon="-1.70861">
        <ele>594.5</ele>
        <time>2023-08-07T18:25:54.000+02:00</time>
      </trkpt>
      <trkpt lat="42.57904" lon="-1.71141">
        <ele>590.3</ele>
        <time>2023-08-07T18:26:33.000+02:00</time>
      </trkpt>
      <trkpt lat="42.57872" lon="-1.71416">
        <ele>589.8</ele>
        <time>2023-08-07T18:27:04.000+02:00</time>
      </trkpt>
      <trkpt lat="42.57738" lon="-1.71532">
        <ele>583.9</ele>
        <time>2023-08-07T18:27:28.000+02:00</time>
      </trkpt>
      <trkpt lat="42.57687" lon="-1.71601">
        <ele>577</ele>
        <time>2023-08-07T18:27:39.000+02:00</time>
      </trkpt>
      <trkpt lat="42.57666" lon="-1.7168">
        <ele>572.6</ele>
        <time>2023-08-07T18:27:49.000+02:00</time>
      </trkpt>
      <trkpt lat="42.5753" lon="-1.7172">
        <ele>562.4</ele>
        <time>2023-08-07T18:28:10.000+02:00</time>
      </trkpt>
      <trkpt lat="42.5753" lon="-1.71752">
        <ele>559.8</ele>
        <time>2023-08-07T18:28:14.000+02:00</time>
      </trkpt>
      <trkpt lat="42.57576" lon="-1.71793">
        <ele>555.6</ele>
        <time>2023-08-07T18:28:22.000+02:00</time>
      </trkpt>
      <trkpt lat="42.57511" lon="-1.71827">
        <ele>550.5</ele>
        <time>2023-08-07T18:28:33.000+02:00</time>
      </trkpt>
      <trkpt lat="42.5754" lon="-1.71903">
        <ele>546</ele>
        <time>2023-08-07T18:28:42.000+02:00</time>
      </trkpt>
      <trkpt lat="42.57527" lon="-1.72093">
        <ele>539</ele>
        <time>2023-08-07T18:29:04.000+02:00</time>
      </trkpt>
      <trkpt lat="42.57662" lon="-1.72058">
        <ele>514.3</ele>
        <time>2023-08-07T18:29:25.000+02:00</time>
      </trkpt>
      <trkpt lat="42.57742" lon="-1.71962">
        <ele>502.4</ele>
        <time>2023-08-07T18:29:41.000+02:00</time>
      </trkpt>
      <trkpt lat="42.5778" lon="-1.71992">
        <ele>493.2</ele>
        <time>2023-08-07T18:29:48.000+02:00</time>
      </trkpt>
      <trkpt lat="42.5781" lon="-1.72081">
        <ele>492.5</ele>
        <time>2023-08-07T18:29:59.000+02:00</time>
      </trkpt>
      <trkpt lat="42.57798" lon="-1.72132">
        <ele>498.5</ele>
        <time>2023-08-07T18:30:05.000+02:00</time>
      </trkpt>
      <trkpt lat="42.57705" lon="-1.72198">
        <ele>515.9</ele>
        <time>2023-08-07T18:30:21.000+02:00</time>
      </trkpt>
      <trkpt lat="42.57635" lon="-1.72293">
        <ele>530.4</ele>
        <time>2023-08-07T18:30:36.000+02:00</time>
      </trkpt>
      <trkpt lat="42.57715" lon="-1.72397">
        <ele>519.8</ele>
        <time>2023-08-07T18:30:53.000+02:00</time>
      </trkpt>
      <trkpt lat="42.5768" lon="-1.72519">
        <ele>509.8</ele>
        <time>2023-08-07T18:31:08.000+02:00</time>
      </trkpt>
      <trkpt lat="42.57812" lon="-1.72765">
        <ele>489.2</ele>
        <time>2023-08-07T18:31:42.000+02:00</time>
      </trkpt>
      <trkpt lat="42.57832" lon="-1.72881">
        <ele>479.4</ele>
        <time>2023-08-07T18:31:56.000+02:00</time>
      </trkpt>
      <trkpt lat="42.57764" lon="-1.72871">
        <ele>471.3</ele>
        <time>2023-08-07T18:32:06.000+02:00</time>
      </trkpt>
      <trkpt lat="42.57832" lon="-1.73">
        <ele>461.6</ele>
        <time>2023-08-07T18:32:24.000+02:00</time>
      </trkpt>
      <trkpt lat="42.57882" lon="-1.73014">
        <ele>458</ele>
        <time>2023-08-07T18:32:32.000+02:00</time>
      </trkpt>
      <trkpt lat="42.57898" lon="-1.73049">
        <ele>454</ele>
        <time>2023-08-07T18:32:37.000+02:00</time>
      </trkpt>
      <trkpt lat="42.57915" lon="-1.73242">
        <ele>436.1</ele>
        <time>2023-08-07T18:32:58.000+02:00</time>
      </trkpt>
      <trkpt lat="42.57875" lon="-1.73332">
        <ele>428.1</ele>
        <time>2023-08-07T18:33:10.000+02:00</time>
      </trkpt>
      <trkpt lat="42.57849" lon="-1.735">
        <ele>422.1</ele>
        <time>2023-08-07T18:33:30.000+02:00</time>
      </trkpt>
      <trkpt lat="42.57899" lon="-1.74039">
        <ele>419.4</ele>
        <time>2023-08-07T18:34:31.000+02:00</time>
      </trkpt>
      <trkpt lat="42.57995" lon="-1.74397">
        <ele>416.4</ele>
        <time>2023-08-07T18:35:13.000+02:00</time>
      </trkpt>
      <trkpt lat="42.58174" lon="-1.74927">
        <ele>406.8</ele>
        <time>2023-08-07T18:36:19.000+02:00</time>
      </trkpt>
      <trkpt lat="42.58406" lon="-1.75202">
        <ele>405.2</ele>
        <time>2023-08-07T18:37:06.000+02:00</time>
      </trkpt>
      <trkpt lat="42.58498" lon="-1.75402">
        <ele>399.8</ele>
        <time>2023-08-07T18:37:33.000+02:00</time>
      </trkpt>
      <trkpt lat="42.58562" lon="-1.75653">
        <ele>399.7</ele>
        <time>2023-08-07T18:38:03.000+02:00</time>
      </trkpt>
      <trkpt lat="42.58754" lon="-1.76145">
        <ele>396.2</ele>
        <time>2023-08-07T18:39:05.000+02:00</time>
      </trkpt>
      <trkpt lat="42.58737" lon="-1.76492">
        <ele>403.2</ele>
        <time>2023-08-07T18:39:44.000+02:00</time>
      </trkpt>
      <trkpt lat="42.58934" lon="-1.76403">
        <ele>419.5</ele>
        <time>2023-08-07T18:40:16.000+02:00</time>
      </trkpt>
      <trkpt lat="42.58982" lon="-1.76396">
        <ele>424.1</ele>
        <time>2023-08-07T18:40:23.000+02:00</time>
      </trkpt>
      <trkpt lat="42.59044" lon="-1.76432">
        <ele>431.8</ele>
        <time>2023-08-07T18:40:34.000+02:00</time>
      </trkpt>
      <trkpt lat="42.59115" lon="-1.76374">
        <ele>449.3</ele>
        <time>2023-08-07T18:40:46.000+02:00</time>
      </trkpt>
      <trkpt lat="42.59213" lon="-1.76399">
        <ele>456</ele>
        <time>2023-08-07T18:41:02.000+02:00</time>
      </trkpt>
      <trkpt lat="42.59206" lon="-1.76537">
        <ele>455.4</ele>
        <time>2023-08-07T18:41:17.000+02:00</time>
      </trkpt>
      <trkpt lat="42.59254" lon="-1.76545">
        <ele>450.3</ele>
        <time>2023-08-07T18:41:24.000+02:00</time>
      </trkpt>
      <trkpt lat="42.5932" lon="-1.76405">
        <ele>441.3</ele>
        <time>2023-08-07T18:41:43.000+02:00</time>
      </trkpt>
      <trkpt lat="42.5934" lon="-1.7629">
        <ele>434.1</ele>
        <time>2023-08-07T18:41:56.000+02:00</time>
      </trkpt>
      <trkpt lat="42.59445" lon="-1.76099">
        <ele>419.4</ele>
        <time>2023-08-07T18:42:23.000+02:00</time>
      </trkpt>
      <trkpt lat="42.59588" lon="-1.76016">
        <ele>413.1</ele>
        <time>2023-08-07T18:42:47.000+02:00</time>
      </trkpt>
      <trkpt lat="42.59661" lon="-1.75927">
        <ele>422.2</ele>
        <time>2023-08-07T18:43:02.000+02:00</time>
      </trkpt>
      <trkpt lat="42.59795" lon="-1.75899">
        <ele>430.3</ele>
        <time>2023-08-07T18:43:23.000+02:00</time>
      </trkpt>
      <trkpt lat="42.59917" lon="-1.75788">
        <ele>429.4</ele>
        <time>2023-08-07T18:43:45.000+02:00</time>
      </trkpt>
      <trkpt lat="42.60261" lon="-1.75623">
        <ele>420</ele>
        <time>2023-08-07T18:44:41.000+02:00</time>
      </trkpt>
      <trkpt lat="42.60418" lon="-1.75447">
        <ele>424.4</ele>
        <time>2023-08-07T18:45:12.000+02:00</time>
      </trkpt>
      <trkpt lat="42.60471" lon="-1.75419">
        <ele>425</ele>
        <time>2023-08-07T18:45:21.000+02:00</time>
      </trkpt>
      <trkpt lat="42.60492" lon="-1.75326">
        <ele>428.4</ele>
        <time>2023-08-07T18:45:32.000+02:00</time>
      </trkpt>
      <trkpt lat="42.60418" lon="-1.75181">
        <ele>445.6</ele>
        <time>2023-08-07T18:45:52.000+02:00</time>
      </trkpt>
      <trkpt lat="42.6046" lon="-1.75141">
        <ele>448.6</ele>
        <time>2023-08-07T18:45:59.000+02:00</time>
      </trkpt>
      <trkpt lat="42.60756" lon="-1.75013">
        <ele>460.3</ele>
        <time>2023-08-07T18:46:47.000+02:00</time>
      </trkpt>
      <trkpt lat="42.60881" lon="-1.75005">
        <ele>467</ele>
        <time>2023-08-07T18:47:06.000+02:00</time>
      </trkpt>
      <trkpt lat="42.60994" lon="-1.74902">
        <ele>472.1</ele>
        <time>2023-08-07T18:47:27.000+02:00</time>
      </trkpt>
      <trkpt lat="42.61151" lon="-1.74663">
        <ele>477.5</ele>
        <time>2023-08-07T18:48:03.000+02:00</time>
      </trkpt>
      <trkpt lat="42.61277" lon="-1.74562">
        <ele>487.2</ele>
        <time>2023-08-07T18:48:25.000+02:00</time>
      </trkpt>
      <trkpt lat="42.61362" lon="-1.74519">
        <ele>496.9</ele>
        <time>2023-08-07T18:48:39.000+02:00</time>
      </trkpt>
      <trkpt lat="42.61466" lon="-1.74601">
        <ele>502.5</ele>
        <time>2023-08-07T18:48:57.000+02:00</time>
      </trkpt>
      <trkpt lat="42.61527" lon="-1.74483">
        <ele>507.6</ele>
        <time>2023-08-07T18:49:14.000+02:00</time>
      </trkpt>
      <trkpt lat="42.61771" lon="-1.74325">
        <ele>518.4</ele>
        <time>2023-08-07T18:49:55.000+02:00</time>
      </trkpt>
      <trkpt lat="42.61836" lon="-1.74328">
        <ele>523.1</ele>
        <time>2023-08-07T18:50:05.000+02:00</time>
      </trkpt>
      <trkpt lat="42.6187" lon="-1.74375">
        <ele>527.9</ele>
        <time>2023-08-07T18:50:12.000+02:00</time>
      </trkpt>
      <trkpt lat="42.61932" lon="-1.74401">
        <ele>533.8</ele>
        <time>2023-08-07T18:50:22.000+02:00</time>
      </trkpt>
      <trkpt lat="42.61956" lon="-1.74457">
        <ele>536</ele>
        <time>2023-08-07T18:50:29.000+02:00</time>
      </trkpt>
      <trkpt lat="42.61955" lon="-1.74557">
        <ele>537.3</ele>
        <time>2023-08-07T18:50:41.000+02:00</time>
      </trkpt>
      <trkpt lat="42.61992" lon="-1.74624">
        <ele>535.9</ele>
        <time>2023-08-07T18:50:50.000+02:00</time>
      </trkpt>
      <trkpt lat="42.62071" lon="-1.74678">
        <ele>532.7</ele>
        <time>2023-08-07T18:51:04.000+02:00</time>
      </trkpt>
      <trkpt lat="42.62157" lon="-1.74665">
        <ele>532.3</ele>
        <time>2023-08-07T18:51:17.000+02:00</time>
      </trkpt>
      <trkpt lat="42.62189" lon="-1.74731">
        <ele>529.1</ele>
        <time>2023-08-07T18:51:26.000+02:00</time>
      </trkpt>
      <trkpt lat="42.62242" lon="-1.7473">
        <ele>530.5</ele>
        <time>2023-08-07T18:51:34.000+02:00</time>
      </trkpt>
      <trkpt lat="42.62264" lon="-1.74786">
        <ele>527.9</ele>
        <time>2023-08-07T18:51:41.000+02:00</time>
      </trkpt>
      <trkpt lat="42.62334" lon="-1.74783">
        <ele>526.3</ele>
        <time>2023-08-07T18:51:52.000+02:00</time>
      </trkpt>
      <trkpt lat="42.62388" lon="-1.74892">
        <ele>521.5</ele>
        <time>2023-08-07T18:52:07.000+02:00</time>
      </trkpt>
      <trkpt lat="42.62392" lon="-1.75092">
        <ele>519.3</ele>
        <time>2023-08-07T18:52:29.000+02:00</time>
      </trkpt>
      <trkpt lat="42.62451" lon="-1.75102">
        <ele>518.2</ele>
        <time>2023-08-07T18:52:38.000+02:00</time>
      </trkpt>
      <trkpt lat="42.62489" lon="-1.75172">
        <ele>517.5</ele>
        <time>2023-08-07T18:52:48.000+02:00</time>
      </trkpt>
      <trkpt lat="42.6254" lon="-1.75162">
        <ele>523.2</ele>
        <time>2023-08-07T18:52:56.000+02:00</time>
      </trkpt>
      <trkpt lat="42.62235" lon="-1.75304">
        <ele>486.8</ele>
        <time>2023-08-07T18:53:45.000+02:00</time>
      </trkpt>
      <trkpt lat="42.61921" lon="-1.75182">
        <ele>469.1</ele>
        <time>2023-08-07T18:54:35.000+02:00</time>
      </trkpt>
      <trkpt lat="42.61759" lon="-1.75192">
        <ele>461.6</ele>
        <time>2023-08-07T18:55:00.000+02:00</time>
      </trkpt>
      <trkpt lat="42.61707" lon="-1.75223">
        <ele>457.9</ele>
        <time>2023-08-07T18:55:09.000+02:00</time>
      </trkpt>
      <trkpt lat="42.61469" lon="-1.75109">
        <ele>451.2</ele>
        <time>2023-08-07T18:55:47.000+02:00</time>
      </trkpt>
      <trkpt lat="42.61336" lon="-1.75158">
        <ele>445.5</ele>
        <time>2023-08-07T18:56:08.000+02:00</time>
      </trkpt>
      <trkpt lat="42.61293" lon="-1.75216">
        <ele>443.2</ele>
        <time>2023-08-07T18:56:17.000+02:00</time>
      </trkpt>
      <trkpt lat="42.61322" lon="-1.75551">
        <ele>469.9</ele>
        <time>2023-08-07T18:56:55.000+02:00</time>
      </trkpt>
      <trkpt lat="42.61397" lon="-1.75786">
        <ele>473.9</ele>
        <time>2023-08-07T18:57:24.000+02:00</time>
      </trkpt>
      <trkpt lat="42.61266" lon="-1.7607">
        <ele>455.4</ele>
        <time>2023-08-07T18:58:02.000+02:00</time>
      </trkpt>
      <trkpt lat="42.6146" lon="-1.76031">
        <ele>459.1</ele>
        <time>2023-08-07T18:58:32.000+02:00</time>
      </trkpt>
      <trkpt lat="42.61572" lon="-1.76071">
        <ele>462.7</ele>
        <time>2023-08-07T18:58:49.000+02:00</time>
      </trkpt>
      <trkpt lat="42.6169" lon="-1.76038">
        <ele>467.8</ele>
        <time>2023-08-07T18:59:08.000+02:00</time>
      </trkpt>
      <trkpt lat="42.6173" lon="-1.76056">
        <ele>469.5</ele>
        <time>2023-08-07T18:59:14.000+02:00</time>
      </trkpt>
      <trkpt lat="42.61807" lon="-1.76201">
        <ele>482.5</ele>
        <time>2023-08-07T18:59:34.000+02:00</time>
      </trkpt>
      <trkpt lat="42.6175" lon="-1.76274">
        <ele>477.8</ele>
        <time>2023-08-07T18:59:46.000+02:00</time>
      </trkpt>
      <trkpt lat="42.61767" lon="-1.76373">
        <ele>470.3</ele>
        <time>2023-08-07T18:59:58.000+02:00</time>
      </trkpt>
      <trkpt lat="42.6184" lon="-1.76433">
        <ele>469.9</ele>
        <time>2023-08-07T19:00:11.000+02:00</time>
      </trkpt>
      <trkpt lat="42.619" lon="-1.76638">
        <ele>475.3</ele>
        <time>2023-08-07T19:00:36.000+02:00</time>
      </trkpt>
      <trkpt lat="42.62043" lon="-1.76724">
        <ele>475.2</ele>
        <time>2023-08-07T19:01:00.000+02:00</time>
      </trkpt>
      <trkpt lat="42.62114" lon="-1.76708">
        <ele>470.8</ele>
        <time>2023-08-07T19:01:11.000+02:00</time>
      </trkpt>
      <trkpt lat="42.62171" lon="-1.7673">
        <ele>465.9</ele>
        <time>2023-08-07T19:01:20.000+02:00</time>
      </trkpt>
      <trkpt lat="42.62207" lon="-1.76798">
        <ele>470.3</ele>
        <time>2023-08-07T19:01:29.000+02:00</time>
      </trkpt>
      <trkpt lat="42.62281" lon="-1.76827">
        <ele>485.9</ele>
        <time>2023-08-07T19:01:41.000+02:00</time>
      </trkpt>
      <trkpt lat="42.62338" lon="-1.76936">
        <ele>484.1</ele>
        <time>2023-08-07T19:01:56.000+02:00</time>
      </trkpt>
      <trkpt lat="42.62466" lon="-1.76979">
        <ele>494.7</ele>
        <time>2023-08-07T19:02:16.000+02:00</time>
      </trkpt>
      <trkpt lat="42.62487" lon="-1.77033">
        <ele>494.7</ele>
        <time>2023-08-07T19:02:23.000+02:00</time>
      </trkpt>
      <trkpt lat="42.62479" lon="-1.77082">
        <ele>496.1</ele>
        <time>2023-08-07T19:02:29.000+02:00</time>
      </trkpt>
      <trkpt lat="42.62366" lon="-1.77083">
        <ele>487</ele>
        <time>2023-08-07T19:02:46.000+02:00</time>
      </trkpt>
      <trkpt lat="42.62316" lon="-1.77116">
        <ele>487.9</ele>
        <time>2023-08-07T19:02:54.000+02:00</time>
      </trkpt>
      <trkpt lat="42.62342" lon="-1.77386">
        <ele>496.4</ele>
        <time>2023-08-07T19:03:25.000+02:00</time>
      </trkpt>
      <trkpt lat="42.62408" lon="-1.77479">
        <ele>498.2</ele>
        <time>2023-08-07T19:03:40.000+02:00</time>
      </trkpt>
      <trkpt lat="42.62376" lon="-1.77533">
        <ele>497.1</ele>
        <time>2023-08-07T19:03:47.000+02:00</time>
      </trkpt>
      <trkpt lat="42.62391" lon="-1.77645">
        <ele>498.1</ele>
        <time>2023-08-07T19:04:00.000+02:00</time>
      </trkpt>
      <trkpt lat="42.62365" lon="-1.77756">
        <ele>489.7</ele>
        <time>2023-08-07T19:04:13.000+02:00</time>
      </trkpt>
      <trkpt lat="42.62419" lon="-1.77765">
        <ele>486.1</ele>
        <time>2023-08-07T19:04:22.000+02:00</time>
      </trkpt>
      <trkpt lat="42.6235" lon="-1.77811">
        <ele>476.7</ele>
        <time>2023-08-07T19:04:33.000+02:00</time>
      </trkpt>
      <trkpt lat="42.62322" lon="-1.77886">
        <ele>476.3</ele>
        <time>2023-08-07T19:04:43.000+02:00</time>
      </trkpt>
      <trkpt lat="42.62335" lon="-1.78078">
        <ele>469.8</ele>
        <time>2023-08-07T19:05:05.000+02:00</time>
      </trkpt>
      <trkpt lat="42.62315" lon="-1.783">
        <ele>460.1</ele>
        <time>2023-08-07T19:05:30.000+02:00</time>
      </trkpt>
      <trkpt lat="42.62368" lon="-1.78379">
        <ele>455.3</ele>
        <time>2023-08-07T19:05:42.000+02:00</time>
      </trkpt>
      <trkpt lat="42.62396" lon="-1.78672">
        <ele>448.6</ele>
        <time>2023-08-07T19:06:15.000+02:00</time>
      </trkpt>
      <trkpt lat="42.6244" lon="-1.78729">
        <ele>447.6</ele>
        <time>2023-08-07T19:06:24.000+02:00</time>
      </trkpt>
      <trkpt lat="42.62428" lon="-1.78841">
        <ele>457.7</ele>
        <time>2023-08-07T19:06:37.000+02:00</time>
      </trkpt>
      <trkpt lat="42.62366" lon="-1.78926">
        <ele>457.1</ele>
        <time>2023-08-07T19:06:50.000+02:00</time>
      </trkpt>
      <trkpt lat="42.62366" lon="-1.79084">
        <ele>440.1</ele>
        <time>2023-08-07T19:07:08.000+02:00</time>
      </trkpt>
      <trkpt lat="42.62339" lon="-1.79135">
        <ele>435.7</ele>
        <time>2023-08-07T19:07:15.000+02:00</time>
      </trkpt>
      <trkpt lat="42.62351" lon="-1.79525">
        <ele>426</ele>
        <time>2023-08-07T19:07:59.000+02:00</time>
      </trkpt>
      <trkpt lat="42.6243" lon="-1.79842">
        <ele>420.8</ele>
        <time>2023-08-07T19:08:37.000+02:00</time>
      </trkpt>
      <trkpt lat="42.62564" lon="-1.79981">
        <ele>421.6</ele>
        <time>2023-08-07T19:09:02.000+02:00</time>
      </trkpt>
      <trkpt lat="42.62579" lon="-1.80355">
        <ele>420.9</ele>
        <time>2023-08-07T19:09:45.000+02:00</time>
      </trkpt>
      <trkpt lat="42.62628" lon="-1.80518">
        <ele>414.3</ele>
        <time>2023-08-07T19:10:04.000+02:00</time>
      </trkpt>
      <trkpt lat="42.62672" lon="-1.81052">
        <ele>410.2</ele>
        <time>2023-08-07T19:11:05.000+02:00</time>
      </trkpt>
      <trkpt lat="42.62705" lon="-1.81137">
        <ele>407.5</ele>
        <time>2023-08-07T19:11:16.000+02:00</time>
      </trkpt>
      <trkpt lat="42.62625" lon="-1.81501">
        <ele>390.5</ele>
        <time>2023-08-07T19:11:58.000+02:00</time>
      </trkpt>
      <trkpt lat="42.62623" lon="-1.81726">
        <ele>377.7</ele>
        <time>2023-08-07T19:12:24.000+02:00</time>
      </trkpt>
      <trkpt lat="42.62668" lon="-1.82019">
        <ele>359.5</ele>
        <time>2023-08-07T19:12:57.000+02:00</time>
      </trkpt>
      <trkpt lat="42.62742" lon="-1.82218">
        <ele>362.1</ele>
        <time>2023-08-07T19:13:22.000+02:00</time>
      </trkpt>
      <trkpt lat="42.62781" lon="-1.82465">
        <ele>377.3</ele>
        <time>2023-08-07T19:13:51.000+02:00</time>
      </trkpt>
      <trkpt lat="42.62837" lon="-1.83125">
        <ele>388.6</ele>
        <time>2023-08-07T19:15:05.000+02:00</time>
      </trkpt>
      <trkpt lat="42.62657" lon="-1.83384">
        <ele>371.4</ele>
        <time>2023-08-07T19:15:46.000+02:00</time>
      </trkpt>
      <trkpt lat="42.62684" lon="-1.8353">
        <ele>362.5</ele>
        <time>2023-08-07T19:16:02.000+02:00</time>
      </trkpt>
      <trkpt lat="42.62611" lon="-1.83646">
        <ele>356.6</ele>
        <time>2023-08-07T19:16:20.000+02:00</time>
      </trkpt>
      <trkpt lat="42.62572" lon="-1.83786">
        <ele>346.8</ele>
        <time>2023-08-07T19:16:36.000+02:00</time>
      </trkpt>
      <trkpt lat="42.62457" lon="-1.83799">
        <ele>340.2</ele>
        <time>2023-08-07T19:16:54.000+02:00</time>
      </trkpt>
      <trkpt lat="42.62395" lon="-1.83902">
        <ele>336.1</ele>
        <time>2023-08-07T19:17:09.000+02:00</time>
      </trkpt>
      <trkpt lat="42.62303" lon="-1.8399">
        <ele>333.5</ele>
        <time>2023-08-07T19:17:26.000+02:00</time>
      </trkpt>
      <trkpt lat="42.62043" lon="-1.84135">
        <ele>329.1</ele>
        <time>2023-08-07T19:18:09.000+02:00</time>
      </trkpt>
      <trkpt lat="42.62058" lon="-1.84312">
        <ele>326.2</ele>
        <time>2023-08-07T19:18:29.000+02:00</time>
      </trkpt>
      <trkpt lat="42.62132" lon="-1.84374">
        <ele>330</ele>
        <time>2023-08-07T19:18:42.000+02:00</time>
      </trkpt>
      <trkpt lat="42.62166" lon="-1.84476">
        <ele>337.4</ele>
        <time>2023-08-07T19:18:55.000+02:00</time>
      </trkpt>
      <trkpt lat="42.62316" lon="-1.84475">
        <ele>334.7</ele>
        <time>2023-08-07T19:19:18.000+02:00</time>
      </trkpt>
      <trkpt lat="42.62428" lon="-1.84571">
        <ele>334.6</ele>
        <time>2023-08-07T19:19:38.000+02:00</time>
      </trkpt>
      <trkpt lat="42.62497" lon="-1.84555">
        <ele>330.7</ele>
        <time>2023-08-07T19:19:49.000+02:00</time>
      </trkpt>
      <trkpt lat="42.6261" lon="-1.84586">
        <ele>330.2</ele>
        <time>2023-08-07T19:20:06.000+02:00</time>
      </trkpt>
      <trkpt lat="42.62681" lon="-1.8456">
        <ele>332.5</ele>
        <time>2023-08-07T19:20:17.000+02:00</time>
      </trkpt>
      <trkpt lat="42.62731" lon="-1.84589">
        <ele>338.1</ele>
        <time>2023-08-07T19:20:26.000+02:00</time>
      </trkpt>
      <trkpt lat="42.62833" lon="-1.84546">
        <ele>337.2</ele>
        <time>2023-08-07T19:20:42.000+02:00</time>
      </trkpt>
      <trkpt lat="42.62994" lon="-1.84566">
        <ele>337.7</ele>
        <time>2023-08-07T19:21:07.000+02:00</time>
      </trkpt>
      <trkpt lat="42.6306" lon="-1.84601">
        <ele>336.2</ele>
        <time>2023-08-07T19:21:18.000+02:00</time>
      </trkpt>
      <trkpt lat="42.6311" lon="-1.84712">
        <ele>329.8</ele>
        <time>2023-08-07T19:21:32.000+02:00</time>
      </trkpt>
      <trkpt lat="42.63378" lon="-1.84713">
        <ele>331.2</ele>
        <time>2023-08-07T19:22:13.000+02:00</time>
      </trkpt>
      <trkpt lat="42.63582" lon="-1.84908">
        <ele>334.2</ele>
        <time>2023-08-07T19:22:51.000+02:00</time>
      </trkpt>
      <trkpt lat="42.63675" lon="-1.85035">
        <ele>334.2</ele>
        <time>2023-08-07T19:23:11.000+02:00</time>
      </trkpt>
      <trkpt lat="42.63795" lon="-1.85334">
        <ele>335.9</ele>
        <time>2023-08-07T19:23:50.000+02:00</time>
      </trkpt>
      <trkpt lat="42.64031" lon="-1.8554">
        <ele>338</ele>
        <time>2023-08-07T19:24:33.000+02:00</time>
      </trkpt>
      <trkpt lat="42.64328" lon="-1.85976">
        <ele>341.5</ele>
        <time>2023-08-07T19:25:39.000+02:00</time>
      </trkpt>
      <trkpt lat="42.64453" lon="-1.86362">
        <ele>341.3</ele>
        <time>2023-08-07T19:26:27.000+02:00</time>
      </trkpt>
      <trkpt lat="42.6451" lon="-1.86346">
        <ele>342.6</ele>
        <time>2023-08-07T19:26:36.000+02:00</time>
      </trkpt>
      <trkpt lat="42.64545" lon="-1.86427">
        <ele>343.2</ele>
        <time>2023-08-07T19:26:46.000+02:00</time>
      </trkpt>
      <trkpt lat="42.64593" lon="-1.8668">
        <ele>343.1</ele>
        <time>2023-08-07T19:27:16.000+02:00</time>
      </trkpt>
      <trkpt lat="42.64446" lon="-1.86736">
        <ele>341.4</ele>
        <time>2023-08-07T19:27:39.000+02:00</time>
      </trkpt>
      <trkpt lat="42.64405" lon="-1.86695">
        <ele>341.4</ele>
        <time>2023-08-07T19:27:47.000+02:00</time>
      </trkpt>
      <trkpt lat="42.64328" lon="-1.86493">
        <ele>339.9</ele>
        <time>2023-08-07T19:28:12.000+02:00</time>
      </trkpt>
      <trkpt lat="42.64116" lon="-1.86278">
        <ele>342.6</ele>
        <time>2023-08-07T19:28:53.000+02:00</time>
      </trkpt>
      <trkpt lat="42.63898" lon="-1.86155">
        <ele>351.4</ele>
        <time>2023-08-07T19:29:29.000+02:00</time>
      </trkpt>
      <trkpt lat="42.63771" lon="-1.8603">
        <ele>369.3</ele>
        <time>2023-08-07T19:29:53.000+02:00</time>
      </trkpt>
      <trkpt lat="42.63777" lon="-1.86204">
        <ele>382.7</ele>
        <time>2023-08-07T19:30:12.000+02:00</time>
      </trkpt>
      <trkpt lat="42.63826" lon="-1.86329">
        <ele>391.6</ele>
        <time>2023-08-07T19:30:28.000+02:00</time>
      </trkpt>
      <trkpt lat="42.63813" lon="-1.86433">
        <ele>395.5</ele>
        <time>2023-08-07T19:30:40.000+02:00</time>
      </trkpt>
      <trkpt lat="42.63857" lon="-1.86501">
        <ele>396.9</ele>
        <time>2023-08-07T19:30:50.000+02:00</time>
      </trkpt>
      <trkpt lat="42.63879" lon="-1.86644">
        <ele>395.3</ele>
        <time>2023-08-07T19:31:07.000+02:00</time>
      </trkpt>
      <trkpt lat="42.63867" lon="-1.86696">
        <ele>394.9</ele>
        <time>2023-08-07T19:31:13.000+02:00</time>
      </trkpt>
      <trkpt lat="42.63801" lon="-1.86741">
        <ele>396.8</ele>
        <time>2023-08-07T19:31:24.000+02:00</time>
      </trkpt>
      <trkpt lat="42.63795" lon="-1.86867">
        <ele>396.6</ele>
        <time>2023-08-07T19:31:38.000+02:00</time>
      </trkpt>
      <trkpt lat="42.63832" lon="-1.86948">
        <ele>397.3</ele>
        <time>2023-08-07T19:31:49.000+02:00</time>
      </trkpt>
      <trkpt lat="42.63824" lon="-1.87055">
        <ele>394.4</ele>
        <time>2023-08-07T19:32:01.000+02:00</time>
      </trkpt>
      <trkpt lat="42.63764" lon="-1.87202">
        <ele>395.9</ele>
        <time>2023-08-07T19:32:20.000+02:00</time>
      </trkpt>
      <trkpt lat="42.63836" lon="-1.87294">
        <ele>396.4</ele>
        <time>2023-08-07T19:32:35.000+02:00</time>
      </trkpt>
      <trkpt lat="42.63973" lon="-1.8736">
        <ele>397</ele>
        <time>2023-08-07T19:32:57.000+02:00</time>
      </trkpt>
      <trkpt lat="42.64041" lon="-1.87455">
        <ele>398</ele>
        <time>2023-08-07T19:33:12.000+02:00</time>
      </trkpt>
      <trkpt lat="42.64142" lon="-1.87442">
        <ele>395.9</ele>
        <time>2023-08-07T19:33:28.000+02:00</time>
      </trkpt>
      <trkpt lat="42.6417" lon="-1.8748">
        <ele>396.1</ele>
        <time>2023-08-07T19:33:34.000+02:00</time>
      </trkpt>
      <trkpt lat="42.64186" lon="-1.8764">
        <ele>397.6</ele>
        <time>2023-08-07T19:33:52.000+02:00</time>
      </trkpt>
      <trkpt lat="42.64156" lon="-1.87684">
        <ele>396.1</ele>
        <time>2023-08-07T19:33:59.000+02:00</time>
      </trkpt>
      <trkpt lat="42.64103" lon="-1.87682">
        <ele>397.7</ele>
        <time>2023-08-07T19:34:07.000+02:00</time>
      </trkpt>
      <trkpt lat="42.64073" lon="-1.87763">
        <ele>398.5</ele>
        <time>2023-08-07T19:34:17.000+02:00</time>
      </trkpt>
      <trkpt lat="42.64203" lon="-1.87788">
        <ele>395.8</ele>
        <time>2023-08-07T19:34:37.000+02:00</time>
      </trkpt>
      <trkpt lat="42.64202" lon="-1.88012">
        <ele>397.8</ele>
        <time>2023-08-07T19:35:02.000+02:00</time>
      </trkpt>
      <trkpt lat="42.64264" lon="-1.88">
        <ele>399.5</ele>
        <time>2023-08-07T19:35:12.000+02:00</time>
      </trkpt>
      <trkpt lat="42.64312" lon="-1.87888">
        <ele>398.2</ele>
        <time>2023-08-07T19:35:26.000+02:00</time>
      </trkpt>
      <trkpt lat="42.645" lon="-1.8799">
        <ele>408.4</ele>
        <time>2023-08-07T19:35:57.000+02:00</time>
      </trkpt>
      <trkpt lat="42.64565" lon="-1.87993">
        <ele>399.2</ele>
        <time>2023-08-07T19:36:07.000+02:00</time>
      </trkpt>
      <trkpt lat="42.6463" lon="-1.88099">
        <ele>397.2</ele>
        <time>2023-08-07T19:36:23.000+02:00</time>
      </trkpt>
      <trkpt lat="42.64651" lon="-1.88188">
        <ele>396.4</ele>
        <time>2023-08-07T19:36:33.000+02:00</time>
      </trkpt>
      <trkpt lat="42.6461" lon="-1.8835">
        <ele>398.7</ele>
        <time>2023-08-07T19:36:52.000+02:00</time>
      </trkpt>
      <trkpt lat="42.64621" lon="-1.88385">
        <ele>398.1</ele>
        <time>2023-08-07T19:36:57.000+02:00</time>
      </trkpt>
      <trkpt lat="42.64801" lon="-1.88327">
        <ele>397.5</ele>
        <time>2023-08-07T19:37:25.000+02:00</time>
      </trkpt>
      <trkpt lat="42.64904" lon="-1.88386">
        <ele>396.2</ele>
        <time>2023-08-07T19:37:42.000+02:00</time>
      </trkpt>
      <trkpt lat="42.6501" lon="-1.88512">
        <ele>396.6</ele>
        <time>2023-08-07T19:38:04.000+02:00</time>
      </trkpt>
      <trkpt lat="42.65019" lon="-1.88598">
        <ele>396.6</ele>
        <time>2023-08-07T19:38:13.000+02:00</time>
      </trkpt>
      <trkpt lat="42.65001" lon="-1.88661">
        <ele>394.3</ele>
        <time>2023-08-07T19:38:21.000+02:00</time>
      </trkpt>
      <trkpt lat="42.65019" lon="-1.88693">
        <ele>393.3</ele>
        <time>2023-08-07T19:38:26.000+02:00</time>
      </trkpt>
      <trkpt lat="42.65075" lon="-1.88706">
        <ele>396.9</ele>
        <time>2023-08-07T19:38:34.000+02:00</time>
      </trkpt>
      <trkpt lat="42.65125" lon="-1.88801">
        <ele>398</ele>
        <time>2023-08-07T19:38:48.000+02:00</time>
      </trkpt>
      <trkpt lat="42.65192" lon="-1.88862">
        <ele>398.5</ele>
        <time>2023-08-07T19:39:00.000+02:00</time>
      </trkpt>
      <trkpt lat="42.65167" lon="-1.89008">
        <ele>399.6</ele>
        <time>2023-08-07T19:39:17.000+02:00</time>
      </trkpt>
      <trkpt lat="42.65258" lon="-1.89105">
        <ele>399.6</ele>
        <time>2023-08-07T19:39:34.000+02:00</time>
      </trkpt>
      <trkpt lat="42.65331" lon="-1.89055">
        <ele>397.8</ele>
        <time>2023-08-07T19:39:47.000+02:00</time>
      </trkpt>
      <trkpt lat="42.6542" lon="-1.89107">
        <ele>398.1</ele>
        <time>2023-08-07T19:40:02.000+02:00</time>
      </trkpt>
      <trkpt lat="42.65463" lon="-1.89191">
        <ele>398.4</ele>
        <time>2023-08-07T19:40:13.000+02:00</time>
      </trkpt>
      <trkpt lat="42.65466" lon="-1.89338">
        <ele>399.7</ele>
        <time>2023-08-07T19:40:30.000+02:00</time>
      </trkpt>
      <trkpt lat="42.65559" lon="-1.89343">
        <ele>400.7</ele>
        <time>2023-08-07T19:40:44.000+02:00</time>
      </trkpt>
      <trkpt lat="42.65608" lon="-1.89312">
        <ele>400.2</ele>
        <time>2023-08-07T19:40:52.000+02:00</time>
      </trkpt>
      <trkpt lat="42.65671" lon="-1.89358">
        <ele>398.3</ele>
        <time>2023-08-07T19:41:03.000+02:00</time>
      </trkpt>
      <trkpt lat="42.65682" lon="-1.89395">
        <ele>398.9</ele>
        <time>2023-08-07T19:41:08.000+02:00</time>
      </trkpt>
      <trkpt lat="42.65651" lon="-1.89509">
        <ele>399.5</ele>
        <time>2023-08-07T19:41:21.000+02:00</time>
      </trkpt>
      <trkpt lat="42.65734" lon="-1.89611">
        <ele>402.6</ele>
        <time>2023-08-07T19:41:38.000+02:00</time>
      </trkpt>
      <trkpt lat="42.65752" lon="-1.8967">
        <ele>399.4</ele>
        <time>2023-08-07T19:41:46.000+02:00</time>
      </trkpt>
      <trkpt lat="42.65847" lon="-1.89757">
        <ele>398.3</ele>
        <time>2023-08-07T19:42:03.000+02:00</time>
      </trkpt>
      <trkpt lat="42.65848" lon="-1.89896">
        <ele>400.1</ele>
        <time>2023-08-07T19:42:19.000+02:00</time>
      </trkpt>
      <trkpt lat="42.65911" lon="-1.89935">
        <ele>399</ele>
        <time>2023-08-07T19:42:29.000+02:00</time>
      </trkpt>
      <trkpt lat="42.65916" lon="-1.90164">
        <ele>397.1</ele>
        <time>2023-08-07T19:42:55.000+02:00</time>
      </trkpt>
      <trkpt lat="42.65959" lon="-1.90186">
        <ele>401.3</ele>
        <time>2023-08-07T19:43:02.000+02:00</time>
      </trkpt>
      <trkpt lat="42.66057" lon="-1.9013">
        <ele>401.1</ele>
        <time>2023-08-07T19:43:18.000+02:00</time>
      </trkpt>
      <trkpt lat="42.66095" lon="-1.90161">
        <ele>403.1</ele>
        <time>2023-08-07T19:43:25.000+02:00</time>
      </trkpt>
      <trkpt lat="42.6613" lon="-1.90307">
        <ele>400.6</ele>
        <time>2023-08-07T19:43:42.000+02:00</time>
      </trkpt>
      <trkpt lat="42.66178" lon="-1.90354">
        <ele>404.5</ele>
        <time>2023-08-07T19:43:51.000+02:00</time>
      </trkpt>
      <trkpt lat="42.66268" lon="-1.90537">
        <ele>410.2</ele>
        <time>2023-08-07T19:44:16.000+02:00</time>
      </trkpt>
      <trkpt lat="42.66319" lon="-1.907">
        <ele>407.9</ele>
        <time>2023-08-07T19:44:36.000+02:00</time>
      </trkpt>
      <trkpt lat="42.66408" lon="-1.90781">
        <ele>412.5</ele>
        <time>2023-08-07T19:44:52.000+02:00</time>
      </trkpt>
      <trkpt lat="42.66467" lon="-1.90876">
        <ele>418.8</ele>
        <time>2023-08-07T19:45:06.000+02:00</time>
      </trkpt>
      <trkpt lat="42.66323" lon="-1.90871">
        <ele>432</ele>
        <time>2023-08-07T19:45:28.000+02:00</time>
      </trkpt>
      <trkpt lat="42.66381" lon="-1.91015">
        <ele>447.2</ele>
        <time>2023-08-07T19:45:47.000+02:00</time>
      </trkpt>
      <trkpt lat="42.66265" lon="-1.91125">
        <ele>464</ele>
        <time>2023-08-07T19:46:08.000+02:00</time>
      </trkpt>
      <trkpt lat="42.66233" lon="-1.91204">
        <ele>472.1</ele>
        <time>2023-08-07T19:46:18.000+02:00</time>
      </trkpt>
      <trkpt lat="42.66084" lon="-1.91176">
        <ele>485.9</ele>
        <time>2023-08-07T19:46:41.000+02:00</time>
      </trkpt>
      <trkpt lat="42.66166" lon="-1.91302">
        <ele>495.5</ele>
        <time>2023-08-07T19:47:00.000+02:00</time>
      </trkpt>
      <trkpt lat="42.66239" lon="-1.91359">
        <ele>502.9</ele>
        <time>2023-08-07T19:47:13.000+02:00</time>
      </trkpt>
      <trkpt lat="42.65979" lon="-1.91325">
        <ele>535.8</ele>
        <time>2023-08-07T19:47:53.000+02:00</time>
      </trkpt>
      <trkpt lat="42.6592" lon="-1.91236">
        <ele>543.8</ele>
        <time>2023-08-07T19:48:07.000+02:00</time>
      </trkpt>
      <trkpt lat="42.65854" lon="-1.91195">
        <ele>550.7</ele>
        <time>2023-08-07T19:48:18.000+02:00</time>
      </trkpt>
      <trkpt lat="42.65664" lon="-1.91152">
        <ele>570.9</ele>
        <time>2023-08-07T19:48:47.000+02:00</time>
      </trkpt>
      <trkpt lat="42.65599" lon="-1.91051">
        <ele>574.8</ele>
        <time>2023-08-07T19:49:02.000+02:00</time>
      </trkpt>
      <trkpt lat="42.65441" lon="-1.9119">
        <ele>595.7</ele>
        <time>2023-08-07T19:49:31.000+02:00</time>
      </trkpt>
      <trkpt lat="42.65453" lon="-1.91297">
        <ele>603.6</ele>
        <time>2023-08-07T19:49:43.000+02:00</time>
      </trkpt>
      <trkpt lat="42.65351" lon="-1.91443">
        <ele>614.9</ele>
        <time>2023-08-07T19:50:06.000+02:00</time>
      </trkpt>
      <trkpt lat="42.65223" lon="-1.91527">
        <ele>616.7</ele>
        <time>2023-08-07T19:50:28.000+02:00</time>
      </trkpt>
      <trkpt lat="42.65119" lon="-1.91515">
        <ele>617.4</ele>
        <time>2023-08-07T19:50:43.000+02:00</time>
      </trkpt>
      <trkpt lat="42.64919" lon="-1.91388">
        <ele>620.2</ele>
        <time>2023-08-07T19:51:17.000+02:00</time>
      </trkpt>
      <trkpt lat="42.64758" lon="-1.91399">
        <ele>623.2</ele>
        <time>2023-08-07T19:51:42.000+02:00</time>
      </trkpt>
      <trkpt lat="42.64701" lon="-1.91421">
        <ele>615.7</ele>
        <time>2023-08-07T19:51:51.000+02:00</time>
      </trkpt>
      <trkpt lat="42.64531" lon="-1.91586">
        <ele>609.4</ele>
        <time>2023-08-07T19:52:23.000+02:00</time>
      </trkpt>
      <trkpt lat="42.64439" lon="-1.91616">
        <ele>605.6</ele>
        <time>2023-08-07T19:52:37.000+02:00</time>
      </trkpt>
      <trkpt lat="42.6438" lon="-1.9171">
        <ele>594.6</ele>
        <time>2023-08-07T19:52:51.000+02:00</time>
      </trkpt>
      <trkpt lat="42.64135" lon="-1.91704">
        <ele>586.8</ele>
        <time>2023-08-07T19:53:29.000+02:00</time>
      </trkpt>
      <trkpt lat="42.64057" lon="-1.91815">
        <ele>582.5</ele>
        <time>2023-08-07T19:53:46.000+02:00</time>
      </trkpt>
      <trkpt lat="42.63942" lon="-1.91852">
        <ele>574.3</ele>
        <time>2023-08-07T19:54:04.000+02:00</time>
      </trkpt>
      <trkpt lat="42.63777" lon="-1.91837">
        <ele>561.8</ele>
        <time>2023-08-07T19:54:29.000+02:00</time>
      </trkpt>
      <trkpt lat="42.63693" lon="-1.9172">
        <ele>551.4</ele>
        <time>2023-08-07T19:54:47.000+02:00</time>
      </trkpt>
      <trkpt lat="42.63558" lon="-1.91657">
        <ele>534.6</ele>
        <time>2023-08-07T19:55:09.000+02:00</time>
      </trkpt>
      <trkpt lat="42.6335" lon="-1.91427">
        <ele>526.1</ele>
        <time>2023-08-07T19:55:50.000+02:00</time>
      </trkpt>
      <trkpt lat="42.63211" lon="-1.91346">
        <ele>514.3</ele>
        <time>2023-08-07T19:56:14.000+02:00</time>
      </trkpt>
      <trkpt lat="42.63244" lon="-1.91631">
        <ele>501.8</ele>
        <time>2023-08-07T19:56:46.000+02:00</time>
      </trkpt>
      <trkpt lat="42.63222" lon="-1.91726">
        <ele>497</ele>
        <time>2023-08-07T19:56:57.000+02:00</time>
      </trkpt>
      <trkpt lat="42.63169" lon="-1.91796">
        <ele>495.5</ele>
        <time>2023-08-07T19:57:09.000+02:00</time>
      </trkpt>
      <trkpt lat="42.63072" lon="-1.918">
        <ele>496.3</ele>
        <time>2023-08-07T19:57:23.000+02:00</time>
      </trkpt>
      <trkpt lat="42.63037" lon="-1.91843">
        <ele>496.1</ele>
        <time>2023-08-07T19:57:30.000+02:00</time>
      </trkpt>
      <trkpt lat="42.63134" lon="-1.92027">
        <ele>500.7</ele>
        <time>2023-08-07T19:57:56.000+02:00</time>
      </trkpt>
      <trkpt lat="42.63116" lon="-1.92097">
        <ele>493.5</ele>
        <time>2023-08-07T19:58:04.000+02:00</time>
      </trkpt>
      <trkpt lat="42.62993" lon="-1.92157">
        <ele>477.3</ele>
        <time>2023-08-07T19:58:24.000+02:00</time>
      </trkpt>
      <trkpt lat="42.63033" lon="-1.9222">
        <ele>474.5</ele>
        <time>2023-08-07T19:58:34.000+02:00</time>
      </trkpt>
      <trkpt lat="42.62994" lon="-1.92548">
        <ele>480</ele>
        <time>2023-08-07T19:59:11.000+02:00</time>
      </trkpt>
      <trkpt lat="42.62786" lon="-1.92789">
        <ele>473.3</ele>
        <time>2023-08-07T19:59:53.000+02:00</time>
      </trkpt>
      <trkpt lat="42.62915" lon="-1.92967">
        <ele>474</ele>
        <time>2023-08-07T20:00:21.000+02:00</time>
      </trkpt>
      <trkpt lat="42.6304" lon="-1.93246">
        <ele>470.5</ele>
        <time>2023-08-07T20:00:58.000+02:00</time>
      </trkpt>
      <trkpt lat="42.6305" lon="-1.93476">
        <ele>480.7</ele>
        <time>2023-08-07T20:01:24.000+02:00</time>
      </trkpt>
      <trkpt lat="42.63091" lon="-1.93622">
        <ele>476.5</ele>
        <time>2023-08-07T20:01:41.000+02:00</time>
      </trkpt>
      <trkpt lat="42.63096" lon="-1.93869">
        <ele>466.3</ele>
        <time>2023-08-07T20:02:09.000+02:00</time>
      </trkpt>
      <trkpt lat="42.63406" lon="-1.94622">
        <ele>490</ele>
        <time>2023-08-07T20:03:46.000+02:00</time>
      </trkpt>
      <trkpt lat="42.63465" lon="-1.94719">
        <ele>497.7</ele>
        <time>2023-08-07T20:04:00.000+02:00</time>
      </trkpt>
      <trkpt lat="42.63691" lon="-1.94907">
        <ele>517.8</ele>
        <time>2023-08-07T20:04:41.000+02:00</time>
      </trkpt>
      <trkpt lat="42.63898" lon="-1.95231">
        <ele>537.9</ele>
        <time>2023-08-07T20:05:29.000+02:00</time>
      </trkpt>
      <trkpt lat="42.64009" lon="-1.95505">
        <ele>554.1</ele>
        <time>2023-08-07T20:06:04.000+02:00</time>
      </trkpt>
      <trkpt lat="42.64109" lon="-1.95609">
        <ele>563.5</ele>
        <time>2023-08-07T20:06:23.000+02:00</time>
      </trkpt>
      <trkpt lat="42.64159" lon="-1.95711">
        <ele>557.7</ele>
        <time>2023-08-07T20:06:37.000+02:00</time>
      </trkpt>
      <trkpt lat="42.64365" lon="-1.95866">
        <ele>536.8</ele>
        <time>2023-08-07T20:07:13.000+02:00</time>
      </trkpt>
      <trkpt lat="42.64474" lon="-1.96011">
        <ele>527.2</ele>
        <time>2023-08-07T20:07:36.000+02:00</time>
      </trkpt>
      <trkpt lat="42.64565" lon="-1.96222">
        <ele>514.1</ele>
        <time>2023-08-07T20:08:04.000+02:00</time>
      </trkpt>
      <trkpt lat="42.64633" lon="-1.96538">
        <ele>499</ele>
        <time>2023-08-07T20:08:41.000+02:00</time>
      </trkpt>
      <trkpt lat="42.64915" lon="-1.96875">
        <ele>477.9</ele>
        <time>2023-08-07T20:09:38.000+02:00</time>
      </trkpt>
      <trkpt lat="42.65183" lon="-1.97318">
        <ele>459.4</ele>
        <time>2023-08-07T20:10:43.000+02:00</time>
      </trkpt>
      <trkpt lat="42.6573" lon="-1.96888">
        <ele>471.8</ele>
        <time>2023-08-07T20:12:19.000+02:00</time>
      </trkpt>
      <trkpt lat="42.65848" lon="-1.96683">
        <ele>481.8</ele>
        <time>2023-08-07T20:12:48.000+02:00</time>
      </trkpt>
      <trkpt lat="42.66089" lon="-1.96555">
        <ele>478.6</ele>
        <time>2023-08-07T20:13:28.000+02:00</time>
      </trkpt>
      <trkpt lat="42.66347" lon="-1.96225">
        <ele>488.5</ele>
        <time>2023-08-07T20:14:22.000+02:00</time>
      </trkpt>
      <trkpt lat="42.66432" lon="-1.96181">
        <ele>486.4</ele>
        <time>2023-08-07T20:14:36.000+02:00</time>
      </trkpt>
      <trkpt lat="42.66514" lon="-1.9621">
        <ele>486.5</ele>
        <time>2023-08-07T20:14:49.000+02:00</time>
      </trkpt>
      <trkpt lat="42.66597" lon="-1.96078">
        <ele>491.5</ele>
        <time>2023-08-07T20:15:08.000+02:00</time>
      </trkpt>
      <trkpt lat="42.66697" lon="-1.96131">
        <ele>492.3</ele>
        <time>2023-08-07T20:15:25.000+02:00</time>
      </trkpt>
      <trkpt lat="42.66749" lon="-1.95936">
        <ele>483.7</ele>
        <time>2023-08-07T20:15:48.000+02:00</time>
      </trkpt>
      <trkpt lat="42.66819" lon="-1.95978">
        <ele>483.7</ele>
        <time>2023-08-07T20:16:00.000+02:00</time>
      </trkpt>
      <trkpt lat="42.66744" lon="-1.96181">
        <ele>492.6</ele>
        <time>2023-08-07T20:16:25.000+02:00</time>
      </trkpt>
      <trkpt lat="42.66808" lon="-1.96249">
        <ele>498</ele>
        <time>2023-08-07T20:16:38.000+02:00</time>
      </trkpt>
      <trkpt lat="42.66806" lon="-1.96357">
        <ele>504</ele>
        <time>2023-08-07T20:16:50.000+02:00</time>
      </trkpt>
      <trkpt lat="42.66853" lon="-1.96432">
        <ele>512.2</ele>
        <time>2023-08-07T20:17:01.000+02:00</time>
      </trkpt>
      <trkpt lat="42.66919" lon="-1.96391">
        <ele>519</ele>
        <time>2023-08-07T20:17:12.000+02:00</time>
      </trkpt>
      <trkpt lat="42.67137" lon="-1.9642">
        <ele>526</ele>
        <time>2023-08-07T20:17:45.000+02:00</time>
      </trkpt>
      <trkpt lat="42.67259" lon="-1.96315">
        <ele>517.2</ele>
        <time>2023-08-07T20:18:08.000+02:00</time>
      </trkpt>
      <trkpt lat="42.67344" lon="-1.96423">
        <ele>508.7</ele>
        <time>2023-08-07T20:18:25.000+02:00</time>
      </trkpt>
      <trkpt lat="42.67377" lon="-1.96512">
        <ele>505.1</ele>
        <time>2023-08-07T20:18:37.000+02:00</time>
      </trkpt>
      <trkpt lat="42.67558" lon="-1.96698">
        <ele>513.4</ele>
        <time>2023-08-07T20:19:11.000+02:00</time>
      </trkpt>
      <trkpt lat="42.67747" lon="-1.96741">
        <ele>516.3</ele>
        <time>2023-08-07T20:19:40.000+02:00</time>
      </trkpt>
      <trkpt lat="42.67961" lon="-1.96876">
        <ele>521.2</ele>
        <time>2023-08-07T20:20:17.000+02:00</time>
      </trkpt>
      <trkpt lat="42.68062" lon="-1.9688">
        <ele>522</ele>
        <time>2023-08-07T20:20:32.000+02:00</time>
      </trkpt>
      <trkpt lat="42.68181" lon="-1.97024">
        <ele>518.2</ele>
        <time>2023-08-07T20:20:56.000+02:00</time>
      </trkpt>
      <trkpt lat="42.68373" lon="-1.97092">
        <ele>518.6</ele>
        <time>2023-08-07T20:21:27.000+02:00</time>
      </trkpt>
      <trkpt lat="42.68331" lon="-1.97416">
        <ele>520.8</ele>
        <time>2023-08-07T20:22:04.000+02:00</time>
      </trkpt>
      <trkpt lat="42.68257" lon="-1.9759">
        <ele>514.1</ele>
        <time>2023-08-07T20:22:26.000+02:00</time>
      </trkpt>
      <trkpt lat="42.68507" lon="-1.98042">
        <ele>491.3</ele>
        <time>2023-08-07T20:23:30.000+02:00</time>
      </trkpt>
      <trkpt lat="42.68817" lon="-1.98353">
        <ele>499.1</ele>
        <time>2023-08-07T20:24:29.000+02:00</time>
      </trkpt>
      <trkpt lat="42.68863" lon="-1.98463">
        <ele>487.9</ele>
        <time>2023-08-07T20:24:43.000+02:00</time>
      </trkpt>
      <trkpt lat="42.68863" lon="-1.98743">
        <ele>465.7</ele>
        <time>2023-08-07T20:25:14.000+02:00</time>
      </trkpt>
      <trkpt lat="42.68886" lon="-1.98819">
        <ele>463</ele>
        <time>2023-08-07T20:25:24.000+02:00</time>
      </trkpt>
      <trkpt lat="42.68961" lon="-1.98885">
        <ele>457.9</ele>
        <time>2023-08-07T20:25:37.000+02:00</time>
      </trkpt>
      <trkpt lat="42.69091" lon="-1.98807">
        <ele>466.6</ele>
        <time>2023-08-07T20:25:59.000+02:00</time>
      </trkpt>
      <trkpt lat="42.69171" lon="-1.99321">
        <ele>464.6</ele>
        <time>2023-08-07T20:26:58.000+02:00</time>
      </trkpt>
      <trkpt lat="42.69051" lon="-1.99516">
        <ele>478.4</ele>
        <time>2023-08-07T20:27:27.000+02:00</time>
      </trkpt>
      <trkpt lat="42.68985" lon="-1.99467">
        <ele>482.1</ele>
        <time>2023-08-07T20:27:38.000+02:00</time>
      </trkpt>
      <trkpt lat="42.68905" lon="-1.99487">
        <ele>482.8</ele>
        <time>2023-08-07T20:27:50.000+02:00</time>
      </trkpt>
      <trkpt lat="42.68918" lon="-1.99747">
        <ele>500.9</ele>
        <time>2023-08-07T20:28:20.000+02:00</time>
      </trkpt>
      <trkpt lat="42.68822" lon="-1.99965">
        <ele>518.5</ele>
        <time>2023-08-07T20:28:48.000+02:00</time>
      </trkpt>
      <trkpt lat="42.68904" lon="-2.00004">
        <ele>517.4</ele>
        <time>2023-08-07T20:29:01.000+02:00</time>
      </trkpt>
      <trkpt lat="42.68882" lon="-2.00101">
        <ele>528.3</ele>
        <time>2023-08-07T20:29:13.000+02:00</time>
      </trkpt>
      <trkpt lat="42.68653" lon="-2.00431">
        <ele>556.5</ele>
        <time>2023-08-07T20:30:04.000+02:00</time>
      </trkpt>
      <trkpt lat="42.68636" lon="-2.00695">
        <ele>563</ele>
        <time>2023-08-07T20:30:34.000+02:00</time>
      </trkpt>
      <trkpt lat="42.6861" lon="-2.00742">
        <ele>563.7</ele>
        <time>2023-08-07T20:30:40.000+02:00</time>
      </trkpt>
      <trkpt lat="42.68502" lon="-2.0086">
        <ele>573.9</ele>
        <time>2023-08-07T20:31:01.000+02:00</time>
      </trkpt>
      <trkpt lat="42.68386" lon="-2.00892">
        <ele>583.3</ele>
        <time>2023-08-07T20:31:19.000+02:00</time>
      </trkpt>
      <trkpt lat="42.68202" lon="-2.01061">
        <ele>600.8</ele>
        <time>2023-08-07T20:31:53.000+02:00</time>
      </trkpt>
      <trkpt lat="42.6814" lon="-2.01385">
        <ele>573.4</ele>
        <time>2023-08-07T20:32:31.000+02:00</time>
      </trkpt>
      <trkpt lat="42.68089" lon="-2.01452">
        <ele>566.7</ele>
        <time>2023-08-07T20:32:42.000+02:00</time>
      </trkpt>
      <trkpt lat="42.67995" lon="-2.01508">
        <ele>549.9</ele>
        <time>2023-08-07T20:32:57.000+02:00</time>
      </trkpt>
      <trkpt lat="42.67971" lon="-2.01615">
        <ele>546.2</ele>
        <time>2023-08-07T20:33:10.000+02:00</time>
      </trkpt>
      <trkpt lat="42.67892" lon="-2.01725">
        <ele>533.2</ele>
        <time>2023-08-07T20:33:27.000+02:00</time>
      </trkpt>
      <trkpt lat="42.67717" lon="-2.01814">
        <ele>514.6</ele>
        <time>2023-08-07T20:33:56.000+02:00</time>
      </trkpt>
      <trkpt lat="42.67645" lon="-2.01967">
        <ele>501.5</ele>
        <time>2023-08-07T20:34:16.000+02:00</time>
      </trkpt>
      <trkpt lat="42.67664" lon="-2.02113">
        <ele>487.8</ele>
        <time>2023-08-07T20:34:33.000+02:00</time>
      </trkpt>
      <trkpt lat="42.67624" lon="-2.02214">
        <ele>483.7</ele>
        <time>2023-08-07T20:34:46.000+02:00</time>
      </trkpt>
      <trkpt lat="42.67564" lon="-2.02254">
        <ele>482.1</ele>
        <time>2023-08-07T20:34:56.000+02:00</time>
      </trkpt>
      <trkpt lat="42.67512" lon="-2.02334">
        <ele>469.4</ele>
        <time>2023-08-07T20:35:08.000+02:00</time>
      </trkpt>
      <trkpt lat="42.67393" lon="-2.02267">
        <ele>453.6</ele>
        <time>2023-08-07T20:35:28.000+02:00</time>
      </trkpt>
      <trkpt lat="42.67191" lon="-2.02336">
        <ele>441</ele>
        <time>2023-08-07T20:36:00.000+02:00</time>
      </trkpt>
      <trkpt lat="42.67182" lon="-2.02602">
        <ele>429.1</ele>
        <time>2023-08-07T20:36:29.000+02:00</time>
      </trkpt>
      <trkpt lat="42.67075" lon="-2.02583">
        <ele>419</ele>
        <time>2023-08-07T20:36:46.000+02:00</time>
      </trkpt>
      <trkpt lat="42.67058" lon="-2.02526">
        <ele>419</ele>
        <time>2023-08-07T20:36:53.000+02:00</time>
      </trkpt>
      <trkpt lat="42.66717" lon="-2.03112">
        <ele>432.3</ele>
        <time>2023-08-07T20:38:17.000+02:00</time>
      </trkpt>
      <trkpt lat="42.66654" lon="-2.03184">
        <ele>428.3</ele>
        <time>2023-08-07T20:38:29.000+02:00</time>
      </trkpt>
      <trkpt lat="42.66675" lon="-2.03203">
        <ele>426.3</ele>
        <time>2023-08-07T20:38:33.000+02:00</time>
      </trkpt>
      <trkpt lat="42.66905" lon="-2.0305">
        <ele>420</ele>
        <time>2023-08-07T20:39:13.000+02:00</time>
      </trkpt>
      <trkpt lat="42.6694" lon="-2.03129">
        <ele>419.4</ele>
        <time>2023-08-07T20:39:23.000+02:00</time>
      </trkpt>
      <trkpt lat="42.67059" lon="-2.03032">
        <ele>420</ele>
        <time>2023-08-07T20:39:44.000+02:00</time>
      </trkpt>
      <trkpt lat="42.67229" lon="-2.03523">
        <ele>424</ele>
        <time>2023-08-07T20:40:45.000+02:00</time>
      </trkpt>
      <trkpt lat="42.67376" lon="-2.0353">
        <ele>424.4</ele>
        <time>2023-08-07T20:41:08.000+02:00</time>
      </trkpt>
      <trkpt lat="42.67343" lon="-2.03704">
        <ele>426.4</ele>
        <time>2023-08-07T20:41:28.000+02:00</time>
      </trkpt>
      <trkpt lat="42.6739" lon="-2.03855">
        <ele>438.7</ele>
        <time>2023-08-07T20:41:46.000+02:00</time>
      </trkpt>
      <trkpt lat="42.67324" lon="-2.03905">
        <ele>434.7</ele>
        <time>2023-08-07T20:41:58.000+02:00</time>
      </trkpt>
      <trkpt lat="42.67267" lon="-2.03907">
        <ele>432.6</ele>
        <time>2023-08-07T20:42:06.000+02:00</time>
      </trkpt>
      <trkpt lat="42.67268" lon="-2.03956">
        <ele>437.4</ele>
        <time>2023-08-07T20:42:12.000+02:00</time>
      </trkpt>
      <trkpt lat="42.67243" lon="-2.03993">
        <ele>444.9</ele>
        <time>2023-08-07T20:42:18.000+02:00</time>
      </trkpt>
      <trkpt lat="42.67202" lon="-2.03984">
        <ele>450.8</ele>
        <time>2023-08-07T20:42:24.000+02:00</time>
      </trkpt>
      <trkpt lat="42.67268" lon="-2.04048">
        <ele>456.4</ele>
        <time>2023-08-07T20:42:36.000+02:00</time>
      </trkpt>
      <trkpt lat="42.67322" lon="-2.04024">
        <ele>457.8</ele>
        <time>2023-08-07T20:42:45.000+02:00</time>
      </trkpt>
      <trkpt lat="42.67361" lon="-2.0404">
        <ele>461.6</ele>
        <time>2023-08-07T20:42:51.000+02:00</time>
      </trkpt>
      <trkpt lat="42.67461" lon="-2.04139">
        <ele>474.8</ele>
        <time>2023-08-07T20:43:10.000+02:00</time>
      </trkpt>
      <trkpt lat="42.67497" lon="-2.0451">
        <ele>520.5</ele>
        <time>2023-08-07T20:43:52.000+02:00</time>
      </trkpt>
      <trkpt lat="42.67474" lon="-2.04574">
        <ele>531.4</ele>
        <time>2023-08-07T20:44:00.000+02:00</time>
      </trkpt>
      <trkpt lat="42.67428" lon="-2.04576">
        <ele>539.3</ele>
        <time>2023-08-07T20:44:07.000+02:00</time>
      </trkpt>
      <trkpt lat="42.67313" lon="-2.04405">
        <ele>561.3</ele>
        <time>2023-08-07T20:44:33.000+02:00</time>
      </trkpt>
      <trkpt lat="42.67264" lon="-2.04387">
        <ele>567.6</ele>
        <time>2023-08-07T20:44:41.000+02:00</time>
      </trkpt>
      <trkpt lat="42.67048" lon="-2.04434">
        <ele>571.8</ele>
        <time>2023-08-07T20:45:14.000+02:00</time>
      </trkpt>
      <trkpt lat="42.66942" lon="-2.04383">
        <ele>568.4</ele>
        <time>2023-08-07T20:45:32.000+02:00</time>
      </trkpt>
      <trkpt lat="42.66817" lon="-2.04387">
        <ele>564.5</ele>
        <time>2023-08-07T20:45:51.000+02:00</time>
      </trkpt>
      <trkpt lat="42.66739" lon="-2.04438">
        <ele>565.7</ele>
        <time>2023-08-07T20:46:04.000+02:00</time>
      </trkpt>
      <trkpt lat="42.66687" lon="-2.04536">
        <ele>568</ele>
        <time>2023-08-07T20:46:17.000+02:00</time>
      </trkpt>
      <trkpt lat="42.66656" lon="-2.04509">
        <ele>569.9</ele>
        <time>2023-08-07T20:46:23.000+02:00</time>
      </trkpt>
      <trkpt lat="42.66628" lon="-2.04528">
        <ele>565.5</ele>
        <time>2023-08-07T20:46:28.000+02:00</time>
      </trkpt>
      <trkpt lat="42.66544" lon="-2.04637">
        <ele>561.9</ele>
        <time>2023-08-07T20:46:46.000+02:00</time>
      </trkpt>
      <trkpt lat="42.66507" lon="-2.0481">
        <ele>578.8</ele>
        <time>2023-08-07T20:47:06.000+02:00</time>
      </trkpt>
      <trkpt lat="42.66334" lon="-2.04871">
        <ele>582.1</ele>
        <time>2023-08-07T20:47:33.000+02:00</time>
      </trkpt>
      <trkpt lat="42.66134" lon="-2.05072">
        <ele>568.8</ele>
        <time>2023-08-07T20:48:11.000+02:00</time>
      </trkpt>
      <trkpt lat="42.66163" lon="-2.05263">
        <ele>559.4</ele>
        <time>2023-08-07T20:48:33.000+02:00</time>
      </trkpt>
      <trkpt lat="42.66156" lon="-2.0539">
        <ele>571.6</ele>
        <time>2023-08-07T20:48:47.000+02:00</time>
      </trkpt>
      <trkpt lat="42.66078" lon="-2.05619">
        <ele>579.2</ele>
        <time>2023-08-07T20:49:16.000+02:00</time>
      </trkpt>
      <trkpt lat="42.65967" lon="-2.0558">
        <ele>559.1</ele>
        <time>2023-08-07T20:49:33.000+02:00</time>
      </trkpt>
      <trkpt lat="42.65901" lon="-2.05707">
        <ele>539.8</ele>
        <time>2023-08-07T20:49:51.000+02:00</time>
      </trkpt>
      <trkpt lat="42.65768" lon="-2.05643">
        <ele>512.7</ele>
        <time>2023-08-07T20:50:13.000+02:00</time>
      </trkpt>
      <trkpt lat="42.65713" lon="-2.05569">
        <ele>510.8</ele>
        <time>2023-08-07T20:50:24.000+02:00</time>
      </trkpt>
      <trkpt lat="42.65587" lon="-2.05473">
        <ele>513.9</ele>
        <time>2023-08-07T20:50:46.000+02:00</time>
      </trkpt>
      <trkpt lat="42.65546" lon="-2.05484">
        <ele>515.4</ele>
        <time>2023-08-07T20:50:53.000+02:00</time>
      </trkpt>
      <trkpt lat="42.65569" lon="-2.06031">
        <ele>516.1</ele>
        <time>2023-08-07T20:51:54.000+02:00</time>
      </trkpt>
      <trkpt lat="42.65614" lon="-2.06412">
        <ele>513.4</ele>
        <time>2023-08-07T20:52:38.000+02:00</time>
      </trkpt>
      <trkpt lat="42.655" lon="-2.06877">
        <ele>500</ele>
        <time>2023-08-07T20:53:33.000+02:00</time>
      </trkpt>
      <trkpt lat="42.65512" lon="-2.07007">
        <ele>514.3</ele>
        <time>2023-08-07T20:53:47.000+02:00</time>
      </trkpt>
      <trkpt lat="42.65331" lon="-2.07283">
        <ele>518.8</ele>
        <time>2023-08-07T20:54:29.000+02:00</time>
      </trkpt>
      <trkpt lat="42.65475" lon="-2.07336">
        <ele>510.9</ele>
        <time>2023-08-07T20:54:52.000+02:00</time>
      </trkpt>
      <trkpt lat="42.65523" lon="-2.07531">
        <ele>532.4</ele>
        <time>2023-08-07T20:55:15.000+02:00</time>
      </trkpt>
      <trkpt lat="42.6555" lon="-2.07834">
        <ele>537</ele>
        <time>2023-08-07T20:55:49.000+02:00</time>
      </trkpt>
      <trkpt lat="42.65534" lon="-2.08124">
        <ele>519.9</ele>
        <time>2023-08-07T20:56:22.000+02:00</time>
      </trkpt>
      <trkpt lat="42.65585" lon="-2.08447">
        <ele>512.1</ele>
        <time>2023-08-07T20:56:59.000+02:00</time>
      </trkpt>
      <trkpt lat="42.65672" lon="-2.08452">
        <ele>496.3</ele>
        <time>2023-08-07T20:57:12.000+02:00</time>
      </trkpt>
      <trkpt lat="42.65766" lon="-2.08577">
        <ele>486.1</ele>
        <time>2023-08-07T20:57:32.000+02:00</time>
      </trkpt>
      <trkpt lat="42.65729" lon="-2.0885">
        <ele>457.2</ele>
        <time>2023-08-07T20:58:04.000+02:00</time>
      </trkpt>
      <trkpt lat="42.65655" lon="-2.09163">
        <ele>450.1</ele>
        <time>2023-08-07T20:58:40.000+02:00</time>
      </trkpt>
      <trkpt lat="42.65407" lon="-2.08991">
        <ele>457.4</ele>
        <time>2023-08-07T20:59:23.000+02:00</time>
      </trkpt>
      <trkpt lat="42.65355" lon="-2.09118">
        <ele>457.1</ele>
        <time>2023-08-07T20:59:39.000+02:00</time>
      </trkpt>
      <trkpt lat="42.65231" lon="-2.09143">
        <ele>462.8</ele>
        <time>2023-08-07T20:59:58.000+02:00</time>
      </trkpt>
      <trkpt lat="42.65008" lon="-2.09359">
        <ele>478.5</ele>
        <time>2023-08-07T21:00:40.000+02:00</time>
      </trkpt>
      <trkpt lat="42.64984" lon="-2.0935">
        <ele>481.5</ele>
        <time>2023-08-07T21:00:44.000+02:00</time>
      </trkpt>
      <trkpt lat="42.6493" lon="-2.09218">
        <ele>477.6</ele>
        <time>2023-08-07T21:01:01.000+02:00</time>
      </trkpt>
      <trkpt lat="42.64833" lon="-2.09183">
        <ele>481.4</ele>
        <time>2023-08-07T21:01:16.000+02:00</time>
      </trkpt>
      <trkpt lat="42.64733" lon="-2.09068">
        <ele>483.2</ele>
        <time>2023-08-07T21:01:36.000+02:00</time>
      </trkpt>
      <trkpt lat="42.64669" lon="-2.09086">
        <ele>484.6</ele>
        <time>2023-08-07T21:01:46.000+02:00</time>
      </trkpt>
      <trkpt lat="42.64613" lon="-2.08945">
        <ele>496</ele>
        <time>2023-08-07T21:02:04.000+02:00</time>
      </trkpt>
      <trkpt lat="42.64539" lon="-2.08975">
        <ele>490.5</ele>
        <time>2023-08-07T21:02:16.000+02:00</time>
      </trkpt>
      <trkpt lat="42.64537" lon="-2.09055">
        <ele>493</ele>
        <time>2023-08-07T21:02:25.000+02:00</time>
      </trkpt>
      <trkpt lat="42.64408" lon="-2.09153">
        <ele>500.7</ele>
        <time>2023-08-07T21:02:48.000+02:00</time>
      </trkpt>
      <trkpt lat="42.64404" lon="-2.09189">
        <ele>504.1</ele>
        <time>2023-08-07T21:02:52.000+02:00</time>
      </trkpt>
      <trkpt lat="42.64487" lon="-2.09444">
        <ele>509.4</ele>
        <time>2023-08-07T21:03:23.000+02:00</time>
      </trkpt>
      <trkpt lat="42.64544" lon="-2.09738">
        <ele>515.2</ele>
        <time>2023-08-07T21:03:57.000+02:00</time>
      </trkpt>
      <trkpt lat="42.64631" lon="-2.09895">
        <ele>516.2</ele>
        <time>2023-08-07T21:04:20.000+02:00</time>
      </trkpt>
      <trkpt lat="42.64639" lon="-2.10007">
        <ele>516.2</ele>
        <time>2023-08-07T21:04:32.000+02:00</time>
      </trkpt>
      <trkpt lat="42.64714" lon="-2.10306">
        <ele>525.9</ele>
        <time>2023-08-07T21:05:08.000+02:00</time>
      </trkpt>
      <trkpt lat="42.64725" lon="-2.10501">
        <ele>534.8</ele>
        <time>2023-08-07T21:05:30.000+02:00</time>
      </trkpt>
      <trkpt lat="42.64765" lon="-2.10619">
        <ele>536</ele>
        <time>2023-08-07T21:05:44.000+02:00</time>
      </trkpt>
      <trkpt lat="42.64602" lon="-2.10575">
        <ele>548.9</ele>
        <time>2023-08-07T21:06:10.000+02:00</time>
      </trkpt>
      <trkpt lat="42.64467" lon="-2.10587">
        <ele>561.7</ele>
        <time>2023-08-07T21:06:30.000+02:00</time>
      </trkpt>
      <trkpt lat="42.64449" lon="-2.10663">
        <ele>563.2</ele>
        <time>2023-08-07T21:06:39.000+02:00</time>
      </trkpt>
      <trkpt lat="42.64472" lon="-2.10825">
        <ele>564.8</ele>
        <time>2023-08-07T21:06:58.000+02:00</time>
      </trkpt>
      <trkpt lat="42.64459" lon="-2.10893">
        <ele>564.6</ele>
        <time>2023-08-07T21:07:06.000+02:00</time>
      </trkpt>
      <trkpt lat="42.64302" lon="-2.10915">
        <ele>575.9</ele>
        <time>2023-08-07T21:07:30.000+02:00</time>
      </trkpt>
      <trkpt lat="42.64269" lon="-2.10986">
        <ele>580.5</ele>
        <time>2023-08-07T21:07:39.000+02:00</time>
      </trkpt>
      <trkpt lat="42.64156" lon="-2.10972">
        <ele>593</ele>
        <time>2023-08-07T21:07:57.000+02:00</time>
      </trkpt>
      <trkpt lat="42.64095" lon="-2.11022">
        <ele>603.3</ele>
        <time>2023-08-07T21:08:08.000+02:00</time>
      </trkpt>
      <trkpt lat="42.64049" lon="-2.11119">
        <ele>605.9</ele>
        <time>2023-08-07T21:08:21.000+02:00</time>
      </trkpt>
      <trkpt lat="42.63892" lon="-2.11148">
        <ele>626.6</ele>
        <time>2023-08-07T21:08:45.000+02:00</time>
      </trkpt>
      <trkpt lat="42.63893" lon="-2.11061">
        <ele>631.3</ele>
        <time>2023-08-07T21:08:55.000+02:00</time>
      </trkpt>
      <trkpt lat="42.63952" lon="-2.11058">
        <ele>635.7</ele>
        <time>2023-08-07T21:09:04.000+02:00</time>
      </trkpt>
      <trkpt lat="42.63994" lon="-2.11">
        <ele>643</ele>
        <time>2023-08-07T21:09:13.000+02:00</time>
      </trkpt>
      <trkpt lat="42.63926" lon="-2.10688">
        <ele>655.2</ele>
        <time>2023-08-07T21:09:50.000+02:00</time>
      </trkpt>
      <trkpt lat="42.63992" lon="-2.10637">
        <ele>663.6</ele>
        <time>2023-08-07T21:10:01.000+02:00</time>
      </trkpt>
      <trkpt lat="42.63897" lon="-2.10502">
        <ele>675.2</ele>
        <time>2023-08-07T21:10:22.000+02:00</time>
      </trkpt>
      <trkpt lat="42.63862" lon="-2.10345">
        <ele>686.1</ele>
        <time>2023-08-07T21:10:40.000+02:00</time>
      </trkpt>
      <trkpt lat="42.6381" lon="-2.1028">
        <ele>696.2</ele>
        <time>2023-08-07T21:10:51.000+02:00</time>
      </trkpt>
      <trkpt lat="42.6371" lon="-2.10294">
        <ele>699.4</ele>
        <time>2023-08-07T21:11:07.000+02:00</time>
      </trkpt>
      <trkpt lat="42.63678" lon="-2.10232">
        <ele>702.1</ele>
        <time>2023-08-07T21:11:15.000+02:00</time>
      </trkpt>
      <trkpt lat="42.6359" lon="-2.10179">
        <ele>710.6</ele>
        <time>2023-08-07T21:11:30.000+02:00</time>
      </trkpt>
      <trkpt lat="42.63374" lon="-2.1017">
        <ele>731</ele>
        <time>2023-08-07T21:12:03.000+02:00</time>
      </trkpt>
      <trkpt lat="42.63203" lon="-2.10243">
        <ele>726.1</ele>
        <time>2023-08-07T21:12:30.000+02:00</time>
      </trkpt>
      <trkpt lat="42.6314" lon="-2.1034">
        <ele>717.8</ele>
        <time>2023-08-07T21:12:45.000+02:00</time>
      </trkpt>
      <trkpt lat="42.63026" lon="-2.10427">
        <ele>702.6</ele>
        <time>2023-08-07T21:13:05.000+02:00</time>
      </trkpt>
      <trkpt lat="42.62988" lon="-2.10562">
        <ele>694.1</ele>
        <time>2023-08-07T21:13:21.000+02:00</time>
      </trkpt>
      <trkpt lat="42.62932" lon="-2.1064">
        <ele>685.3</ele>
        <time>2023-08-07T21:13:33.000+02:00</time>
      </trkpt>
      <trkpt lat="42.62917" lon="-2.10826">
        <ele>685.8</ele>
        <time>2023-08-07T21:13:54.000+02:00</time>
      </trkpt>
      <trkpt lat="42.62868" lon="-2.10908">
        <ele>685.6</ele>
        <time>2023-08-07T21:14:06.000+02:00</time>
      </trkpt>
      <trkpt lat="42.62886" lon="-2.11137">
        <ele>692.8</ele>
        <time>2023-08-07T21:14:32.000+02:00</time>
      </trkpt>
      <trkpt lat="42.62857" lon="-2.11231">
        <ele>696.5</ele>
        <time>2023-08-07T21:14:44.000+02:00</time>
      </trkpt>
      <trkpt lat="42.62871" lon="-2.11415">
        <ele>701.3</ele>
        <time>2023-08-07T21:15:04.000+02:00</time>
      </trkpt>
      <trkpt lat="42.62809" lon="-2.11594">
        <ele>696.4</ele>
        <time>2023-08-07T21:15:27.000+02:00</time>
      </trkpt>
      <trkpt lat="42.62594" lon="-2.1194">
        <ele>688.3</ele>
        <time>2023-08-07T21:16:18.000+02:00</time>
      </trkpt>
      <trkpt lat="42.62586" lon="-2.12243">
        <ele>672.9</ele>
        <time>2023-08-07T21:16:52.000+02:00</time>
      </trkpt>
      <trkpt lat="42.62388" lon="-2.124">
        <ele>659</ele>
        <time>2023-08-07T21:17:27.000+02:00</time>
      </trkpt>
      <trkpt lat="42.62306" lon="-2.12488">
        <ele>648.7</ele>
        <time>2023-08-07T21:17:43.000+02:00</time>
      </trkpt>
      <trkpt lat="42.6226" lon="-2.1259">
        <ele>641.7</ele>
        <time>2023-08-07T21:17:56.000+02:00</time>
      </trkpt>
      <trkpt lat="42.62157" lon="-2.12693">
        <ele>636.1</ele>
        <time>2023-08-07T21:18:16.000+02:00</time>
      </trkpt>
      <trkpt lat="42.61989" lon="-2.12773">
        <ele>640.9</ele>
        <time>2023-08-07T21:18:43.000+02:00</time>
      </trkpt>
      <trkpt lat="42.61743" lon="-2.13145">
        <ele>645.5</ele>
        <time>2023-08-07T21:19:39.000+02:00</time>
      </trkpt>
      <trkpt lat="42.61733" lon="-2.13416">
        <ele>627.8</ele>
        <time>2023-08-07T21:20:10.000+02:00</time>
      </trkpt>
      <trkpt lat="42.6171" lon="-2.13558">
        <ele>626.6</ele>
        <time>2023-08-07T21:20:26.000+02:00</time>
      </trkpt>
      <trkpt lat="42.61667" lon="-2.13653">
        <ele>625</ele>
        <time>2023-08-07T21:20:39.000+02:00</time>
      </trkpt>
      <trkpt lat="42.61684" lon="-2.13752">
        <ele>625.8</ele>
        <time>2023-08-07T21:20:50.000+02:00</time>
      </trkpt>
      <trkpt lat="42.61791" lon="-2.13882">
        <ele>609.7</ele>
        <time>2023-08-07T21:21:12.000+02:00</time>
      </trkpt>
      <trkpt lat="42.61898" lon="-2.13962">
        <ele>608.2</ele>
        <time>2023-08-07T21:21:31.000+02:00</time>
      </trkpt>
      <trkpt lat="42.61963" lon="-2.13971">
        <ele>600.7</ele>
        <time>2023-08-07T21:21:41.000+02:00</time>
      </trkpt>
      <trkpt lat="42.62097" lon="-2.13916">
        <ele>588.1</ele>
        <time>2023-08-07T21:22:02.000+02:00</time>
      </trkpt>
      <trkpt lat="42.62191" lon="-2.13964">
        <ele>584.8</ele>
        <time>2023-08-07T21:22:17.000+02:00</time>
      </trkpt>
      <trkpt lat="42.62238" lon="-2.14062">
        <ele>578.4</ele>
        <time>2023-08-07T21:22:30.000+02:00</time>
      </trkpt>
      <trkpt lat="42.62243" lon="-2.14359">
        <ele>556.9</ele>
        <time>2023-08-07T21:23:04.000+02:00</time>
      </trkpt>
      <trkpt lat="42.62304" lon="-2.14508">
        <ele>550.6</ele>
        <time>2023-08-07T21:23:23.000+02:00</time>
      </trkpt>
      <trkpt lat="42.62135" lon="-2.14746">
        <ele>554.8</ele>
        <time>2023-08-07T21:24:00.000+02:00</time>
      </trkpt>
      <trkpt lat="42.62043" lon="-2.14785">
        <ele>560.8</ele>
        <time>2023-08-07T21:24:15.000+02:00</time>
      </trkpt>
      <trkpt lat="42.61926" lon="-2.14972">
        <ele>565.3</ele>
        <time>2023-08-07T21:24:42.000+02:00</time>
      </trkpt>
      <trkpt lat="42.61815" lon="-2.15041">
        <ele>569.7</ele>
        <time>2023-08-07T21:25:01.000+02:00</time>
      </trkpt>
      <trkpt lat="42.61736" lon="-2.15175">
        <ele>580.3</ele>
        <time>2023-08-07T21:25:20.000+02:00</time>
      </trkpt>
      <trkpt lat="42.61706" lon="-2.15298">
        <ele>595.6</ele>
        <time>2023-08-07T21:25:35.000+02:00</time>
      </trkpt>
      <trkpt lat="42.6165" lon="-2.15368">
        <ele>599</ele>
        <time>2023-08-07T21:25:47.000+02:00</time>
      </trkpt>
      <trkpt lat="42.61594" lon="-2.15537">
        <ele>600.8</ele>
        <time>2023-08-07T21:26:07.000+02:00</time>
      </trkpt>
      <trkpt lat="42.61598" lon="-2.157">
        <ele>608.6</ele>
        <time>2023-08-07T21:26:26.000+02:00</time>
      </trkpt>
      <trkpt lat="42.61468" lon="-2.1578">
        <ele>623.8</ele>
        <time>2023-08-07T21:26:48.000+02:00</time>
      </trkpt>
      <trkpt lat="42.6153" lon="-2.15888">
        <ele>632.9</ele>
        <time>2023-08-07T21:27:03.000+02:00</time>
      </trkpt>
      <trkpt lat="42.61525" lon="-2.15953">
        <ele>632.8</ele>
        <time>2023-08-07T21:27:10.000+02:00</time>
      </trkpt>
      <trkpt lat="42.61437" lon="-2.15903">
        <ele>639.8</ele>
        <time>2023-08-07T21:27:25.000+02:00</time>
      </trkpt>
      <trkpt lat="42.61357" lon="-2.15956">
        <ele>645</ele>
        <time>2023-08-07T21:27:39.000+02:00</time>
      </trkpt>
      <trkpt lat="42.61316" lon="-2.15949">
        <ele>650.5</ele>
        <time>2023-08-07T21:27:45.000+02:00</time>
      </trkpt>
      <trkpt lat="42.61294" lon="-2.16013">
        <ele>651</ele>
        <time>2023-08-07T21:27:53.000+02:00</time>
      </trkpt>
      <trkpt lat="42.61305" lon="-2.16074">
        <ele>654.7</ele>
        <time>2023-08-07T21:28:00.000+02:00</time>
      </trkpt>
      <trkpt lat="42.61229" lon="-2.16014">
        <ele>659.4</ele>
        <time>2023-08-07T21:28:13.000+02:00</time>
      </trkpt>
      <trkpt lat="42.61121" lon="-2.15697">
        <ele>647.7</ele>
        <time>2023-08-07T21:28:53.000+02:00</time>
      </trkpt>
      <trkpt lat="42.61046" lon="-2.15637">
        <ele>641.4</ele>
        <time>2023-08-07T21:29:06.000+02:00</time>
      </trkpt>
      <trkpt lat="42.61008" lon="-2.15666">
        <ele>636.6</ele>
        <time>2023-08-07T21:29:12.000+02:00</time>
      </trkpt>
      <trkpt lat="42.60982" lon="-2.15804">
        <ele>630.4</ele>
        <time>2023-08-07T21:29:28.000+02:00</time>
      </trkpt>
      <trkpt lat="42.6093" lon="-2.15849">
        <ele>628.7</ele>
        <time>2023-08-07T21:29:38.000+02:00</time>
      </trkpt>
      <trkpt lat="42.60834" lon="-2.15829">
        <ele>625.7</ele>
        <time>2023-08-07T21:29:53.000+02:00</time>
      </trkpt>
      <trkpt lat="42.60718" lon="-2.15687">
        <ele>628.2</ele>
        <time>2023-08-07T21:30:17.000+02:00</time>
      </trkpt>
      <trkpt lat="42.60649" lon="-2.15734">
        <ele>640.5</ele>
        <time>2023-08-07T21:30:28.000+02:00</time>
      </trkpt>
      <trkpt lat="42.60611" lon="-2.15659">
        <ele>634.7</ele>
        <time>2023-08-07T21:30:39.000+02:00</time>
      </trkpt>
      <trkpt lat="42.60599" lon="-2.15773">
        <ele>624.8</ele>
        <time>2023-08-07T21:30:52.000+02:00</time>
      </trkpt>
      <trkpt lat="42.60527" lon="-2.15907">
        <ele>606.8</ele>
        <time>2023-08-07T21:31:10.000+02:00</time>
      </trkpt>
      <trkpt lat="42.60496" lon="-2.15926">
        <ele>603.8</ele>
        <time>2023-08-07T21:31:15.000+02:00</time>
      </trkpt>
      <trkpt lat="42.60318" lon="-2.15904">
        <ele>581.3</ele>
        <time>2023-08-07T21:31:43.000+02:00</time>
      </trkpt>
      <trkpt lat="42.60323" lon="-2.15987">
        <ele>574</ele>
        <time>2023-08-07T21:31:52.000+02:00</time>
      </trkpt>
      <trkpt lat="42.60279" lon="-2.1604">
        <ele>568.1</ele>
        <time>2023-08-07T21:32:01.000+02:00</time>
      </trkpt>
      <trkpt lat="42.60311" lon="-2.16539">
        <ele>568.8</ele>
        <time>2023-08-07T21:32:58.000+02:00</time>
      </trkpt>
      <trkpt lat="42.60272" lon="-2.16658">
        <ele>561.5</ele>
        <time>2023-08-07T21:33:12.000+02:00</time>
      </trkpt>
      <trkpt lat="42.60283" lon="-2.16835">
        <ele>549.1</ele>
        <time>2023-08-07T21:33:32.000+02:00</time>
      </trkpt>
      <trkpt lat="42.60216" lon="-2.17008">
        <ele>537.9</ele>
        <time>2023-08-07T21:33:54.000+02:00</time>
      </trkpt>
      <trkpt lat="42.60186" lon="-2.17044">
        <ele>536</ele>
        <time>2023-08-07T21:34:00.000+02:00</time>
      </trkpt>
      <trkpt lat="42.60048" lon="-2.17059">
        <ele>532.7</ele>
        <time>2023-08-07T21:34:21.000+02:00</time>
      </trkpt>
      <trkpt lat="42.59885" lon="-2.17051">
        <ele>520.7</ele>
        <time>2023-08-07T21:34:46.000+02:00</time>
      </trkpt>
      <trkpt lat="42.59809" lon="-2.17018">
        <ele>519.6</ele>
        <time>2023-08-07T21:34:58.000+02:00</time>
      </trkpt>
      <trkpt lat="42.59606" lon="-2.17078">
        <ele>511.1</ele>
        <time>2023-08-07T21:35:30.000+02:00</time>
      </trkpt>
      <trkpt lat="42.59446" lon="-2.17371">
        <ele>510.6</ele>
        <time>2023-08-07T21:36:11.000+02:00</time>
      </trkpt>
      <trkpt lat="42.5944" lon="-2.17624">
        <ele>503.7</ele>
        <time>2023-08-07T21:36:40.000+02:00</time>
      </trkpt>
      <trkpt lat="42.59283" lon="-2.1769">
        <ele>498.2</ele>
        <time>2023-08-07T21:37:05.000+02:00</time>
      </trkpt>
      <trkpt lat="42.59218" lon="-2.17757">
        <ele>497.2</ele>
        <time>2023-08-07T21:37:17.000+02:00</time>
      </trkpt>
      <trkpt lat="42.59144" lon="-2.17918">
        <ele>495.2</ele>
        <time>2023-08-07T21:37:39.000+02:00</time>
      </trkpt>
      <trkpt lat="42.59044" lon="-2.18036">
        <ele>491.5</ele>
        <time>2023-08-07T21:37:59.000+02:00</time>
      </trkpt>
      <trkpt lat="42.59002" lon="-2.18159">
        <ele>495.4</ele>
        <time>2023-08-07T21:38:14.000+02:00</time>
      </trkpt>
      <trkpt lat="42.59215" lon="-2.18366">
        <ele>500</ele>
        <time>2023-08-07T21:38:54.000+02:00</time>
      </trkpt>
      <trkpt lat="42.5932" lon="-2.18585">
        <ele>503.5</ele>
        <time>2023-08-07T21:39:24.000+02:00</time>
      </trkpt>
      <trkpt lat="42.59434" lon="-2.1869">
        <ele>504.8</ele>
        <time>2023-08-07T21:39:45.000+02:00</time>
      </trkpt>
      <trkpt lat="42.59531" lon="-2.189">
        <ele>509.5</ele>
        <time>2023-08-07T21:40:13.000+02:00</time>
      </trkpt>
      <trkpt lat="42.59679" lon="-2.18915">
        <ele>512.3</ele>
        <time>2023-08-07T21:40:35.000+02:00</time>
      </trkpt>
      <trkpt lat="42.59929" lon="-2.18998">
        <ele>519.5</ele>
        <time>2023-08-07T21:41:15.000+02:00</time>
      </trkpt>
      <trkpt lat="42.60016" lon="-2.19095">
        <ele>529.1</ele>
        <time>2023-08-07T21:41:32.000+02:00</time>
      </trkpt>
      <trkpt lat="42.60099" lon="-2.19111">
        <ele>533.4</ele>
        <time>2023-08-07T21:41:45.000+02:00</time>
      </trkpt>
      <trkpt lat="42.60192" lon="-2.19268">
        <ele>547.3</ele>
        <time>2023-08-07T21:42:07.000+02:00</time>
      </trkpt>
      <trkpt lat="42.60345" lon="-2.19151">
        <ele>554.4</ele>
        <time>2023-08-07T21:42:34.000+02:00</time>
      </trkpt>
      <trkpt lat="42.60526" lon="-2.19153">
        <ele>547.5</ele>
        <time>2023-08-07T21:43:02.000+02:00</time>
      </trkpt>
      <trkpt lat="42.60905" lon="-2.19322">
        <ele>578.5</ele>
        <time>2023-08-07T21:44:03.000+02:00</time>
      </trkpt>
      <trkpt lat="42.61125" lon="-2.19234">
        <ele>604.9</ele>
        <time>2023-08-07T21:44:38.000+02:00</time>
      </trkpt>
      <trkpt lat="42.61168" lon="-2.19324">
        <ele>617.8</ele>
        <time>2023-08-07T21:44:50.000+02:00</time>
      </trkpt>
      <trkpt lat="42.6121" lon="-2.19145">
        <ele>633.6</ele>
        <time>2023-08-07T21:45:11.000+02:00</time>
      </trkpt>
      <trkpt lat="42.61317" lon="-2.19082">
        <ele>646.5</ele>
        <time>2023-08-07T21:45:29.000+02:00</time>
      </trkpt>
      <trkpt lat="42.61341" lon="-2.18989">
        <ele>643.6</ele>
        <time>2023-08-07T21:45:40.000+02:00</time>
      </trkpt>
      <trkpt lat="42.61417" lon="-2.18866">
        <ele>634.9</ele>
        <time>2023-08-07T21:45:58.000+02:00</time>
      </trkpt>
      <trkpt lat="42.61413" lon="-2.18696">
        <ele>620.7</ele>
        <time>2023-08-07T21:46:17.000+02:00</time>
      </trkpt>
      <trkpt lat="42.61473" lon="-2.18616">
        <ele>613.6</ele>
        <time>2023-08-07T21:46:30.000+02:00</time>
      </trkpt>
      <trkpt lat="42.61508" lon="-2.18404">
        <ele>595.5</ele>
        <time>2023-08-07T21:46:54.000+02:00</time>
      </trkpt>
      <trkpt lat="42.61501" lon="-2.18314">
        <ele>593.5</ele>
        <time>2023-08-07T21:47:05.000+02:00</time>
      </trkpt>
      <trkpt lat="42.61525" lon="-2.18157">
        <ele>593.2</ele>
        <time>2023-08-07T21:47:23.000+02:00</time>
      </trkpt>
      <trkpt lat="42.61493" lon="-2.18027">
        <ele>589.5</ele>
        <time>2023-08-07T21:47:38.000+02:00</time>
      </trkpt>
      <trkpt lat="42.61516" lon="-2.17977">
        <ele>589.9</ele>
        <time>2023-08-07T21:47:45.000+02:00</time>
      </trkpt>
      <trkpt lat="42.61584" lon="-2.17951">
        <ele>585.2</ele>
        <time>2023-08-07T21:47:56.000+02:00</time>
      </trkpt>
      <trkpt lat="42.61682" lon="-2.1802">
        <ele>571.8</ele>
        <time>2023-08-07T21:48:12.000+02:00</time>
      </trkpt>
      <trkpt lat="42.61681" lon="-2.1798">
        <ele>574.7</ele>
        <time>2023-08-07T21:48:17.000+02:00</time>
      </trkpt>
      <trkpt lat="42.61741" lon="-2.17971">
        <ele>569.7</ele>
        <time>2023-08-07T21:48:26.000+02:00</time>
      </trkpt>
      <trkpt lat="42.61773" lon="-2.17799">
        <ele>561.9</ele>
        <time>2023-08-07T21:48:46.000+02:00</time>
      </trkpt>
      <trkpt lat="42.6187" lon="-2.17757">
        <ele>553.6</ele>
        <time>2023-08-07T21:49:01.000+02:00</time>
      </trkpt>
      <trkpt lat="42.61925" lon="-2.17783">
        <ele>550</ele>
        <time>2023-08-07T21:49:10.000+02:00</time>
      </trkpt>
      <trkpt lat="42.61931" lon="-2.17906">
        <ele>543.4</ele>
        <time>2023-08-07T21:49:24.000+02:00</time>
      </trkpt>
      <trkpt lat="42.62014" lon="-2.17983">
        <ele>538.7</ele>
        <time>2023-08-07T21:49:39.000+02:00</time>
      </trkpt>
      <trkpt lat="42.62847" lon="-2.18041">
        <ele>517.5</ele>
        <time>2023-08-07T21:51:47.000+02:00</time>
      </trkpt>
      <trkpt lat="42.63108" lon="-2.17654">
        <ele>513.6</ele>
        <time>2023-08-07T21:52:46.000+02:00</time>
      </trkpt>
      <trkpt lat="42.63151" lon="-2.18013">
        <ele>518.2</ele>
        <time>2023-08-07T21:53:27.000+02:00</time>
      </trkpt>
      <trkpt lat="42.63138" lon="-2.18353">
        <ele>524.7</ele>
        <time>2023-08-07T21:54:05.000+02:00</time>
      </trkpt>
      <trkpt lat="42.63189" lon="-2.18715">
        <ele>535.3</ele>
        <time>2023-08-07T21:54:47.000+02:00</time>
      </trkpt>
      <trkpt lat="42.63258" lon="-2.18542">
        <ele>536</ele>
        <time>2023-08-07T21:55:09.000+02:00</time>
      </trkpt>
      <trkpt lat="42.63371" lon="-2.18413">
        <ele>532</ele>
        <time>2023-08-07T21:55:31.000+02:00</time>
      </trkpt>
      <trkpt lat="42.63451" lon="-2.18611">
        <ele>523.5</ele>
        <time>2023-08-07T21:55:57.000+02:00</time>
      </trkpt>
      <trkpt lat="42.63476" lon="-2.1878">
        <ele>516.1</ele>
        <time>2023-08-07T21:56:16.000+02:00</time>
      </trkpt>
      <trkpt lat="42.63465" lon="-2.18954">
        <ele>521.8</ele>
        <time>2023-08-07T21:56:36.000+02:00</time>
      </trkpt>
      <trkpt lat="42.6353" lon="-2.19289">
        <ele>524.2</ele>
        <time>2023-08-07T21:57:15.000+02:00</time>
      </trkpt>
      <trkpt lat="42.63872" lon="-2.1941">
        <ele>518.8</ele>
        <time>2023-08-07T21:58:09.000+02:00</time>
      </trkpt>
      <trkpt lat="42.63983" lon="-2.20089">
        <ele>562.6</ele>
        <time>2023-08-07T21:59:27.000+02:00</time>
      </trkpt>
      <trkpt lat="42.63942" lon="-2.20136">
        <ele>569.5</ele>
        <time>2023-08-07T21:59:35.000+02:00</time>
      </trkpt>
      <trkpt lat="42.63896" lon="-2.20364">
        <ele>587.7</ele>
        <time>2023-08-07T22:00:02.000+02:00</time>
      </trkpt>
      <trkpt lat="42.63823" lon="-2.20485">
        <ele>595.1</ele>
        <time>2023-08-07T22:00:19.000+02:00</time>
      </trkpt>
      <trkpt lat="42.63745" lon="-2.20446">
        <ele>597.1</ele>
        <time>2023-08-07T22:00:32.000+02:00</time>
      </trkpt>
      <trkpt lat="42.63692" lon="-2.20383">
        <ele>601.7</ele>
        <time>2023-08-07T22:00:43.000+02:00</time>
      </trkpt>
      <trkpt lat="42.63723" lon="-2.20543">
        <ele>613.6</ele>
        <time>2023-08-07T22:01:01.000+02:00</time>
      </trkpt>
      <trkpt lat="42.63724" lon="-2.20768">
        <ele>637.9</ele>
        <time>2023-08-07T22:01:27.000+02:00</time>
      </trkpt>
      <trkpt lat="42.63702" lon="-2.20808">
        <ele>644.3</ele>
        <time>2023-08-07T22:01:32.000+02:00</time>
      </trkpt>
      <trkpt lat="42.63797" lon="-2.20888">
        <ele>654.7</ele>
        <time>2023-08-07T22:01:49.000+02:00</time>
      </trkpt>
      <trkpt lat="42.63808" lon="-2.2092">
        <ele>657.1</ele>
        <time>2023-08-07T22:01:53.000+02:00</time>
      </trkpt>
      <trkpt lat="42.63785" lon="-2.20958">
        <ele>664.3</ele>
        <time>2023-08-07T22:01:59.000+02:00</time>
      </trkpt>
      <trkpt lat="42.63843" lon="-2.2106">
        <ele>681.8</ele>
        <time>2023-08-07T22:02:13.000+02:00</time>
      </trkpt>
      <trkpt lat="42.63936" lon="-2.21044">
        <ele>685.8</ele>
        <time>2023-08-07T22:02:28.000+02:00</time>
      </trkpt>
      <trkpt lat="42.63985" lon="-2.21166">
        <ele>685.3</ele>
        <time>2023-08-07T22:02:43.000+02:00</time>
      </trkpt>
      <trkpt lat="42.64009" lon="-2.21882">
        <ele>678.6</ele>
        <time>2023-08-07T22:04:04.000+02:00</time>
      </trkpt>
      <trkpt lat="42.64108" lon="-2.22278">
        <ele>685.4</ele>
        <time>2023-08-07T22:04:51.000+02:00</time>
      </trkpt>
      <trkpt lat="42.64149" lon="-2.22363">
        <ele>683.6</ele>
        <time>2023-08-07T22:05:02.000+02:00</time>
      </trkpt>
      <trkpt lat="42.64181" lon="-2.22698">
        <ele>689</ele>
        <time>2023-08-07T22:05:40.000+02:00</time>
      </trkpt>
      <trkpt lat="42.64272" lon="-2.23066">
        <ele>698.5</ele>
        <time>2023-08-07T22:06:24.000+02:00</time>
      </trkpt>
      <trkpt lat="42.64272" lon="-2.23177">
        <ele>708.3</ele>
        <time>2023-08-07T22:06:36.000+02:00</time>
      </trkpt>
      <trkpt lat="42.64201" lon="-2.23286">
        <ele>691.8</ele>
        <time>2023-08-07T22:06:53.000+02:00</time>
      </trkpt>
      <trkpt lat="42.64195" lon="-2.2338">
        <ele>679.6</ele>
        <time>2023-08-07T22:07:04.000+02:00</time>
      </trkpt>
      <trkpt lat="42.64129" lon="-2.23324">
        <ele>664.7</ele>
        <time>2023-08-07T22:07:15.000+02:00</time>
      </trkpt>
      <trkpt lat="42.64186" lon="-2.23525">
        <ele>640.5</ele>
        <time>2023-08-07T22:07:40.000+02:00</time>
      </trkpt>
      <trkpt lat="42.64161" lon="-2.23527">
        <ele>636.3</ele>
        <time>2023-08-07T22:07:43.000+02:00</time>
      </trkpt>
      <trkpt lat="42.64272" lon="-2.23703">
        <ele>621.6</ele>
        <time>2023-08-07T22:08:09.000+02:00</time>
      </trkpt>
      <trkpt lat="42.6439" lon="-2.23789">
        <ele>611.5</ele>
        <time>2023-08-07T22:08:30.000+02:00</time>
      </trkpt>
      <trkpt lat="42.64648" lon="-2.23898">
        <ele>592.5</ele>
        <time>2023-08-07T22:09:11.000+02:00</time>
      </trkpt>
      <trkpt lat="42.64706" lon="-2.23952">
        <ele>586.4</ele>
        <time>2023-08-07T22:09:22.000+02:00</time>
      </trkpt>
      <trkpt lat="42.64763" lon="-2.24033">
        <ele>579.3</ele>
        <time>2023-08-07T22:09:34.000+02:00</time>
      </trkpt>
      <trkpt lat="42.64811" lon="-2.24186">
        <ele>563.6</ele>
        <time>2023-08-07T22:09:53.000+02:00</time>
      </trkpt>
      <trkpt lat="42.64919" lon="-2.24329">
        <ele>577.3</ele>
        <time>2023-08-07T22:10:16.000+02:00</time>
      </trkpt>
      <trkpt lat="42.65042" lon="-2.24654">
        <ele>565.9</ele>
        <time>2023-08-07T22:10:57.000+02:00</time>
      </trkpt>
      <trkpt lat="42.65084" lon="-2.24701">
        <ele>566</ele>
        <time>2023-08-07T22:11:05.000+02:00</time>
      </trkpt>
      <trkpt lat="42.65023" lon="-2.24847">
        <ele>573.7</ele>
        <time>2023-08-07T22:11:24.000+02:00</time>
      </trkpt>
      <trkpt lat="42.64868" lon="-2.25096">
        <ele>590.3</ele>
        <time>2023-08-07T22:12:01.000+02:00</time>
      </trkpt>
      <trkpt lat="42.64854" lon="-2.25182">
        <ele>594.6</ele>
        <time>2023-08-07T22:12:11.000+02:00</time>
      </trkpt>
      <trkpt lat="42.64807" lon="-2.25259">
        <ele>603.5</ele>
        <time>2023-08-07T22:12:22.000+02:00</time>
      </trkpt>
      <trkpt lat="42.64688" lon="-2.25269">
        <ele>621</ele>
        <time>2023-08-07T22:12:40.000+02:00</time>
      </trkpt>
      <trkpt lat="42.64729" lon="-2.25492">
        <ele>640.3</ele>
        <time>2023-08-07T22:13:06.000+02:00</time>
      </trkpt>
      <trkpt lat="42.64789" lon="-2.2566">
        <ele>658</ele>
        <time>2023-08-07T22:13:27.000+02:00</time>
      </trkpt>
      <trkpt lat="42.64768" lon="-2.25718">
        <ele>662.9</ele>
        <time>2023-08-07T22:13:35.000+02:00</time>
      </trkpt>
      <trkpt lat="42.64703" lon="-2.25718">
        <ele>662.8</ele>
        <time>2023-08-07T22:13:44.000+02:00</time>
      </trkpt>
      <trkpt lat="42.6468" lon="-2.25757">
        <ele>668.5</ele>
        <time>2023-08-07T22:13:50.000+02:00</time>
      </trkpt>
      <trkpt lat="42.64634" lon="-2.25866">
        <ele>673.8</ele>
        <time>2023-08-07T22:14:04.000+02:00</time>
      </trkpt>
      <trkpt lat="42.64671" lon="-2.25875">
        <ele>680.2</ele>
        <time>2023-08-07T22:14:10.000+02:00</time>
      </trkpt>
      <trkpt lat="42.64638" lon="-2.25927">
        <ele>679.4</ele>
        <time>2023-08-07T22:14:18.000+02:00</time>
      </trkpt>
      <trkpt lat="42.64437" lon="-2.26004">
        <ele>662.7</ele>
        <time>2023-08-07T22:14:50.000+02:00</time>
      </trkpt>
      <trkpt lat="42.64089" lon="-2.2596">
        <ele>670.2</ele>
        <time>2023-08-07T22:15:43.000+02:00</time>
      </trkpt>
      <trkpt lat="42.63851" lon="-2.26014">
        <ele>684.1</ele>
        <time>2023-08-07T22:16:20.000+02:00</time>
      </trkpt>
      <trkpt lat="42.63834" lon="-2.26038">
        <ele>686.3</ele>
        <time>2023-08-07T22:16:24.000+02:00</time>
      </trkpt>
      <trkpt lat="42.63844" lon="-2.26421">
        <ele>708.6</ele>
        <time>2023-08-07T22:17:07.000+02:00</time>
      </trkpt>
      <trkpt lat="42.63888" lon="-2.26676">
        <ele>722.1</ele>
        <time>2023-08-07T22:17:36.000+02:00</time>
      </trkpt>
      <trkpt lat="42.63854" lon="-2.26918">
        <ele>722.6</ele>
        <time>2023-08-07T22:18:04.000+02:00</time>
      </trkpt>
      <trkpt lat="42.63887" lon="-2.2713">
        <ele>727.6</ele>
        <time>2023-08-07T22:18:28.000+02:00</time>
      </trkpt>
      <trkpt lat="42.63833" lon="-2.27659">
        <ele>744.3</ele>
        <time>2023-08-07T22:19:28.000+02:00</time>
      </trkpt>
      <trkpt lat="42.63792" lon="-2.27754">
        <ele>747.8</ele>
        <time>2023-08-07T22:19:41.000+02:00</time>
      </trkpt>
      <trkpt lat="42.63814" lon="-2.27841">
        <ele>755.1</ele>
        <time>2023-08-07T22:19:51.000+02:00</time>
      </trkpt>
      <trkpt lat="42.63787" lon="-2.27997">
        <ele>755.2</ele>
        <time>2023-08-07T22:20:09.000+02:00</time>
      </trkpt>
      <trkpt lat="42.63646" lon="-2.28029">
        <ele>746.3</ele>
        <time>2023-08-07T22:20:31.000+02:00</time>
      </trkpt>
      <trkpt lat="42.63636" lon="-2.28391">
        <ele>736.7</ele>
        <time>2023-08-07T22:21:12.000+02:00</time>
      </trkpt>
      <trkpt lat="42.63504" lon="-2.28462">
        <ele>722.7</ele>
        <time>2023-08-07T22:21:33.000+02:00</time>
      </trkpt>
      <trkpt lat="42.63375" lon="-2.28688">
        <ele>723.3</ele>
        <time>2023-08-07T22:22:06.000+02:00</time>
      </trkpt>
      <trkpt lat="42.63315" lon="-2.28727">
        <ele>714.9</ele>
        <time>2023-08-07T22:22:16.000+02:00</time>
      </trkpt>
      <trkpt lat="42.63303" lon="-2.28893">
        <ele>701.6</ele>
        <time>2023-08-07T22:22:35.000+02:00</time>
      </trkpt>
      <trkpt lat="42.63057" lon="-2.29118">
        <ele>674.3</ele>
        <time>2023-08-07T22:23:20.000+02:00</time>
      </trkpt>
      <trkpt lat="42.62826" lon="-2.29047">
        <ele>691.7</ele>
        <time>2023-08-07T22:23:56.000+02:00</time>
      </trkpt>
      <trkpt lat="42.62641" lon="-2.29301">
        <ele>682.1</ele>
        <time>2023-08-07T22:24:36.000+02:00</time>
      </trkpt>
      <trkpt lat="42.62664" lon="-2.29738">
        <ele>692</ele>
        <time>2023-08-07T22:25:26.000+02:00</time>
      </trkpt>
      <trkpt lat="42.627" lon="-2.29748">
        <ele>694.4</ele>
        <time>2023-08-07T22:25:31.000+02:00</time>
      </trkpt>
      <trkpt lat="42.62685" lon="-2.29865">
        <ele>695.7</ele>
        <time>2023-08-07T22:25:44.000+02:00</time>
      </trkpt>
      <trkpt lat="42.62884" lon="-2.29896">
        <ele>707.9</ele>
        <time>2023-08-07T22:26:15.000+02:00</time>
      </trkpt>
      <trkpt lat="42.63077" lon="-2.30047">
        <ele>720.4</ele>
        <time>2023-08-07T22:26:49.000+02:00</time>
      </trkpt>
      <trkpt lat="42.63325" lon="-2.30178">
        <ele>735.3</ele>
        <time>2023-08-07T22:27:30.000+02:00</time>
      </trkpt>
      <trkpt lat="42.63408" lon="-2.30297">
        <ele>742.9</ele>
        <time>2023-08-07T22:27:48.000+02:00</time>
      </trkpt>
      <trkpt lat="42.63503" lon="-2.30677">
        <ele>761.7</ele>
        <time>2023-08-07T22:28:33.000+02:00</time>
      </trkpt>
      <trkpt lat="42.63466" lon="-2.31268">
        <ele>789.1</ele>
        <time>2023-08-07T22:29:40.000+02:00</time>
      </trkpt>
      <trkpt lat="42.63496" lon="-2.31425">
        <ele>801.6</ele>
        <time>2023-08-07T22:29:58.000+02:00</time>
      </trkpt>
      <trkpt lat="42.63321" lon="-2.31331">
        <ele>819.1</ele>
        <time>2023-08-07T22:30:27.000+02:00</time>
      </trkpt>
      <trkpt lat="42.63207" lon="-2.31441">
        <ele>823.7</ele>
        <time>2023-08-07T22:30:48.000+02:00</time>
      </trkpt>
      <trkpt lat="42.63132" lon="-2.31385">
        <ele>822.7</ele>
        <time>2023-08-07T22:31:01.000+02:00</time>
      </trkpt>
      <trkpt lat="42.63016" lon="-2.31379">
        <ele>829.8</ele>
        <time>2023-08-07T22:31:19.000+02:00</time>
      </trkpt>
      <trkpt lat="42.62789" lon="-2.31462">
        <ele>850.6</ele>
        <time>2023-08-07T22:31:55.000+02:00</time>
      </trkpt>
      <trkpt lat="42.62671" lon="-2.31339">
        <ele>856.5</ele>
        <time>2023-08-07T22:32:18.000+02:00</time>
      </trkpt>
      <trkpt lat="42.62633" lon="-2.31381">
        <ele>851.3</ele>
        <time>2023-08-07T22:32:25.000+02:00</time>
      </trkpt>
      <trkpt lat="42.62562" lon="-2.31631">
        <ele>877.1</ele>
        <time>2023-08-07T22:32:55.000+02:00</time>
      </trkpt>
      <trkpt lat="42.62472" lon="-2.3184">
        <ele>889.7</ele>
        <time>2023-08-07T22:33:22.000+02:00</time>
      </trkpt>
      <trkpt lat="42.62431" lon="-2.32031">
        <ele>899</ele>
        <time>2023-08-07T22:33:45.000+02:00</time>
      </trkpt>
      <trkpt lat="42.62512" lon="-2.32319">
        <ele>902.7</ele>
        <time>2023-08-07T22:34:20.000+02:00</time>
      </trkpt>
      <trkpt lat="42.6254" lon="-2.32683">
        <ele>881.9</ele>
        <time>2023-08-07T22:35:01.000+02:00</time>
      </trkpt>
      <trkpt lat="42.62617" lon="-2.32837">
        <ele>870.4</ele>
        <time>2023-08-07T22:35:22.000+02:00</time>
      </trkpt>
      <trkpt lat="42.62587" lon="-2.33039">
        <ele>856.3</ele>
        <time>2023-08-07T22:35:45.000+02:00</time>
      </trkpt>
      <trkpt lat="42.62617" lon="-2.33153">
        <ele>847.9</ele>
        <time>2023-08-07T22:35:58.000+02:00</time>
      </trkpt>
      <trkpt lat="42.62569" lon="-2.33263">
        <ele>831.4</ele>
        <time>2023-08-07T22:36:13.000+02:00</time>
      </trkpt>
      <trkpt lat="42.62504" lon="-2.33245">
        <ele>818.5</ele>
        <time>2023-08-07T22:36:23.000+02:00</time>
      </trkpt>
      <trkpt lat="42.62485" lon="-2.33212">
        <ele>814.3</ele>
        <time>2023-08-07T22:36:28.000+02:00</time>
      </trkpt>
      <trkpt lat="42.62478" lon="-2.33314">
        <ele>807.6</ele>
        <time>2023-08-07T22:36:39.000+02:00</time>
      </trkpt>
      <trkpt lat="42.62439" lon="-2.33407">
        <ele>794.9</ele>
        <time>2023-08-07T22:36:51.000+02:00</time>
      </trkpt>
      <trkpt lat="42.62458" lon="-2.33486">
        <ele>788.8</ele>
        <time>2023-08-07T22:37:01.000+02:00</time>
      </trkpt>
      <trkpt lat="42.6242" lon="-2.3353">
        <ele>784.4</ele>
        <time>2023-08-07T22:37:08.000+02:00</time>
      </trkpt>
      <trkpt lat="42.62328" lon="-2.33564">
        <ele>780.9</ele>
        <time>2023-08-07T22:37:23.000+02:00</time>
      </trkpt>
      <trkpt lat="42.62249" lon="-2.3344">
        <ele>757.5</ele>
        <time>2023-08-07T22:37:41.000+02:00</time>
      </trkpt>
      <trkpt lat="42.62171" lon="-2.33384">
        <ele>743.2</ele>
        <time>2023-08-07T22:37:55.000+02:00</time>
      </trkpt>
      <trkpt lat="42.61816" lon="-2.33244">
        <ele>693.7</ele>
        <time>2023-08-07T22:38:51.000+02:00</time>
      </trkpt>
      <trkpt lat="42.61652" lon="-2.33279">
        <ele>676.9</ele>
        <time>2023-08-07T22:39:17.000+02:00</time>
      </trkpt>
      <trkpt lat="42.61575" lon="-2.33339">
        <ele>667.9</ele>
        <time>2023-08-07T22:39:30.000+02:00</time>
      </trkpt>
      <trkpt lat="42.61467" lon="-2.33343">
        <ele>656.2</ele>
        <time>2023-08-07T22:39:47.000+02:00</time>
      </trkpt>
      <trkpt lat="42.6128" lon="-2.33207">
        <ele>638.2</ele>
        <time>2023-08-07T22:40:19.000+02:00</time>
      </trkpt>
      <trkpt lat="42.61173" lon="-2.33191">
        <ele>632.2</ele>
        <time>2023-08-07T22:40:35.000+02:00</time>
      </trkpt>
      <trkpt lat="42.61015" lon="-2.33243">
        <ele>622.7</ele>
        <time>2023-08-07T22:41:00.000+02:00</time>
      </trkpt>
      <trkpt lat="42.60994" lon="-2.33361">
        <ele>613</ele>
        <time>2023-08-07T22:41:14.000+02:00</time>
      </trkpt>
      <trkpt lat="42.60933" lon="-2.33395">
        <ele>603.5</ele>
        <time>2023-08-07T22:41:24.000+02:00</time>
      </trkpt>
      <trkpt lat="42.60931" lon="-2.33476">
        <ele>610.3</ele>
        <time>2023-08-07T22:41:33.000+02:00</time>
      </trkpt>
      <trkpt lat="42.61069" lon="-2.33628">
        <ele>625.7</ele>
        <time>2023-08-07T22:42:00.000+02:00</time>
      </trkpt>
      <trkpt lat="42.61188" lon="-2.33669">
        <ele>637.1</ele>
        <time>2023-08-07T22:42:19.000+02:00</time>
      </trkpt>
      <trkpt lat="42.61252" lon="-2.33637">
        <ele>641.3</ele>
        <time>2023-08-07T22:42:29.000+02:00</time>
      </trkpt>
      <trkpt lat="42.61352" lon="-2.33656">
        <ele>650.7</ele>
        <time>2023-08-07T22:42:45.000+02:00</time>
      </trkpt>
      <trkpt lat="42.61425" lon="-2.33702">
        <ele>656.7</ele>
        <time>2023-08-07T22:42:57.000+02:00</time>
      </trkpt>
      <trkpt lat="42.61624" lon="-2.33919">
        <ele>680.8</ele>
        <time>2023-08-07T22:43:36.000+02:00</time>
      </trkpt>
      <trkpt lat="42.61752" lon="-2.34285">
        <ele>718.3</ele>
        <time>2023-08-07T22:44:22.000+02:00</time>
      </trkpt>
      <trkpt lat="42.61817" lon="-2.34356">
        <ele>725</ele>
        <time>2023-08-07T22:44:34.000+02:00</time>
      </trkpt>
      <trkpt lat="42.61863" lon="-2.3437">
        <ele>732.1</ele>
        <time>2023-08-07T22:44:42.000+02:00</time>
      </trkpt>
      <trkpt lat="42.61969" lon="-2.34644">
        <ele>749.6</ele>
        <time>2023-08-07T22:45:17.000+02:00</time>
      </trkpt>
      <trkpt lat="42.6199" lon="-2.34856">
        <ele>743</ele>
        <time>2023-08-07T22:45:41.000+02:00</time>
      </trkpt>
      <trkpt lat="42.61947" lon="-2.34963">
        <ele>739.5</ele>
        <time>2023-08-07T22:45:54.000+02:00</time>
      </trkpt>
      <trkpt lat="42.61885" lon="-2.35032">
        <ele>733.9</ele>
        <time>2023-08-07T22:46:06.000+02:00</time>
      </trkpt>
      <trkpt lat="42.61837" lon="-2.35194">
        <ele>717.1</ele>
        <time>2023-08-07T22:46:26.000+02:00</time>
      </trkpt>
      <trkpt lat="42.61833" lon="-2.35283">
        <ele>709.6</ele>
        <time>2023-08-07T22:46:36.000+02:00</time>
      </trkpt>
      <trkpt lat="42.61771" lon="-2.35409">
        <ele>698</ele>
        <time>2023-08-07T22:46:53.000+02:00</time>
      </trkpt>
      <trkpt lat="42.61719" lon="-2.35429">
        <ele>693.7</ele>
        <time>2023-08-07T22:47:01.000+02:00</time>
      </trkpt>
      <trkpt lat="42.616" lon="-2.3539">
        <ele>687.9</ele>
        <time>2023-08-07T22:47:20.000+02:00</time>
      </trkpt>
      <trkpt lat="42.6157" lon="-2.35444">
        <ele>679.5</ele>
        <time>2023-08-07T22:47:28.000+02:00</time>
      </trkpt>
      <trkpt lat="42.61473" lon="-2.35465">
        <ele>669</ele>
        <time>2023-08-07T22:47:43.000+02:00</time>
      </trkpt>
      <trkpt lat="42.61518" lon="-2.35488">
        <ele>667.7</ele>
        <time>2023-08-07T22:47:50.000+02:00</time>
      </trkpt>
      <trkpt lat="42.61591" lon="-2.35477">
        <ele>668.3</ele>
        <time>2023-08-07T22:48:01.000+02:00</time>
      </trkpt>
      <trkpt lat="42.61745" lon="-2.35566">
        <ele>685.2</ele>
        <time>2023-08-07T22:48:27.000+02:00</time>
      </trkpt>
      <trkpt lat="42.61737" lon="-2.35632">
        <ele>693.3</ele>
        <time>2023-08-07T22:48:34.000+02:00</time>
      </trkpt>
      <trkpt lat="42.618" lon="-2.3568">
        <ele>702.6</ele>
        <time>2023-08-07T22:48:46.000+02:00</time>
      </trkpt>
      <trkpt lat="42.61944" lon="-2.35987">
        <ele>723.4</ele>
        <time>2023-08-07T22:49:26.000+02:00</time>
      </trkpt>
      <trkpt lat="42.62155" lon="-2.36159">
        <ele>721.5</ele>
        <time>2023-08-07T22:50:04.000+02:00</time>
      </trkpt>
      <trkpt lat="42.62248" lon="-2.3632">
        <ele>740</ele>
        <time>2023-08-07T22:50:27.000+02:00</time>
      </trkpt>
      <trkpt lat="42.62242" lon="-2.36509">
        <ele>744.1</ele>
        <time>2023-08-07T22:50:48.000+02:00</time>
      </trkpt>
      <trkpt lat="42.62358" lon="-2.36599">
        <ele>759.2</ele>
        <time>2023-08-07T22:51:09.000+02:00</time>
      </trkpt>
      <trkpt lat="42.62385" lon="-2.36726">
        <ele>771.7</ele>
        <time>2023-08-07T22:51:24.000+02:00</time>
      </trkpt>
      <trkpt lat="42.62472" lon="-2.36816">
        <ele>773.5</ele>
        <time>2023-08-07T22:51:40.000+02:00</time>
      </trkpt>
      <trkpt lat="42.62486" lon="-2.36869">
        <ele>775.6</ele>
        <time>2023-08-07T22:51:47.000+02:00</time>
      </trkpt>
      <trkpt lat="42.62667" lon="-2.36984">
        <ele>786.6</ele>
        <time>2023-08-07T22:52:17.000+02:00</time>
      </trkpt>
      <trkpt lat="42.62661" lon="-2.37062">
        <ele>794.9</ele>
        <time>2023-08-07T22:52:26.000+02:00</time>
      </trkpt>
      <trkpt lat="42.62729" lon="-2.37145">
        <ele>796.9</ele>
        <time>2023-08-07T22:52:40.000+02:00</time>
      </trkpt>
      <trkpt lat="42.62873" lon="-2.37209">
        <ele>807.7</ele>
        <time>2023-08-07T22:53:03.000+02:00</time>
      </trkpt>
      <trkpt lat="42.63063" lon="-2.3741">
        <ele>843.9</ele>
        <time>2023-08-07T22:53:40.000+02:00</time>
      </trkpt>
      <trkpt lat="42.63147" lon="-2.37429">
        <ele>854.7</ele>
        <time>2023-08-07T22:53:53.000+02:00</time>
      </trkpt>
      <trkpt lat="42.63244" lon="-2.37576">
        <ele>868</ele>
        <time>2023-08-07T22:54:15.000+02:00</time>
      </trkpt>
      <trkpt lat="42.6325" lon="-2.37721">
        <ele>877.1</ele>
        <time>2023-08-07T22:54:32.000+02:00</time>
      </trkpt>
      <trkpt lat="42.63298" lon="-2.37748">
        <ele>880.9</ele>
        <time>2023-08-07T22:54:40.000+02:00</time>
      </trkpt>
      <trkpt lat="42.63383" lon="-2.37979">
        <ele>910.6</ele>
        <time>2023-08-07T22:55:09.000+02:00</time>
      </trkpt>
      <trkpt lat="42.63359" lon="-2.38155">
        <ele>932.7</ele>
        <time>2023-08-07T22:55:29.000+02:00</time>
      </trkpt>
      <trkpt lat="42.63476" lon="-2.38559">
        <ele>971.8</ele>
        <time>2023-08-07T22:56:18.000+02:00</time>
      </trkpt>
      <trkpt lat="42.63344" lon="-2.39135">
        <ele>952.9</ele>
        <time>2023-08-07T22:57:25.000+02:00</time>
      </trkpt>
      <trkpt lat="42.63321" lon="-2.39331">
        <ele>966.1</ele>
        <time>2023-08-07T22:57:48.000+02:00</time>
      </trkpt>
      <trkpt lat="42.63153" lon="-2.3963">
        <ele>938.4</ele>
        <time>2023-08-07T22:58:30.000+02:00</time>
      </trkpt>
      <trkpt lat="42.63002" lon="-2.39823">
        <ele>891.3</ele>
        <time>2023-08-07T22:59:02.000+02:00</time>
      </trkpt>
      <trkpt lat="42.62877" lon="-2.39892">
        <ele>904.3</ele>
        <time>2023-08-07T22:59:22.000+02:00</time>
      </trkpt>
      <trkpt lat="42.62781" lon="-2.40222">
        <ele>897.7</ele>
        <time>2023-08-07T23:00:02.000+02:00</time>
      </trkpt>
      <trkpt lat="42.62637" lon="-2.40538">
        <ele>895.1</ele>
        <time>2023-08-07T23:00:44.000+02:00</time>
      </trkpt>
      <trkpt lat="42.62621" lon="-2.40683">
        <ele>884.8</ele>
        <time>2023-08-07T23:01:00.000+02:00</time>
      </trkpt>
      <trkpt lat="42.62305" lon="-2.40881">
        <ele>845.7</ele>
        <time>2023-08-07T23:01:53.000+02:00</time>
      </trkpt>
      <trkpt lat="42.62157" lon="-2.41169">
        <ele>807.1</ele>
        <time>2023-08-07T23:02:33.000+02:00</time>
      </trkpt>
      <trkpt lat="42.6218" lon="-2.41356">
        <ele>794.3</ele>
        <time>2023-08-07T23:02:54.000+02:00</time>
      </trkpt>
      <trkpt lat="42.62107" lon="-2.41307">
        <ele>794</ele>
        <time>2023-08-07T23:03:07.000+02:00</time>
      </trkpt>
      <trkpt lat="42.61964" lon="-2.41412">
        <ele>790.8</ele>
        <time>2023-08-07T23:03:31.000+02:00</time>
      </trkpt>
      <trkpt lat="42.61782" lon="-2.41817">
        <ele>797.3</ele>
        <time>2023-08-07T23:04:25.000+02:00</time>
      </trkpt>
      <trkpt lat="42.61617" lon="-2.42011">
        <ele>815.3</ele>
        <time>2023-08-07T23:04:58.000+02:00</time>
      </trkpt>
      <trkpt lat="42.61437" lon="-2.42145">
        <ele>829.3</ele>
        <time>2023-08-07T23:05:29.000+02:00</time>
      </trkpt>
      <trkpt lat="42.61331" lon="-2.42122">
        <ele>835.2</ele>
        <time>2023-08-07T23:05:46.000+02:00</time>
      </trkpt>
      <trkpt lat="42.61218" lon="-2.41978">
        <ele>836.1</ele>
        <time>2023-08-07T23:06:09.000+02:00</time>
      </trkpt>
      <trkpt lat="42.60951" lon="-2.41797">
        <ele>863.2</ele>
        <time>2023-08-07T23:06:55.000+02:00</time>
      </trkpt>
      <trkpt lat="42.60801" lon="-2.41522">
        <ele>884</ele>
        <time>2023-08-07T23:07:34.000+02:00</time>
      </trkpt>
      <trkpt lat="42.60742" lon="-2.41359">
        <ele>887</ele>
        <time>2023-08-07T23:07:54.000+02:00</time>
      </trkpt>
      <trkpt lat="42.60634" lon="-2.41193">
        <ele>907.5</ele>
        <time>2023-08-07T23:08:19.000+02:00</time>
      </trkpt>
      <trkpt lat="42.60508" lon="-2.4121">
        <ele>918</ele>
        <time>2023-08-07T23:08:38.000+02:00</time>
      </trkpt>
      <trkpt lat="42.60558" lon="-2.41252">
        <ele>925</ele>
        <time>2023-08-07T23:08:47.000+02:00</time>
      </trkpt>
      <trkpt lat="42.60635" lon="-2.414">
        <ele>942</ele>
        <time>2023-08-07T23:09:08.000+02:00</time>
      </trkpt>
      <trkpt lat="42.60683" lon="-2.41686">
        <ele>951.4</ele>
        <time>2023-08-07T23:09:41.000+02:00</time>
      </trkpt>
      <trkpt lat="42.60815" lon="-2.42102">
        <ele>964.6</ele>
        <time>2023-08-07T23:10:31.000+02:00</time>
      </trkpt>
      <trkpt lat="42.60863" lon="-2.42348">
        <ele>971.6</ele>
        <time>2023-08-07T23:11:00.000+02:00</time>
      </trkpt>
      <trkpt lat="42.60957" lon="-2.42442">
        <ele>968.5</ele>
        <time>2023-08-07T23:11:18.000+02:00</time>
      </trkpt>
      <trkpt lat="42.61075" lon="-2.42777">
        <ele>930.7</ele>
        <time>2023-08-07T23:12:00.000+02:00</time>
      </trkpt>
      <trkpt lat="42.61092" lon="-2.42945">
        <ele>929</ele>
        <time>2023-08-07T23:12:19.000+02:00</time>
      </trkpt>
      <trkpt lat="42.61004" lon="-2.43105">
        <ele>915.6</ele>
        <time>2023-08-07T23:12:41.000+02:00</time>
      </trkpt>
      <trkpt lat="42.60968" lon="-2.43276">
        <ele>916.5</ele>
        <time>2023-08-07T23:13:01.000+02:00</time>
      </trkpt>
      <trkpt lat="42.60909" lon="-2.43331">
        <ele>918.3</ele>
        <time>2023-08-07T23:13:12.000+02:00</time>
      </trkpt>
      <trkpt lat="42.60883" lon="-2.43413">
        <ele>917.6</ele>
        <time>2023-08-07T23:13:22.000+02:00</time>
      </trkpt>
      <trkpt lat="42.60948" lon="-2.43592">
        <ele>903.4</ele>
        <time>2023-08-07T23:13:45.000+02:00</time>
      </trkpt>
      <trkpt lat="42.60907" lon="-2.43776">
        <ele>902.5</ele>
        <time>2023-08-07T23:14:06.000+02:00</time>
      </trkpt>
      <trkpt lat="42.61023" lon="-2.44093">
        <ele>901.2</ele>
        <time>2023-08-07T23:14:46.000+02:00</time>
      </trkpt>
      <trkpt lat="42.61072" lon="-2.4441">
        <ele>915.2</ele>
        <time>2023-08-07T23:15:22.000+02:00</time>
      </trkpt>
      <trkpt lat="42.6105" lon="-2.44491">
        <ele>920.8</ele>
        <time>2023-08-07T23:15:32.000+02:00</time>
      </trkpt>
      <trkpt lat="42.60877" lon="-2.44706">
        <ele>930.9</ele>
        <time>2023-08-07T23:16:08.000+02:00</time>
      </trkpt>
      <trkpt lat="42.60868" lon="-2.44793">
        <ele>934.3</ele>
        <time>2023-08-07T23:16:18.000+02:00</time>
      </trkpt>
      <trkpt lat="42.60804" lon="-2.44864">
        <ele>929.8</ele>
        <time>2023-08-07T23:16:30.000+02:00</time>
      </trkpt>
      <trkpt lat="42.60736" lon="-2.45048">
        <ele>928.9</ele>
        <time>2023-08-07T23:16:54.000+02:00</time>
      </trkpt>
      <trkpt lat="42.60688" lon="-2.45385">
        <ele>935</ele>
        <time>2023-08-07T23:17:32.000+02:00</time>
      </trkpt>
      <trkpt lat="42.60562" lon="-2.45616">
        <ele>946.2</ele>
        <time>2023-08-07T23:18:05.000+02:00</time>
      </trkpt>
      <trkpt lat="42.60475" lon="-2.4584">
        <ele>955.2</ele>
        <time>2023-08-07T23:18:33.000+02:00</time>
      </trkpt>
      <trkpt lat="42.60475" lon="-2.45921">
        <ele>958.1</ele>
        <time>2023-08-07T23:18:42.000+02:00</time>
      </trkpt>
      <trkpt lat="42.60276" lon="-2.46501">
        <ele>938.6</ele>
        <time>2023-08-07T23:19:54.000+02:00</time>
      </trkpt>
      <trkpt lat="42.60249" lon="-2.46781">
        <ele>924.9</ele>
        <time>2023-08-07T23:20:26.000+02:00</time>
      </trkpt>
      <trkpt lat="42.60292" lon="-2.47085">
        <ele>916.4</ele>
        <time>2023-08-07T23:21:01.000+02:00</time>
      </trkpt>
      <trkpt lat="42.60428" lon="-2.47091">
        <ele>930.3</ele>
        <time>2023-08-07T23:21:21.000+02:00</time>
      </trkpt>
      <trkpt lat="42.60549" lon="-2.47171">
        <ele>951</ele>
        <time>2023-08-07T23:21:42.000+02:00</time>
      </trkpt>
      <trkpt lat="42.60623" lon="-2.47278">
        <ele>964.8</ele>
        <time>2023-08-07T23:21:59.000+02:00</time>
      </trkpt>
      <trkpt lat="42.60699" lon="-2.47704">
        <ele>954.7</ele>
        <time>2023-08-07T23:22:48.000+02:00</time>
      </trkpt>
      <trkpt lat="42.60741" lon="-2.47824">
        <ele>947.4</ele>
        <time>2023-08-07T23:23:03.000+02:00</time>
      </trkpt>
      <trkpt lat="42.60851" lon="-2.47971">
        <ele>945.2</ele>
        <time>2023-08-07T23:23:26.000+02:00</time>
      </trkpt>
      <trkpt lat="42.609" lon="-2.48082">
        <ele>938.3</ele>
        <time>2023-08-07T23:23:41.000+02:00</time>
      </trkpt>
      <trkpt lat="42.6093" lon="-2.48176">
        <ele>931.3</ele>
        <time>2023-08-07T23:23:52.000+02:00</time>
      </trkpt>
      <trkpt lat="42.6093" lon="-2.48278">
        <ele>919.2</ele>
        <time>2023-08-07T23:24:04.000+02:00</time>
      </trkpt>
      <trkpt lat="42.61" lon="-2.4842">
        <ele>918.8</ele>
        <time>2023-08-07T23:24:23.000+02:00</time>
      </trkpt>
      <trkpt lat="42.6108" lon="-2.48789">
        <ele>923.6</ele>
        <time>2023-08-07T23:25:06.000+02:00</time>
      </trkpt>
      <trkpt lat="42.61142" lon="-2.48947">
        <ele>921.6</ele>
        <time>2023-08-07T23:25:27.000+02:00</time>
      </trkpt>
      <trkpt lat="42.61157" lon="-2.49004">
        <ele>916.8</ele>
        <time>2023-08-07T23:25:33.000+02:00</time>
      </trkpt>
      <trkpt lat="42.61118" lon="-2.49071">
        <ele>908.7</ele>
        <time>2023-08-07T23:25:43.000+02:00</time>
      </trkpt>
      <trkpt lat="42.61135" lon="-2.49125">
        <ele>903.7</ele>
        <time>2023-08-07T23:25:50.000+02:00</time>
      </trkpt>
      <trkpt lat="42.61131" lon="-2.49299">
        <ele>897.5</ele>
        <time>2023-08-07T23:26:09.000+02:00</time>
      </trkpt>
      <trkpt lat="42.6108" lon="-2.49418">
        <ele>894</ele>
        <time>2023-08-07T23:26:25.000+02:00</time>
      </trkpt>
      <trkpt lat="42.61175" lon="-2.49552">
        <ele>895.2</ele>
        <time>2023-08-07T23:26:45.000+02:00</time>
      </trkpt>
      <trkpt lat="42.61177" lon="-2.496">
        <ele>898.3</ele>
        <time>2023-08-07T23:26:51.000+02:00</time>
      </trkpt>
      <trkpt lat="42.61087" lon="-2.49891">
        <ele>877.7</ele>
        <time>2023-08-07T23:27:26.000+02:00</time>
      </trkpt>
    </trkseg>
  </trk>
</gpx>